Provisional Data: Susquehanna River near Danville, PA


Please select a monitoring station.
Please select start date.
Please select start date.

<
Toggle Unit: C/F Toggle Unit: C/F
Sample Time Temperature (C) Temperature (F) Specific Conductivity (mS/cm) pH   Turbidity (NTU+) DO (mg/L)
12/11/2021 12:00:00 AM 4.07 39.326 0.243 7.9 2.25 0
12/11/2021 12:15:00 AM 4.07 39.326 0.243 7.9 2.22 0
12/11/2021 12:30:00 AM 4.08 39.344 0.243 7.9 2.18 0
12/11/2021 12:45:00 AM 4.08 39.344 0.243 7.91 2.23 0
12/11/2021 1:00:00 AM 4.08 39.344 0.243 7.9 2.23 0
12/11/2021 1:15:00 AM 4.08 39.344 0.243 7.89 2.25 0
12/11/2021 1:30:00 AM 4.09 39.362 0.243 7.9 2.25 0
12/11/2021 1:45:00 AM 4.09 39.362 0.243 7.89 2.19 0
12/11/2021 2:00:00 AM 4.1 39.38 0.243 7.89 2.23 0
12/11/2021 2:15:00 AM 4.1 39.38 0.243 7.89 2.21 0
12/11/2021 2:30:00 AM 4.1 39.38 0.243 7.87 2.24 0
12/11/2021 2:45:00 AM 4.11 39.398 0.243 7.89 2.23 0
12/11/2021 3:00:00 AM 4.11 39.398 0.243 7.89 2.19 0
12/11/2021 3:15:00 AM 4.11 39.398 0.243 7.88 2.21 0
12/11/2021 3:30:00 AM 4.11 39.398 0.243 7.87 2.28 0
12/11/2021 3:45:00 AM 4.12 39.416 0.243 7.88 2.21 0
12/11/2021 4:00:00 AM 4.12 39.416 0.243 7.89 2.21 0
12/11/2021 4:15:00 AM 4.12 39.416 0.243 7.86 2.22 0
12/11/2021 4:30:00 AM 4.12 39.416 0.243 7.89 2.19 0
12/11/2021 4:45:00 AM 4.13 39.434 0.243 7.89 2.18 0
12/11/2021 5:00:00 AM 4.17 39.506 0.243 7.85 2.23 0
12/11/2021 5:15:00 AM 4.32 39.776 0.242 7.8 2.39 0
12/11/2021 5:30:00 AM 4.34 39.812 0.242 7.79 2.25 0
12/11/2021 5:45:00 AM 4.27 39.686 0.242 7.79 2.27 0
12/11/2021 6:00:00 AM 4.2 39.56 0.242 7.79 2.24 8.98
12/11/2021 6:15:00 AM 4.14 39.452 0.243 7.8 2.21 0
12/11/2021 6:30:00 AM 4.09 39.362 0.243 7.8 2.3 0
12/11/2021 6:45:00 AM 4.05 39.29 0.243 7.81 2.21 0
12/11/2021 7:00:00 AM 4.02 39.236 0.243 7.81 2.25 0
12/11/2021 7:15:00 AM 3.99 39.182 0.243 7.81 2.22 0
12/11/2021 7:30:00 AM 3.97 39.146 0.243 7.82 2.19 0
12/11/2021 7:45:00 AM 3.95 39.11 0.243 7.82 2.23 0
12/11/2021 8:00:00 AM 3.93 39.074 0.243 7.82 2.2 0
12/11/2021 8:15:00 AM 3.92 39.056 0.243 7.83 2.25 0
12/11/2021 8:30:00 AM 3.91 39.038 0.243 7.82 2.18 0
12/11/2021 8:45:00 AM 3.91 39.038 0.243 7.82 2.27 0
12/11/2021 9:00:00 AM 3.9 39.02 0.243 7.81 2.23 0
12/11/2021 9:15:00 AM 3.9 39.02 0.243 7.82 2.19 0
12/11/2021 9:30:00 AM 3.9 39.02 0.243 7.83 2.21 0
12/11/2021 9:45:00 AM 3.9 39.02 0.243 7.83 2.19 0
12/11/2021 10:00:00 AM 3.9 39.02 0.243 7.82 2.19 0
12/11/2021 10:15:00 AM 3.9 39.02 0.243 7.83 2.27 0
12/11/2021 10:30:00 AM 3.91 39.038 0.243 7.83 2.2 0
12/11/2021 10:45:00 AM 3.91 39.038 0.243 7.83 2.2 0
12/11/2021 11:00:00 AM 3.92 39.056 0.243 7.82 2.22 0
12/11/2021 11:15:00 AM 3.92 39.056 0.244 7.81 2.23 0
12/11/2021 11:30:00 AM 3.93 39.074 0.244 7.85 2.2 0
12/11/2021 11:45:00 AM 3.94 39.092 0.244 7.83 2.22 0
12/11/2021 12:00:00 PM 3.95 39.11 0.244 7.84 2.18 0
12/11/2021 12:15:00 PM 3.96 39.128 0.244 7.85 2.16 0
12/11/2021 12:30:00 PM 3.97 39.146 0.244 7.81 2.16 0
12/11/2021 12:45:00 PM 3.97 39.146 0.243 7.85 2.17 0
12/11/2021 1:00:00 PM 3.98 39.164 0.244 7.86 2.22 0
12/11/2021 1:15:00 PM 3.99 39.182 0.244 7.85 2.17 0
12/11/2021 1:30:00 PM 4 39.2 0.244 7.85 2.19 0
12/11/2021 1:45:00 PM 4.01 39.218 0.244 7.85 2.2 0
12/11/2021 2:00:00 PM 4.01 39.218 0.244 7.85 2.15 0
12/11/2021 2:15:00 PM 4.02 39.236 0.244 7.84 2.2 0
12/11/2021 2:30:00 PM 4.02 39.236 0.244 7.85 2.2 0
12/11/2021 2:45:00 PM 4.03 39.254 0.244 7.85 2.16 0
12/11/2021 3:00:00 PM 4.04 39.272 0.244 7.86 2.17 0
12/11/2021 3:15:00 PM 4.04 39.272 0.244 7.86 2.15 0
12/11/2021 3:30:00 PM 4.04 39.272 0.244 7.86 2.19 0
12/11/2021 3:45:00 PM 4.05 39.29 0.244 7.85 2.18 0
12/11/2021 4:00:00 PM 4.05 39.29 0.244 7.86 2.15 0
12/11/2021 4:15:00 PM 4.05 39.29 0.244 7.84 2.23 0
12/11/2021 4:30:00 PM 4.06 39.308 0.244 7.86 2.15 0
12/11/2021 4:45:00 PM 4.06 39.308 0.244 7.86 2.15 0
12/11/2021 5:00:00 PM 4.06 39.308 0.244 7.86 2.18 0
12/11/2021 5:15:00 PM 4.07 39.326 0.244 7.86 2.14 0
12/11/2021 5:30:00 PM 4.07 39.326 0.244 7.86 2.16 0
12/11/2021 5:45:00 PM 4.07 39.326 0.244 7.87 2.13 0
12/11/2021 6:00:00 PM 4.08 39.344 0.244 7.87 2.13 0
12/11/2021 6:15:00 PM 4.08 39.344 0.244 7.84 2.17 0
12/11/2021 6:30:00 PM 4.09 39.362 0.244 7.86 2.13 0
12/11/2021 6:45:00 PM 4.09 39.362 0.244 7.86 2.14 0
12/11/2021 7:00:00 PM 4.09 39.362 0.244 7.83 2.21 0
12/11/2021 7:15:00 PM 4.1 39.38 0.244 7.87 2.17 0
12/11/2021 7:30:00 PM 4.1 39.38 0.244 7.87 2.15 0
12/11/2021 7:45:00 PM 4.11 39.398 0.244 7.84 2.17 0
12/11/2021 8:00:00 PM 4.11 39.398 0.244 7.86 2.15 0
12/11/2021 8:15:00 PM 4.11 39.398 0.244 7.87 2.15 0
12/11/2021 8:30:00 PM 4.11 39.398 0.244 7.86 2.16 0
12/11/2021 8:45:00 PM 4.11 39.398 0.244 7.86 2.13 0
12/11/2021 9:00:00 PM 4.11 39.398 0.244 7.86 2.16 0
12/11/2021 9:15:00 PM 4.12 39.416 0.244 7.87 2.12 0
12/11/2021 9:30:00 PM 4.12 39.416 0.244 7.84 2.16 0
12/11/2021 9:45:00 PM 4.12 39.416 0.244 7.87 2.13 0
12/11/2021 10:00:00 PM 4.12 39.416 0.244 7.84 2.17 0
12/11/2021 10:15:00 PM 4.12 39.416 0.244 7.87 2.09 0
12/11/2021 10:30:00 PM 4.12 39.416 0.244 7.87 2.13 0
12/11/2021 10:45:00 PM 4.12 39.416 0.244 7.87 2.11 0
12/11/2021 11:00:00 PM 4.12 39.416 0.244 7.87 2.1 0
12/11/2021 11:15:00 PM 4.12 39.416 0.244 7.87 2.15 0
12/11/2021 11:30:00 PM 4.13 39.434 0.244 7.87 2.15 0
12/11/2021 11:45:00 PM 4.13 39.434 0.245 7.87 2.17 0
12/12/2021 12:00:00 AM 4.13 39.434 0.245 7.86 2.15 0
12/12/2021 12:15:00 AM 4.13 39.434 0.245 7.86 2.09 0
12/12/2021 12:30:00 AM 4.13 39.434 0.245 7.87 2.2 0
12/12/2021 12:45:00 AM 4.14 39.452 0.245 7.87 2.15 0
12/12/2021 1:00:00 AM 4.14 39.452 0.245 7.87 2.12 0
12/12/2021 1:15:00 AM 4.15 39.47 0.245 7.87 2.11 0
12/12/2021 1:30:00 AM 4.15 39.47 0.245 7.87 2.14 0
12/12/2021 1:45:00 AM 4.15 39.47 0.245 7.87 2.09 0
12/12/2021 2:00:00 AM 4.16 39.488 0.245 7.87 2.13 0
12/12/2021 2:15:00 AM 4.16 39.488 0.245 7.87 2.12 0
12/12/2021 2:30:00 AM 4.16 39.488 0.245 7.85 2.11 0
12/12/2021 2:45:00 AM 4.17 39.506 0.245 7.85 2.1 0
12/12/2021 3:00:00 AM 4.17 39.506 0.245 7.86 2.12 0
12/12/2021 3:15:00 AM 4.17 39.506 0.245 7.87 2.15 0
12/12/2021 3:30:00 AM 4.18 39.524 0.245 7.87 2.12 0
12/12/2021 3:45:00 AM 4.18 39.524 0.245 7.86 2.15 0
12/12/2021 4:00:00 AM 4.18 39.524 0.245 7.84 2.11 0
12/12/2021 4:15:00 AM 4.19 39.542 0.245 7.86 2.12 0
12/12/2021 4:30:00 AM 4.19 39.542 0.245 7.87 2.08 0
12/12/2021 4:45:00 AM 4.2 39.56 0.245 7.87 2.1 0
12/12/2021 5:00:00 AM 4.27 39.686 0.244 7.83 2.12 0
12/12/2021 5:15:00 AM 4.46 40.028 0.243 7.78 2.29 0
12/12/2021 5:30:00 AM 4.53 40.154 0.243 7.73 2.13 0
12/12/2021 5:45:00 AM 4.53 40.154 0.243 7.75 2.14 0
12/12/2021 6:00:00 AM 4.53 40.154 0.244 7.75 2.11 0
12/12/2021 6:15:00 AM 4.51 40.118 0.244 7.75 2.21 0
12/12/2021 6:30:00 AM 4.5 40.1 0.244 7.76 2.17 0
12/12/2021 6:45:00 AM 4.51 40.118 0.244 7.77 2.15 0
12/12/2021 7:00:00 AM 4.52 40.136 0.244 7.78 2.13 0
12/12/2021 7:15:00 AM 4.49 40.082 0.244 7.78 2.1 0
12/12/2021 7:30:00 AM 4.47 40.046 0.244 7.78 2.12 0
12/12/2021 7:45:00 AM 4.44 39.992 0.244 7.78 2.27 0
12/12/2021 8:00:00 AM 4.41 39.938 0.244 7.78 2.09 0
12/12/2021 8:15:00 AM 4.39 39.902 0.244 7.8 2.13 0
12/12/2021 8:30:00 AM 4.37 39.866 0.244 7.79 2.22 0
12/12/2021 8:45:00 AM 4.36 39.848 0.244 7.79 2.09 0
12/12/2021 9:00:00 AM 4.34 39.812 0.244 7.79 2.11 0
12/12/2021 9:15:00 AM 4.34 39.812 0.244 7.8 2.12 0
12/12/2021 9:30:00 AM 4.33 39.794 0.244 7.8 2.12 0
12/12/2021 9:45:00 AM 4.33 39.794 0.244 7.81 2.14 0
12/12/2021 10:00:00 AM 4.33 39.794 0.244 7.8 2.14 0
12/12/2021 10:15:00 AM 4.34 39.812 0.244 7.8 2.14 0
12/12/2021 10:30:00 AM 4.34 39.812 0.245 7.79 2.17 0
12/12/2021 10:45:00 AM 4.36 39.848 0.244 7.81 2.1 0
12/12/2021 11:00:00 AM 4.36 39.848 0.245 7.8 2.12 0
12/12/2021 11:15:00 AM 4.37 39.866 0.245 7.78 2.07 0
12/12/2021 11:30:00 AM 4.39 39.902 0.245 7.81 2.07 0
12/12/2021 11:45:00 AM 4.4 39.92 0.245 7.81 2.07 0
12/12/2021 12:00:00 PM 4.41 39.938 0.245 7.8 2.11 0
12/12/2021 12:15:00 PM 4.4 39.92 0.245 7.83 2.08 0
12/12/2021 12:30:00 PM 4.41 39.938 0.245 7.84 2.14 0
12/12/2021 12:45:00 PM 4.42 39.956 0.245 7.83 2.07 0
12/12/2021 1:00:00 PM 4.43 39.974 0.245 7.83 2.1 0
12/12/2021 1:15:00 PM 4.43 39.974 0.245 7.81 2.1 0
12/12/2021 1:30:00 PM 4.44 39.992 0.245 7.81 2.11 0
12/12/2021 1:45:00 PM 4.44 39.992 0.245 7.83 2.09 0
12/12/2021 2:00:00 PM 4.45 40.01 0.245 7.84 2.13 0
12/12/2021 2:15:00 PM 4.45 40.01 0.245 7.83 2.07 0
12/12/2021 2:30:00 PM 4.46 40.028 0.245 7.83 2.06 0
12/12/2021 2:45:00 PM 4.46 40.028 0.245 7.83 2.09 0
12/12/2021 3:00:00 PM 4.47 40.046 0.245 7.84 2.08 0
12/12/2021 3:15:00 PM 4.47 40.046 0.245 7.84 2.08 0
12/12/2021 3:30:00 PM 4.47 40.046 0.245 7.84 2.08 0
12/12/2021 3:45:00 PM 4.48 40.064 0.245 7.84 2.11 0
12/12/2021 4:00:00 PM 4.48 40.064 0.245 7.81 2.08 0
12/12/2021 4:15:00 PM 4.49 40.082 0.245 7.84 2.09 0
12/12/2021 4:30:00 PM 4.49 40.082 0.245 7.84 2.1 0
12/12/2021 4:45:00 PM 4.49 40.082 0.245 7.83 2.05 0
12/12/2021 5:00:00 PM 4.5 40.1 0.245 7.84 2.07 0
12/12/2021 5:15:00 PM 4.5 40.1 0.245 7.85 2.05 0
12/12/2021 5:30:00 PM 4.5 40.1 0.246 7.84 2.08 0
12/12/2021 5:45:00 PM 4.51 40.118 0.246 7.84 2.05 0
12/12/2021 6:00:00 PM 4.51 40.118 0.246 7.86 2.07 0
12/12/2021 6:15:00 PM 4.51 40.118 0.246 7.84 2.08 0
12/12/2021 6:30:00 PM 4.52 40.136 0.246 7.86 2.07 0
12/12/2021 6:45:00 PM 4.52 40.136 0.246 7.86 2.07 0
12/12/2021 7:00:00 PM 4.52 40.136 0.246 7.85 2.09 0
12/12/2021 7:15:00 PM 4.52 40.136 0.246 7.83 2.1 0
12/12/2021 7:30:00 PM 4.52 40.136 0.246 7.86 2.07 0
12/12/2021 7:45:00 PM 4.53 40.154 0.246 7.86 2.06 0
12/12/2021 8:00:00 PM 4.53 40.154 0.246 7.84 2.08 0
12/12/2021 8:15:00 PM 4.53 40.154 0.246 7.85 2.12 0
12/12/2021 8:30:00 PM 4.53 40.154 0.246 7.86 2.06 0
12/12/2021 8:45:00 PM 4.54 40.172 0.246 7.86 2.03 0
12/12/2021 9:00:00 PM 4.54 40.172 0.246 7.86 2.05 0
12/12/2021 9:15:00 PM 4.55 40.19 0.246 7.86 2.09 0
12/12/2021 9:30:00 PM 4.55 40.19 0.246 7.87 2.07 0
12/12/2021 9:45:00 PM 4.55 40.19 0.246 7.83 2.08 0
12/12/2021 10:00:00 PM 4.56 40.208 0.246 7.86 2.08 0
12/12/2021 10:15:00 PM 4.56 40.208 0.246 7.87 2.06 0
12/12/2021 10:30:00 PM 4.56 40.208 0.246 7.86 2.06 0
12/12/2021 10:45:00 PM 4.57 40.226 0.246 7.86 2.1 0
12/12/2021 11:00:00 PM 4.57 40.226 0.246 7.87 2.06 0
12/12/2021 11:15:00 PM 4.57 40.226 0.246 7.87 2.06 0
12/12/2021 11:30:00 PM 4.57 40.226 0.246 7.86 2.07 0
12/12/2021 11:45:00 PM 4.57 40.226 0.246 7.86 2.09 0
12/13/2021 12:00:00 AM 4.58 40.244 0.246 7.87 2.09 8.26
12/13/2021 12:15:00 AM 4.59 40.262 0.246 7.87 2.06 0
12/13/2021 12:30:00 AM 4.59 40.262 0.246 7.85 2.09 0
12/13/2021 12:45:00 AM 4.6 40.28 0.246 7.87 2.06 0
12/13/2021 1:00:00 AM 4.6 40.28 0.246 7.87 2.05 0
12/13/2021 1:15:00 AM 4.61 40.298 0.246 7.86 2.07 0
12/13/2021 1:30:00 AM 4.62 40.316 0.246 7.86 2.06 0
12/13/2021 1:45:00 AM 4.62 40.316 0.246 7.88 2.09 0
12/13/2021 2:00:00 AM 4.62 40.316 0.246 7.87 2.04 0
12/13/2021 2:15:00 AM 4.62 40.316 0.246 7.86 2.07 0
12/13/2021 2:30:00 AM 4.62 40.316 0.246 7.88 2.07 0
12/13/2021 2:45:00 AM 4.63 40.334 0.246 7.87 2.05 0
12/13/2021 3:00:00 AM 4.63 40.334 0.246 7.88 2.07 0
12/13/2021 3:15:00 AM 4.63 40.334 0.246 7.87 2.07 0
12/13/2021 3:30:00 AM 4.63 40.334 0.247 7.88 2.09 0
12/13/2021 3:45:00 AM 4.63 40.334 0.246 7.88 2.05 0
12/13/2021 4:00:00 AM 4.64 40.352 0.246 7.87 2.07 0
12/13/2021 4:15:00 AM 4.64 40.352 0.246 7.87 2.03 0
12/13/2021 4:30:00 AM 4.65 40.37 0.247 7.88 2.07 0
12/13/2021 4:45:00 AM 4.68 40.424 0.246 7.85 2.07 0
12/13/2021 5:00:00 AM 4.8 40.64 0.245 7.75 2.02 0
12/13/2021 5:15:00 AM 4.74 40.532 0.245 7.73 2.07 0
12/13/2021 5:30:00 AM 4.59 40.262 0.245 7.74 2.06 0
12/13/2021 5:45:00 AM 4.49 40.082 0.245 7.75 2.06 0
12/13/2021 6:00:00 AM 4.4 39.92 0.246 7.76 2.08 0
12/13/2021 6:15:00 AM 4.33 39.794 0.246 7.78 2.07 0
12/13/2021 6:30:00 AM 4.27 39.686 0.246 7.8 2.13 0
12/13/2021 6:45:00 AM 4.21 39.578 0.246 7.8 2.12 0
12/13/2021 7:00:00 AM 4.17 39.506 0.246 7.79 2.22 0
12/13/2021 7:15:00 AM 4.13 39.434 0.246 7.81 2.16 0
12/13/2021 7:30:00 AM 4.11 39.398 0.246 7.82 2.2 0
12/13/2021 7:45:00 AM 4.08 39.344 0.246 7.83 2.17 0
12/13/2021 8:00:00 AM 4.06 39.308 0.246 7.84 2.3 0
12/13/2021 8:15:00 AM 4.04 39.272 0.246 7.84 2.28 0
12/13/2021 8:30:00 AM 4.02 39.236 0.246 7.84 2.21 0
12/13/2021 8:45:00 AM 4.01 39.218 0.246 7.85 2.3 0
12/13/2021 9:00:00 AM 4 39.2 0.246 7.85 2.3 0
12/13/2021 9:15:00 AM 4.03 39.254 0.246 7.85 2.29 0
12/13/2021 9:30:00 AM 4.04 39.272 0.246 7.86 2.18 0
12/13/2021 9:45:00 AM 4.02 39.236 0.246 7.86 2.24 0
12/13/2021 10:00:00 AM 4.01 39.218 0.246 7.87 2.25 0
12/13/2021 10:15:00 AM 4.01 39.218 0.246 7.87 2.24 0
12/13/2021 10:30:00 AM 4.01 39.218 0.246 7.87 2.34 0
12/13/2021 10:45:00 AM 4.01 39.218 0.246 7.88 2.3 0
12/13/2021 11:00:00 AM 4.02 39.236 0.246 7.88 2.32 0
12/13/2021 11:15:00 AM 4.04 39.272 0.246 7.89 2.29 0
12/13/2021 11:30:00 AM 4.06 39.308 0.246 7.89 2.36 0
12/13/2021 11:45:00 AM 4.08 39.344 0.246 7.88 2.32 0
12/13/2021 12:00:00 PM 4.1 39.38 0.246 7.88 2.31 0
12/13/2021 12:15:00 PM 4.13 39.434 0.246 7.89 2.31 0
12/13/2021 12:30:00 PM 4.15 39.47 0.246 7.89 2.39 0
12/13/2021 12:45:00 PM 4.18 39.524 0.246 7.89 2.35 0
12/13/2021 1:00:00 PM 4.2 39.56 0.246 7.89 2.5 0
12/13/2021 1:15:00 PM 4.23 39.614 0.245 7.95 2.52 0
12/13/2021 1:30:00 PM 4.25 39.65 0.245 7.92 2.37 0
12/13/2021 1:45:00 PM 4.28 39.704 0.245 7.96 2.36 0
12/13/2021 2:00:00 PM 4.31 39.758 0.245 7.96 2.45 0
12/13/2021 2:15:00 PM 4.33 39.794 0.245 7.97 2.32 0
12/13/2021 2:30:00 PM 4.35 39.83 0.245 7.95 2.43 0
12/13/2021 2:45:00 PM 4.37 39.866 0.245 7.95 2.38 0
12/13/2021 3:00:00 PM 4.38 39.884 0.245 7.94 2.33 9.93
12/13/2021 3:15:00 PM 4.4 39.92 0.245 7.95 2.41 0
12/13/2021 3:30:00 PM 4.4 39.92 0.244 7.95 2.46 0
12/13/2021 3:45:00 PM 4.41 39.938 0.244 7.97 2.51 0
12/13/2021 4:00:00 PM 4.42 39.956 0.244 7.97 2.41 0
12/13/2021 4:15:00 PM 4.43 39.974 0.244 7.97 2.41 0
12/13/2021 4:30:00 PM 4.44 39.992 0.244 7.97 2.37 0
12/13/2021 4:45:00 PM 4.44 39.992 0.244 7.96 2.44 0
12/13/2021 5:00:00 PM 4.45 40.01 0.244 7.95 2.29 0
12/13/2021 5:15:00 PM 4.45 40.01 0.244 7.96 2.37 0
12/13/2021 5:30:00 PM 4.45 40.01 0.244 7.96 2.34 0
12/13/2021 5:45:00 PM 4.46 40.028 0.244 7.95 2.36 0
12/13/2021 6:00:00 PM 4.46 40.028 0.244 7.97 2.4 0
12/13/2021 6:15:00 PM 4.46 40.028 0.244 7.95 2.37 0
12/13/2021 6:30:00 PM 4.47 40.046 0.244 7.96 2.4 0
12/13/2021 6:45:00 PM 4.47 40.046 0.244 7.96 2.31 0
12/13/2021 7:00:00 PM 4.47 40.046 0.244 7.96 2.31 0
12/13/2021 7:15:00 PM 4.47 40.046 0.244 7.96 2.33 0
12/13/2021 7:30:00 PM 4.48 40.064 0.244 7.95 2.38 0
12/13/2021 7:45:00 PM 4.49 40.082 0.244 7.95 2.39 0
12/13/2021 8:00:00 PM 4.49 40.082 0.244 7.94 2.37 0
12/13/2021 8:15:00 PM 4.49 40.082 0.244 7.96 2.34 0
12/13/2021 8:30:00 PM 4.49 40.082 0.244 7.95 2.36 0
12/13/2021 8:45:00 PM 4.49 40.082 0.244 7.96 2.35 0
12/13/2021 9:00:00 PM 4.49 40.082 0.244 7.96 2.33 0
12/13/2021 9:15:00 PM 4.5 40.1 0.244 7.96 2.33 0
12/13/2021 9:30:00 PM 4.5 40.1 0.244 7.95 2.36 0
12/13/2021 9:45:00 PM 4.5 40.1 0.244 7.95 2.32 0
12/13/2021 10:00:00 PM 4.5 40.1 0.244 7.95 2.43 0
12/13/2021 10:15:00 PM 4.51 40.118 0.244 7.93 2.33 0
12/13/2021 10:30:00 PM 4.51 40.118 0.244 7.94 2.32 0
12/13/2021 10:45:00 PM 4.51 40.118 0.244 7.95 2.42 0
12/13/2021 11:00:00 PM 4.51 40.118 0.244 7.96 2.43 0
12/13/2021 11:15:00 PM 4.51 40.118 0.244 7.95 2.29 0
12/13/2021 11:30:00 PM 4.52 40.136 0.244 7.95 2.31 0
12/13/2021 11:45:00 PM 4.52 40.136 0.244 7.94 2.31 0
12/14/2021 12:00:00 AM 4.52 40.136 0.244 7.94 2.4 0
12/14/2021 12:15:00 AM 4.52 40.136 0.244 7.94 2.33 0
12/14/2021 12:30:00 AM 4.52 40.136 0.244 7.94 2.33 0
12/14/2021 12:45:00 AM 4.53 40.154 0.244 7.95 2.27 0
12/14/2021 1:00:00 AM 4.53 40.154 0.244 7.94 2.36 0
12/14/2021 1:15:00 AM 4.53 40.154 0.244 7.94 2.33 0
12/14/2021 1:30:00 AM 4.53 40.154 0.244 7.94 2.42 0
12/14/2021 1:45:00 AM 4.54 40.172 0.244 7.93 2.33 0
12/14/2021 2:00:00 AM 4.54 40.172 0.244 7.94 2.3 0
12/14/2021 2:15:00 AM 4.54 40.172 0.244 7.93 2.33 0
12/14/2021 2:30:00 AM 4.55 40.19 0.244 7.93 2.34 0
12/14/2021 2:45:00 AM 4.55 40.19 0.244 7.94 2.3 0
12/14/2021 3:00:00 AM 4.55 40.19 0.244 7.93 2.31 0
12/14/2021 3:15:00 AM 4.56 40.208 0.244 7.93 2.31 0
12/14/2021 3:30:00 AM 4.56 40.208 0.244 7.94 2.38 0
12/14/2021 3:45:00 AM 4.57 40.226 0.245 7.94 2.23 0
12/14/2021 4:00:00 AM 4.57 40.226 0.244 7.94 2.33 0
12/14/2021 4:15:00 AM 4.58 40.244 0.244 7.93 2.31 0
12/14/2021 4:30:00 AM 4.59 40.262 0.244 7.93 2.24 0
12/14/2021 4:45:00 AM 4.6 40.28 0.245 7.93 2.3 0
12/14/2021 5:00:00 AM 4.66 40.388 0.244 7.92 2.29 0
12/14/2021 5:15:00 AM 4.68 40.424 0.244 7.91 2.34 0
12/14/2021 5:30:00 AM 4.54 40.172 0.244 7.91 2.33 0
12/14/2021 5:45:00 AM 4.43 39.974 0.244 7.92 2.43 0
12/14/2021 6:00:00 AM 4.26 39.668 0.244 7.92 2.4 0
12/14/2021 6:15:00 AM 4.16 39.488 0.243 7.92 2.39 0
12/14/2021 6:30:00 AM 4.14 39.452 0.242 7.92 2.41 0
12/14/2021 6:45:00 AM 4.1 39.38 0.242 7.92 2.4 0
12/14/2021 7:00:00 AM 4.04 39.272 0.243 7.93 2.44 0
12/14/2021 7:15:00 AM 3.99 39.182 0.242 7.92 2.49 0
12/14/2021 7:30:00 AM 3.93 39.074 0.242 7.93 2.54 0
12/14/2021 7:45:00 AM 3.88 38.984 0.242 7.93 2.5 0
12/14/2021 8:00:00 AM 3.86 38.948 0.241 7.94 2.61 0
12/14/2021 8:15:00 AM 3.83 38.894 0.241 7.95 2.45 0
12/14/2021 8:30:00 AM 3.8 38.84 0.241 7.92 2.64 0
12/14/2021 8:45:00 AM 3.79 38.822 0.24 7.94 2.7 0
12/14/2021 9:00:00 AM 3.78 38.804 0.241 7.94 2.56 0
12/14/2021 9:15:00 AM 3.77 38.786 0.24 7.94 2.48 0
12/14/2021 9:30:00 AM 3.77 38.786 0.24 7.94 2.94 0
12/14/2021 9:45:00 AM 3.77 38.786 0.24 7.93 2.59 0
12/14/2021 10:00:00 AM 3.78 38.804 0.24 7.92 2.62 0
12/14/2021 10:15:00 AM 3.79 38.822 0.239 7.93 2.69 0
12/14/2021 10:30:00 AM 3.8 38.84 0.239 7.93 2.6 0
12/14/2021 10:45:00 AM 3.81 38.858 0.237 7.94 2.87 0
12/14/2021 11:00:00 AM 3.83 38.894 0.238 7.95 2.82 0
12/14/2021 11:15:00 AM 3.86 38.948 0.238 7.94 2.62 0
12/14/2021 11:30:00 AM 3.88 38.984 0.237 7.93 2.69 0
12/14/2021 11:45:00 AM 3.91 39.038 0.238 7.94 2.83 0
12/14/2021 12:00:00 PM 3.94 39.092 0.238 7.95 2.68 0
12/14/2021 12:15:00 PM 3.97 39.146 0.238 7.96 2.83 0
12/14/2021 12:30:00 PM 3.99 39.182 0.235 7.95 2.91 0
12/14/2021 12:45:00 PM 4.02 39.236 0.236 7.97 2.8 0
12/14/2021 1:00:00 PM 4.05 39.29 0.236 7.98 2.85 0
12/14/2021 1:15:00 PM 4.08 39.344 0.236 7.98 2.87 0
12/14/2021 1:30:00 PM 4.11 39.398 0.236 7.99 2.95 0
12/14/2021 1:45:00 PM 4.14 39.452 0.236 7.98 2.72 0
12/14/2021 2:00:00 PM 4.17 39.506 0.236 7.98 2.87 0
12/14/2021 2:15:00 PM 4.18 39.524 0.235 8 3.13 0
12/14/2021 2:30:00 PM 4.2 39.56 0.234 8 2.95 0
12/14/2021 2:45:00 PM 4.22 39.596 0.234 8 2.94 0
12/14/2021 3:00:00 PM 4.24 39.632 0.235 8 2.82 0
12/14/2021 3:15:00 PM 4.25 39.65 0.235 7.97 2.86 0
12/14/2021 3:30:00 PM 4.26 39.668 0.235 7.98 2.76 0
12/14/2021 3:45:00 PM 4.27 39.686 0.235 8 2.84 0
12/14/2021 4:00:00 PM 4.28 39.704 0.235 7.99 2.71 0
12/14/2021 4:15:00 PM 4.28 39.704 0.235 7.99 2.77 0
12/14/2021 4:30:00 PM 4.29 39.722 0.235 8 2.84 0
12/14/2021 4:45:00 PM 4.29 39.722 0.235 7.99 2.74 0
12/14/2021 5:00:00 PM 4.3 39.74 0.235 8.01 2.73 0
12/14/2021 5:15:00 PM 4.3 39.74 0.234 8 2.83 0
12/14/2021 5:30:00 PM 4.3 39.74 0.235 8.01 2.9 0
12/14/2021 5:45:00 PM 4.3 39.74 0.234 8 2.84 0
12/14/2021 6:00:00 PM 4.31 39.758 0.234 8 2.76 0
12/14/2021 6:15:00 PM 4.31 39.758 0.234 8 2.79 0
12/14/2021 6:30:00 PM 4.31 39.758 0.234 8 2.82 0
12/14/2021 6:45:00 PM 4.31 39.758 0.234 8.01 2.77 0
12/14/2021 7:00:00 PM 4.31 39.758 0.234 8 2.85 0
12/14/2021 7:15:00 PM 4.31 39.758 0.234 8 2.79 0
12/14/2021 7:30:00 PM 4.31 39.758 0.235 7.99 2.75 0
12/14/2021 7:45:00 PM 4.31 39.758 0.234 8.01 2.77 0
12/14/2021 8:00:00 PM 4.32 39.776 0.234 8.01 2.88 0
12/14/2021 8:15:00 PM 4.32 39.776 0.234 8.01 2.77 0
12/14/2021 8:30:00 PM 4.32 39.776 0.234 8.01 2.85 0
12/14/2021 8:45:00 PM 4.32 39.776 0.234 8.01 2.9 0
12/14/2021 9:00:00 PM 4.32 39.776 0.234 8.01 2.73 0
12/14/2021 9:15:00 PM 4.32 39.776 0.234 8.01 2.71 0
12/14/2021 9:30:00 PM 4.32 39.776 0.234 8.01 2.7 0
12/14/2021 9:45:00 PM 4.33 39.794 0.234 8.01 2.75 0
12/14/2021 10:00:00 PM 4.33 39.794 0.234 8 2.74 11.19
12/14/2021 10:15:00 PM 4.33 39.794 0.234 8.01 2.74 11.32
12/14/2021 10:30:00 PM 4.33 39.794 0.234 8.01 2.78 0
12/14/2021 10:45:00 PM 4.33 39.794 0.234 8.01 2.84 0
12/14/2021 11:00:00 PM 4.34 39.812 0.234 8.01 2.82 0
12/14/2021 11:15:00 PM 4.34 39.812 0.234 8.02 2.82 0
12/14/2021 11:30:00 PM 4.34 39.812 0.234 8.01 2.81 0
12/14/2021 11:45:00 PM 4.34 39.812 0.234 8 2.83 0
12/15/2021 12:00:00 AM 4.34 39.812 0.234 8.01 2.73 0
12/15/2021 12:15:00 AM 4.35 39.83 0.234 8.01 2.73 0
12/15/2021 12:30:00 AM 4.35 39.83 0.234 8.01 2.77 0
12/15/2021 12:45:00 AM 4.35 39.83 0.234 8.01 2.74 0
12/15/2021 1:00:00 AM 4.35 39.83 0.234 8.01 2.87 0
12/15/2021 1:15:00 AM 4.35 39.83 0.234 8 2.79 0
12/15/2021 1:30:00 AM 4.35 39.83 0.234 7.99 2.77 0
12/15/2021 1:45:00 AM 4.35 39.83 0.234 8.01 2.8 0
12/15/2021 2:00:00 AM 4.36 39.848 0.234 8.01 2.81 0
12/15/2021 2:15:00 AM 4.36 39.848 0.234 8.01 2.86 0
12/15/2021 2:30:00 AM 4.36 39.848 0.234 7.98 2.72 0
12/15/2021 2:45:00 AM 4.36 39.848 0.234 8.01 2.74 0
12/15/2021 3:00:00 AM 4.37 39.866 0.234 8 2.77 0
12/15/2021 3:15:00 AM 4.37 39.866 0.234 8 2.71 0
12/15/2021 3:30:00 AM 4.37 39.866 0.234 8.01 2.74 0
12/15/2021 3:45:00 AM 4.38 39.884 0.234 8 2.8 0
12/15/2021 4:00:00 AM 4.38 39.884 0.234 8 2.75 0
12/15/2021 4:15:00 AM 4.39 39.902 0.234 8 2.77 0
12/15/2021 4:30:00 AM 4.39 39.902 0.234 8.01 2.75 0
12/15/2021 4:45:00 AM 4.4 39.92 0.234 8.01 2.74 0
12/15/2021 5:00:00 AM 4.51 40.118 0.235 7.93 2.8 0
12/15/2021 5:15:00 AM 4.53 40.154 0.235 7.93 2.69 0
12/15/2021 5:30:00 AM 4.38 39.884 0.235 7.93 2.66 0
12/15/2021 5:45:00 AM 4.18 39.524 0.235 7.93 2.98 0
12/15/2021 6:00:00 AM 4.11 39.398 0.235 7.92 2.78 0
12/15/2021 6:15:00 AM 4.01 39.218 0.235 7.94 2.73 0
12/15/2021 6:30:00 AM 3.93 39.074 0.235 7.92 2.82 0
12/15/2021 6:45:00 AM 3.83 38.894 0.235 7.92 4.01 0
12/15/2021 7:00:00 AM 3.78 38.804 0.235 7.93 2.95 0
12/15/2021 7:15:00 AM 3.75 38.75 0.235 7.94 2.85 0
12/15/2021 7:30:00 AM 3.74 38.732 0.235 7.94 2.8 0
12/15/2021 7:45:00 AM 3.71 38.678 0.235 7.94 2.74 0
12/15/2021 8:00:00 AM 3.67 38.606 0.235 7.95 2.78 0
12/15/2021 8:15:00 AM 3.63 38.534 0.235 7.94 2.84 0
12/15/2021 8:30:00 AM 3.6 38.48 0.235 7.94 2.81 0
12/15/2021 8:45:00 AM 3.57 38.426 0.236 7.93 2.75 0
12/15/2021 9:00:00 AM 3.56 38.408 0.236 7.94 2.72 0
12/15/2021 9:15:00 AM 3.54 38.372 0.236 7.94 2.82 0
12/15/2021 9:30:00 AM 3.53 38.354 0.236 7.94 2.67 0
12/15/2021 9:45:00 AM 3.53 38.354 0.236 7.94 2.7 0
12/15/2021 10:00:00 AM 3.53 38.354 0.236 7.94 2.65 10.63
12/15/2021 10:15:00 AM 3.54 38.372 0.236 7.95 2.86 10.32
12/15/2021 10:30:00 AM 3.55 38.39 0.236 7.95 2.94 0
12/15/2021 10:45:00 AM 3.56 38.408 0.236 7.94 2.69 0
12/15/2021 11:00:00 AM 3.57 38.426 0.236 7.94 2.76 0
12/15/2021 11:15:00 AM 3.58 38.444 0.235 7.94 2.83 0
12/15/2021 11:30:00 AM 3.59 38.462 0.235 7.94 2.71 0
12/15/2021 11:45:00 AM 3.61 38.498 0.235 7.94 2.81 0
12/15/2021 12:00:00 PM 3.63 38.534 0.235 7.94 2.84 0
12/15/2021 12:15:00 PM 3.66 38.588 0.235 7.94 2.68 0
12/15/2021 12:30:00 PM 3.68 38.624 0.236 7.94 2.69 0
12/15/2021 12:45:00 PM 3.7 38.66 0.236 7.95 2.71 0
12/15/2021 1:00:00 PM 3.71 38.678 0.236 7.95 2.73 0
12/15/2021 1:15:00 PM 3.73 38.714 0.236 7.95 2.74 0
12/15/2021 1:30:00 PM 3.75 38.75 0.236 7.95 2.69 0
12/15/2021 1:45:00 PM 3.76 38.768 0.236 7.95 2.7 0
12/15/2021 2:00:00 PM 3.77 38.786 0.236 7.95 2.71 0
12/15/2021 2:15:00 PM 3.79 38.822 0.236 7.95 2.71 0
12/15/2021 2:30:00 PM 3.79 38.822 0.235 7.95 2.74 0
12/15/2021 2:45:00 PM 3.81 38.858 0.236 7.95 2.75 0
12/15/2021 3:00:00 PM 3.82 38.876 0.236 7.95 2.74 0
12/15/2021 3:15:00 PM 3.83 38.894 0.236 7.95 2.72 0
12/15/2021 3:30:00 PM 3.84 38.912 0.236 7.95 2.72 0
12/15/2021 3:45:00 PM 3.85 38.93 0.236 7.93 2.71 0
12/15/2021 4:00:00 PM 3.85 38.93 0.236 7.92 2.73 0
12/15/2021 4:15:00 PM 3.86 38.948 0.236 7.94 2.76 0
12/15/2021 4:30:00 PM 3.87 38.966 0.236 7.96 2.67 0
12/15/2021 4:45:00 PM 3.87 38.966 0.236 7.95 2.68 0
12/15/2021 5:00:00 PM 3.88 38.984 0.236 7.94 2.76 0
12/15/2021 5:15:00 PM 3.88 38.984 0.236 7.95 2.72 0
12/15/2021 5:30:00 PM 3.89 39.002 0.236 7.95 2.63 0
12/15/2021 5:45:00 PM 3.89 39.002 0.236 7.95 2.65 0
12/15/2021 6:00:00 PM 3.89 39.002 0.236 7.94 2.7 0
12/15/2021 6:15:00 PM 3.89 39.002 0.236 7.95 2.65 0
12/15/2021 6:30:00 PM 3.9 39.02 0.236 7.94 2.64 0
12/15/2021 6:45:00 PM 3.9 39.02 0.236 7.94 2.66 0
12/15/2021 7:00:00 PM 3.9 39.02 0.236 7.94 2.68 0
12/15/2021 7:15:00 PM 3.9 39.02 0.236 7.95 2.69 0
12/15/2021 7:30:00 PM 3.9 39.02 0.236 7.95 2.61 0
12/15/2021 7:45:00 PM 3.9 39.02 0.236 7.95 2.65 0
12/15/2021 8:00:00 PM 3.9 39.02 0.236 7.95 2.65 0
12/15/2021 8:15:00 PM 3.91 39.038 0.236 7.95 2.62 0
12/15/2021 8:30:00 PM 3.91 39.038 0.236 7.95 2.64 0
12/15/2021 8:45:00 PM 3.91 39.038 0.236 7.95 2.7 0
12/15/2021 9:00:00 PM 3.91 39.038 0.236 7.95 2.61 0
12/15/2021 9:15:00 PM 3.91 39.038 0.236 7.95 2.65 0
12/15/2021 9:30:00 PM 3.92 39.056 0.236 7.95 2.62 0
12/15/2021 9:45:00 PM 3.92 39.056 0.236 7.95 2.63 0
12/15/2021 10:00:00 PM 3.92 39.056 0.236 7.95 2.61 0
12/15/2021 10:15:00 PM 3.92 39.056 0.236 7.95 2.64 0
12/15/2021 10:30:00 PM 3.92 39.056 0.237 7.94 2.57 0
12/15/2021 10:45:00 PM 3.93 39.074 0.237 7.94 2.6 0
12/15/2021 11:00:00 PM 3.93 39.074 0.237 7.94 2.6 0
12/15/2021 11:15:00 PM 3.94 39.092 0.237 7.94 2.63 0
12/15/2021 11:30:00 PM 3.94 39.092 0.237 7.94 2.63 0
12/15/2021 11:45:00 PM 3.95 39.11 0.237 7.93 2.61 9.83
12/16/2021 12:00:00 AM 3.96 39.128 0.237 7.93 2.56 9.97
12/16/2021 12:15:00 AM 3.96 39.128 0.237 7.93 2.61 0
12/16/2021 12:30:00 AM 3.96 39.128 0.237 7.93 2.66 0
12/16/2021 12:45:00 AM 3.96 39.128 0.237 7.93 2.64 0
12/16/2021 1:00:00 AM 3.96 39.128 0.237 7.93 2.6 0
12/16/2021 1:15:00 AM 3.96 39.128 0.237 7.92 2.57 0
12/16/2021 1:30:00 AM 3.97 39.146 0.237 7.92 2.6 0
12/16/2021 1:45:00 AM 3.97 39.146 0.237 7.92 2.6 0
12/16/2021 2:00:00 AM 3.97 39.146 0.237 7.92 2.6 0
12/16/2021 2:15:00 AM 3.98 39.164 0.237 7.91 2.61 0
12/16/2021 2:30:00 AM 3.98 39.164 0.237 7.92 2.6 0
12/16/2021 2:45:00 AM 3.98 39.164 0.237 7.92 2.62 0
12/16/2021 3:00:00 AM 3.98 39.164 0.237 7.92 2.67 0
12/16/2021 3:15:00 AM 3.99 39.182 0.237 7.92 2.64 0
12/16/2021 3:30:00 AM 4 39.2 0.237 7.92 2.62 0
12/16/2021 3:45:00 AM 4 39.2 0.237 7.91 2.66 0
12/16/2021 4:00:00 AM 4 39.2 0.237 7.92 2.63 0
12/16/2021 4:15:00 AM 4 39.2 0.237 7.91 2.63 0
12/16/2021 4:30:00 AM 4.01 39.218 0.237 7.92 2.66 0
12/16/2021 4:45:00 AM 4.01 39.218 0.237 7.92 2.59 0
12/16/2021 5:00:00 AM 4.18 39.524 0.236 7.84 2.6 0
12/16/2021 5:15:00 AM 4.24 39.632 0.236 7.85 2.72 0
12/16/2021 5:30:00 AM 4.26 39.668 0.236 7.84 2.58 0
12/16/2021 5:45:00 AM 4.26 39.668 0.236 7.85 2.82 0
12/16/2021 6:00:00 AM 4.25 39.65 0.236 7.84 2.73 0
12/16/2021 6:15:00 AM 4.24 39.632 0.236 7.86 3.13 0
12/16/2021 6:30:00 AM 4.23 39.614 0.235 7.87 3.02 0
12/16/2021 6:45:00 AM 4.22 39.596 0.234 7.86 2.88 10.44
12/16/2021 7:00:00 AM 4.21 39.578 0.235 7.86 3.04 0
12/16/2021 7:15:00 AM 4.2 39.56 0.234 7.87 3.04 0
12/16/2021 7:30:00 AM 4.19 39.542 0.233 7.87 3 0
12/16/2021 7:45:00 AM 4.18 39.524 0.234 7.89 2.93 0
12/16/2021 8:00:00 AM 4.18 39.524 0.233 7.88 3.2 0
12/16/2021 8:15:00 AM 4.17 39.506 0.231 7.9 3.25 0
12/16/2021 8:30:00 AM 4.16 39.488 0.232 7.87 3.18 10.27
12/16/2021 8:45:00 AM 4.16 39.488 0.232 7.89 3.51 0
12/16/2021 9:00:00 AM 4.16 39.488 0.232 7.9 3.34 0
12/16/2021 9:15:00 AM 4.15 39.47 0.229 7.91 3.74 0
12/16/2021 9:30:00 AM 4.15 39.47 0.23 7.92 4.02 0
12/16/2021 9:45:00 AM 4.16 39.488 0.23 7.92 3.82 0
12/16/2021 10:00:00 AM 4.16 39.488 0.23 7.92 3.83 0
12/16/2021 10:15:00 AM 4.17 39.506 0.23 7.92 3.76 0
12/16/2021 10:30:00 AM 4.18 39.524 0.229 7.92 3.82 0
12/16/2021 10:45:00 AM 4.2 39.56 0.229 7.91 3.69 0
12/16/2021 11:00:00 AM 4.25 39.65 0.229 7.91 3.72 10.76
12/16/2021 11:15:00 AM 4.28 39.704 0.228 7.93 3.87 0
12/16/2021 11:30:00 AM 4.3 39.74 0.229 7.93 3.7 0
12/16/2021 11:45:00 AM 4.31 39.758 0.228 7.93 3.68 0
12/16/2021 12:00:00 PM 4.32 39.776 0.229 7.93 3.72 0
12/16/2021 12:15:00 PM 4.34 39.812 0.229 7.93 3.73 0
12/16/2021 12:30:00 PM 4.35 39.83 0.225 7.97 3.9 0
12/16/2021 12:45:00 PM 4.37 39.866 0.226 7.94 3.84 0
12/16/2021 1:00:00 PM 4.4 39.92 0.226 7.95 3.81 0
12/16/2021 1:15:00 PM 4.43 39.974 0.226 7.96 3.7 0
12/16/2021 1:30:00 PM 4.45 40.01 0.227 7.95 3.76 0
12/16/2021 1:45:00 PM 4.48 40.064 0.227 7.94 3.81 0
12/16/2021 2:00:00 PM 4.51 40.118 0.228 7.93 3.8 0
12/16/2021 2:15:00 PM 4.53 40.154 0.227 7.94 3.57 10.8
12/16/2021 2:30:00 PM 4.56 40.208 0.227 7.95 3.8 0
12/16/2021 2:45:00 PM 4.6 40.28 0.227 7.95 3.74 0
12/16/2021 3:00:00 PM 4.62 40.316 0.226 7.95 3.78 0
12/16/2021 3:15:00 PM 4.65 40.37 0.226 7.95 3.65 0
12/16/2021 3:30:00 PM 4.66 40.388 0.225 7.95 3.87 0
12/16/2021 3:45:00 PM 4.68 40.424 0.225 7.96 3.67 0
12/16/2021 4:00:00 PM 4.7 40.46 0.225 7.96 3.71 0
12/16/2021 4:15:00 PM 4.71 40.478 0.226 7.96 3.63 0
12/16/2021 4:30:00 PM 4.72 40.496 0.226 7.96 3.62 0
12/16/2021 4:45:00 PM 4.73 40.514 0.225 7.96 3.58 0
12/16/2021 5:00:00 PM 4.73 40.514 0.225 7.96 3.64 0
12/16/2021 5:15:00 PM 4.74 40.532 0.225 7.95 3.6 0
12/16/2021 5:30:00 PM 4.74 40.532 0.226 7.95 3.56 0
12/16/2021 5:45:00 PM 4.75 40.55 0.226 7.96 3.69 0
12/16/2021 6:00:00 PM 4.75 40.55 0.226 7.95 3.55 0
12/16/2021 6:15:00 PM 4.75 40.55 0.226 7.95 3.57 0
12/16/2021 6:30:00 PM 4.76 40.568 0.225 7.95 3.53 0
12/16/2021 6:45:00 PM 4.76 40.568 0.226 7.95 3.64 0
12/16/2021 7:00:00 PM 4.76 40.568 0.225 7.95 3.58 0
12/16/2021 7:15:00 PM 4.76 40.568 0.226 7.95 3.62 0
12/16/2021 7:30:00 PM 4.76 40.568 0.225 7.95 3.57 0
12/16/2021 7:45:00 PM 4.76 40.568 0.226 7.94 3.55 0
12/16/2021 8:00:00 PM 4.77 40.586 0.226 7.95 3.54 0
12/16/2021 8:15:00 PM 4.77 40.586 0.225 7.95 3.56 0
12/16/2021 8:30:00 PM 4.77 40.586 0.226 7.95 3.58 0
12/16/2021 8:45:00 PM 4.77 40.586 0.226 7.94 3.52 0
12/16/2021 9:00:00 PM 4.77 40.586 0.225 7.95 3.58 0
12/16/2021 9:15:00 PM 4.77 40.586 0.226 7.94 3.5 0
12/16/2021 9:30:00 PM 4.77 40.586 0.225 7.94 4 0
12/16/2021 9:45:00 PM 4.77 40.586 0.225 7.93 3.52 0
12/16/2021 10:00:00 PM 4.78 40.604 0.225 7.95 3.57 0
12/16/2021 10:15:00 PM 4.78 40.604 0.225 7.94 3.53 0
12/16/2021 10:30:00 PM 4.78 40.604 0.225 7.94 3.55 0
12/16/2021 10:45:00 PM 4.78 40.604 0.225 7.94 3.58 0
12/16/2021 11:00:00 PM 4.78 40.604 0.225 7.94 3.52 10.88
12/16/2021 11:15:00 PM 4.78 40.604 0.225 7.93 3.57 0
12/16/2021 11:30:00 PM 4.78 40.604 0.225 7.94 3.49 0
12/16/2021 11:45:00 PM 4.79 40.622 0.225 7.93 3.53 0
12/17/2021 12:00:00 AM 4.79 40.622 0.225 7.92 3.54 0
12/17/2021 12:15:00 AM 4.79 40.622 0.225 7.94 3.42 0
12/17/2021 12:30:00 AM 4.79 40.622 0.225 7.93 3.43 0
12/17/2021 12:45:00 AM 4.79 40.622 0.225 7.93 3.41 0
12/17/2021 1:00:00 AM 4.79 40.622 0.225 7.93 3.45 0
12/17/2021 1:15:00 AM 4.8 40.64 0.226 7.93 3.39 0
12/17/2021 1:30:00 AM 4.8 40.64 0.225 7.92 3.47 0
12/17/2021 1:45:00 AM 4.8 40.64 0.226 7.91 3.44 0
12/17/2021 2:00:00 AM 4.81 40.658 0.226 7.93 3.46 0
12/17/2021 2:15:00 AM 4.81 40.658 0.226 7.93 3.38 10.73
12/17/2021 2:30:00 AM 4.81 40.658 0.226 7.92 3.4 10.86
12/17/2021 2:45:00 AM 4.82 40.676 0.226 7.91 3.39 10.96
12/17/2021 3:00:00 AM 4.82 40.676 0.226 7.91 3.38 10.9
12/17/2021 3:15:00 AM 4.83 40.694 0.225 7.91 3.38 11.06
12/17/2021 3:30:00 AM 4.83 40.694 0.225 7.89 3.5 11.37
12/17/2021 3:45:00 AM 4.84 40.712 0.226 7.92 3.38 0
12/17/2021 4:00:00 AM 4.84 40.712 0.225 7.91 3.38 0
12/17/2021 4:15:00 AM 4.85 40.73 0.225 7.9 3.35 0
12/17/2021 4:30:00 AM 4.85 40.73 0.226 7.91 3.28 0
12/17/2021 4:45:00 AM 4.85 40.73 0.226 7.92 3.4 0
12/17/2021 5:00:00 AM 4.86 40.748 0.225 7.91 3.47 10.8
12/17/2021 5:15:00 AM 4.86 40.748 0.226 7.91 3.39 0
12/17/2021 5:30:00 AM 4.87 40.766 0.225 7.9 3.4 0
12/17/2021 5:45:00 AM 4.9 40.82 0.225 7.88 3.38 0
12/17/2021 6:00:00 AM 4.97 40.946 0.225 7.88 3.4 0
12/17/2021 6:15:00 AM 5 41 0.225 7.87 3.38 0
12/17/2021 6:30:00 AM 5.01 41.018 0.225 7.87 3.32 0
12/17/2021 6:45:00 AM 5.01 41.018 0.225 7.87 3.35 0
12/17/2021 7:00:00 AM 5.01 41.018 0.225 7.88 3.31 0
12/17/2021 7:15:00 AM 4.99 40.982 0.225 7.88 3.24 0
12/17/2021 7:30:00 AM 4.99 40.982 0.225 7.85 3.34 0
12/17/2021 7:45:00 AM 4.97 40.946 0.225 7.89 3.27 0
12/17/2021 8:00:00 AM 4.96 40.928 0.225 7.88 3.26 0
12/17/2021 8:15:00 AM 4.94 40.892 0.224 7.89 3.6 0
12/17/2021 8:30:00 AM 4.93 40.874 0.224 7.87 3.51 0
12/17/2021 8:45:00 AM 4.92 40.856 0.224 7.88 3.36 0
12/17/2021 9:00:00 AM 4.91 40.838 0.224 7.9 3.27 0
12/17/2021 9:15:00 AM 4.91 40.838 0.224 7.89 3.28 0
12/17/2021 9:30:00 AM 4.92 40.856 0.224 7.9 3.32 0
12/17/2021 9:45:00 AM 4.95 40.91 0.224 7.91 3.22 0
12/17/2021 10:00:00 AM 4.96 40.928 0.224 7.9 3.42 0
12/17/2021 10:15:00 AM 4.94 40.892 0.224 7.89 3.28 0
12/17/2021 10:30:00 AM 4.94 40.892 0.224 7.91 3.22 0
12/17/2021 10:45:00 AM 4.94 40.892 0.224 7.91 3.15 0
12/17/2021 11:00:00 AM 4.94 40.892 0.224 7.92 3.17 0
12/17/2021 11:15:00 AM 4.94 40.892 0.224 7.91 3.18 0
12/17/2021 11:30:00 AM 4.95 40.91 0.224 7.92 3.15 0
12/17/2021 11:45:00 AM 4.96 40.928 0.224 7.91 3.68 0
12/17/2021 12:00:00 PM 4.98 40.964 0.224 7.91 3.31 0
12/17/2021 12:15:00 PM 4.99 40.982 0.224 7.92 3.35 0
12/17/2021 12:30:00 PM 5 41 0.223 7.91 5.37 0
12/17/2021 12:45:00 PM 5.01 41.018 0.223 7.92 3.32 0
12/17/2021 1:00:00 PM 5.02 41.036 0.223 7.9 3.31 0
12/17/2021 1:15:00 PM 5.02 41.036 0.223 7.92 3.21 0
12/17/2021 1:30:00 PM 5.03 41.054 0.223 7.92 3.33 0
12/17/2021 1:45:00 PM 5.04 41.072 0.223 7.92 3.16 0
12/17/2021 2:00:00 PM 5.05 41.09 0.223 7.92 3.17 0
12/17/2021 2:15:00 PM 5.06 41.108 0.223 7.92 3.12 0
12/17/2021 2:30:00 PM 5.07 41.126 0.223 7.93 3.2 0
12/17/2021 2:45:00 PM 5.08 41.144 0.223 7.94 3.02 0
12/17/2021 3:00:00 PM 5.08 41.144 0.223 7.92 3.08 0
12/17/2021 3:15:00 PM 5.08 41.144 0.222 8.01 2.95 0
12/17/2021 3:30:00 PM 5.08 41.144 0.222 7.99 3.03 0
12/17/2021 3:45:00 PM 5.09 41.162 0.222 8 3.12 0
12/17/2021 4:00:00 PM 5.09 41.162 0.222 7.99 2.93 0
12/17/2021 4:15:00 PM 5.09 41.162 0.222 7.99 2.93 0
12/17/2021 4:30:00 PM 5.1 41.18 0.222 7.99 2.87 10.91
12/17/2021 4:45:00 PM 5.1 41.18 0.222 8 2.92 0
12/17/2021 5:00:00 PM 5.1 41.18 0.222 7.98 2.91 0
12/17/2021 5:15:00 PM 5.11 41.198 0.223 8 2.85 0
12/17/2021 5:30:00 PM 5.11 41.198 0.223 7.99 2.88 0
12/17/2021 5:45:00 PM 5.11 41.198 0.223 7.98 2.92 0
12/17/2021 6:00:00 PM 5.11 41.198 0.223 8 2.8 0
12/17/2021 6:15:00 PM 5.11 41.198 0.223 8 2.9 0
12/17/2021 6:30:00 PM 5.12 41.216 0.223 8 2.84 0
12/17/2021 6:45:00 PM 5.12 41.216 0.223 8 2.83 0
12/17/2021 7:00:00 PM 5.12 41.216 0.223 7.99 2.85 11.62
12/17/2021 7:15:00 PM 5.12 41.216 0.223 8 2.83 0
12/17/2021 7:30:00 PM 5.13 41.234 0.223 8 2.81 0
12/17/2021 7:45:00 PM 5.13 41.234 0.223 7.99 2.91 0
12/17/2021 8:00:00 PM 5.13 41.234 0.223 7.99 2.82 0
12/17/2021 8:15:00 PM 5.13 41.234 0.223 7.99 2.82 0
12/17/2021 8:30:00 PM 5.13 41.234 0.223 8 2.76 0
12/17/2021 8:45:00 PM 5.13 41.234 0.223 8 2.81 0
12/17/2021 9:00:00 PM 5.14 41.252 0.223 8 2.83 0
12/17/2021 9:15:00 PM 5.14 41.252 0.223 8 2.73 0
12/17/2021 9:30:00 PM 5.14 41.252 0.223 8 2.86 0
12/17/2021 9:45:00 PM 5.14 41.252 0.223 8 2.8 0
12/17/2021 10:00:00 PM 5.14 41.252 0.223 7.99 2.78 0
12/17/2021 10:15:00 PM 5.14 41.252 0.223 7.98 2.78 0
12/17/2021 10:30:00 PM 5.15 41.27 0.223 7.99 2.85 0
12/17/2021 10:45:00 PM 5.15 41.27 0.223 7.99 2.77 0
12/17/2021 11:00:00 PM 5.15 41.27 0.223 7.98 2.78 0
12/17/2021 11:15:00 PM 5.16 41.288 0.223 7.97 2.73 0
12/17/2021 11:30:00 PM 5.16 41.288 0.223 7.99 2.79 0
12/17/2021 11:45:00 PM 5.16 41.288 0.223 7.98 2.77 0
12/18/2021 12:00:00 AM 5.17 41.306 0.223 7.98 2.8 0
12/18/2021 12:15:00 AM 5.17 41.306 0.223 7.98 2.72 0
12/18/2021 12:30:00 AM 5.17 41.306 0.223 7.98 2.77 10.84
12/18/2021 12:45:00 AM 5.18 41.324 0.223 7.98 2.85 10.97
12/18/2021 1:00:00 AM 5.18 41.324 0.223 7.98 2.74 11.05
12/18/2021 1:15:00 AM 5.19 41.342 0.223 7.98 2.8 11.09
12/18/2021 1:30:00 AM 5.19 41.342 0.223 7.98 2.82 11.19
12/18/2021 1:45:00 AM 5.2 41.36 0.223 7.97 2.73 11.4
12/18/2021 2:00:00 AM 5.21 41.378 0.223 7.97 2.75 11.35
12/18/2021 2:15:00 AM 5.22 41.396 0.223 7.98 2.74 0
12/18/2021 2:30:00 AM 5.24 41.432 0.223 7.98 2.82 0
12/18/2021 2:45:00 AM 5.24 41.432 0.223 7.98 2.73 0
12/18/2021 3:00:00 AM 5.25 41.45 0.223 7.97 2.75 0
12/18/2021 3:15:00 AM 5.26 41.468 0.223 7.97 2.72 0
12/18/2021 3:30:00 AM 5.27 41.486 0.223 7.98 2.71 0
12/18/2021 3:45:00 AM 5.28 41.504 0.223 7.97 2.73 0
12/18/2021 4:00:00 AM 5.28 41.504 0.223 7.97 2.73 0
12/18/2021 4:15:00 AM 5.29 41.522 0.223 7.96 2.74 0
12/18/2021 4:30:00 AM 5.3 41.54 0.223 7.97 2.73 0
12/18/2021 4:45:00 AM 5.31 41.558 0.223 7.95 2.68 0
12/18/2021 5:00:00 AM 5.36 41.648 0.223 7.9 2.82 0
12/18/2021 5:15:00 AM 5.37 41.666 0.223 7.87 2.78 0
12/18/2021 5:30:00 AM 5.3 41.54 0.223 7.88 2.78 0
12/18/2021 5:45:00 AM 5.22 41.396 0.223 7.87 2.82 0
12/18/2021 6:00:00 AM 5.15 41.27 0.223 7.89 2.84 0
12/18/2021 6:15:00 AM 5.12 41.216 0.223 7.88 2.71 0
12/18/2021 6:30:00 AM 5.12 41.216 0.223 7.9 2.78 0
12/18/2021 6:45:00 AM 5.1 41.18 0.223 7.9 2.77 10.18
12/18/2021 7:00:00 AM 5.06 41.108 0.223 7.91 2.74 0
12/18/2021 7:15:00 AM 5.03 41.054 0.223 7.89 2.72 0
12/18/2021 7:30:00 AM 5.01 41.018 0.223 7.9 2.73 0
12/18/2021 7:45:00 AM 4.98 40.964 0.223 7.91 2.7 0
12/18/2021 8:00:00 AM 4.96 40.928 0.223 7.91 2.7 0
12/18/2021 8:15:00 AM 4.95 40.91 0.223 7.92 2.77 0
12/18/2021 8:30:00 AM 4.94 40.892 0.223 7.92 2.69 0
12/18/2021 8:45:00 AM 4.93 40.874 0.223 7.92 2.74 0
12/18/2021 9:00:00 AM 4.91 40.838 0.223 7.93 2.71 0
12/18/2021 9:15:00 AM 4.9 40.82 0.223 7.92 2.7 0
12/18/2021 9:30:00 AM 4.89 40.802 0.223 7.92 2.72 0
12/18/2021 9:45:00 AM 4.89 40.802 0.223 7.93 2.7 0
12/18/2021 10:00:00 AM 4.88 40.784 0.223 7.93 2.68 0
12/18/2021 10:15:00 AM 4.87 40.766 0.223 7.93 2.66 0
12/18/2021 10:30:00 AM 4.87 40.766 0.223 7.93 2.65 0
12/18/2021 10:45:00 AM 4.86 40.748 0.223 7.94 2.63 0
12/18/2021 11:00:00 AM 4.86 40.748 0.223 7.94 2.66 0
12/18/2021 11:15:00 AM 4.86 40.748 0.223 7.91 2.68 0
12/18/2021 11:30:00 AM 4.85 40.73 0.224 7.91 2.68 0
12/18/2021 11:45:00 AM 4.85 40.73 0.224 7.9 2.66 0
12/18/2021 12:00:00 PM 4.84 40.712 0.224 7.9 2.69 0
12/18/2021 12:15:00 PM 4.84 40.712 0.224 7.91 2.66 0
12/18/2021 12:30:00 PM 4.84 40.712 0.224 7.9 2.62 0
12/18/2021 12:45:00 PM 4.84 40.712 0.224 7.91 2.65 0
12/18/2021 1:00:00 PM 4.84 40.712 0.223 7.92 2.68 0
12/18/2021 1:15:00 PM 4.84 40.712 0.223 7.93 2.69 0
12/18/2021 1:30:00 PM 4.84 40.712 0.223 7.92 2.65 0
12/18/2021 1:45:00 PM 4.84 40.712 0.223 7.93 2.64 0
12/18/2021 2:00:00 PM 4.84 40.712 0.223 7.92 2.61 0
12/18/2021 2:15:00 PM 4.85 40.73 0.224 7.94 2.62 0
12/18/2021 2:30:00 PM 4.85 40.73 0.224 7.94 2.6 0
12/18/2021 2:45:00 PM 4.85 40.73 0.224 7.94 2.64 0
12/18/2021 3:00:00 PM 4.85 40.73 0.224 7.94 2.61 0
12/18/2021 3:15:00 PM 4.85 40.73 0.224 7.94 2.6 0
12/18/2021 3:30:00 PM 4.85 40.73 0.224 7.93 2.62 0
12/18/2021 3:45:00 PM 4.85 40.73 0.224 7.95 2.61 0
12/18/2021 4:00:00 PM 4.86 40.748 0.224 7.93 2.57 0
12/18/2021 4:15:00 PM 4.86 40.748 0.224 7.94 2.59 0
12/18/2021 4:30:00 PM 4.86 40.748 0.224 7.94 2.59 0
12/18/2021 4:45:00 PM 4.86 40.748 0.224 7.94 2.61 0
12/18/2021 5:00:00 PM 4.86 40.748 0.224 7.94 2.54 0
12/18/2021 5:15:00 PM 4.87 40.766 0.224 7.95 2.55 0
12/18/2021 5:30:00 PM 4.87 40.766 0.224 7.95 2.64 0
12/18/2021 5:45:00 PM 4.87 40.766 0.224 7.95 2.6 0
12/18/2021 6:00:00 PM 4.88 40.784 0.224 7.95 2.66 0
12/18/2021 6:15:00 PM 4.88 40.784 0.224 7.94 2.57 0
12/18/2021 6:30:00 PM 4.88 40.784 0.224 7.95 2.59 0
12/18/2021 6:45:00 PM 4.88 40.784 0.224 7.95 2.56 0
12/18/2021 7:00:00 PM 4.88 40.784 0.224 7.95 2.6 0
12/18/2021 7:15:00 PM 4.89 40.802 0.224 7.95 2.54 0
12/18/2021 7:30:00 PM 4.89 40.802 0.224 7.96 2.52 0
12/18/2021 7:45:00 PM 4.89 40.802 0.224 7.94 2.58 0
12/18/2021 8:00:00 PM 4.9 40.82 0.224 7.95 2.55 0
12/18/2021 8:15:00 PM 4.9 40.82 0.224 7.95 2.55 0
12/18/2021 8:30:00 PM 4.91 40.838 0.224 7.95 2.6 0
12/18/2021 8:45:00 PM 4.92 40.856 0.224 7.96 2.54 0
12/18/2021 9:00:00 PM 4.93 40.874 0.224 7.96 2.52 0
12/18/2021 9:15:00 PM 4.94 40.892 0.224 7.95 2.57 0
12/18/2021 9:30:00 PM 4.95 40.91 0.224 7.95 2.54 0
12/18/2021 9:45:00 PM 4.96 40.928 0.224 7.95 2.56 0
12/18/2021 10:00:00 PM 4.97 40.946 0.224 7.95 2.52 0
12/18/2021 10:15:00 PM 4.98 40.964 0.224 7.95 2.53 0
12/18/2021 10:30:00 PM 4.99 40.982 0.224 7.93 2.5 0
12/18/2021 10:45:00 PM 5 41 0.224 7.95 2.51 0
12/18/2021 11:00:00 PM 5.02 41.036 0.224 7.95 2.48 0
12/18/2021 11:15:00 PM 5.03 41.054 0.224 7.95 2.53 0
12/18/2021 11:30:00 PM 5.04 41.072 0.224 7.95 2.52 0
12/18/2021 11:45:00 PM 5.05 41.09 0.224 7.95 2.51 0
12/19/2021 12:00:00 AM 5.05 41.09 0.224 7.94 2.51 0
12/19/2021 12:15:00 AM 5.06 41.108 0.224 7.94 2.5 0
12/19/2021 12:30:00 AM 5.07 41.126 0.224 7.94 2.48 0
12/19/2021 12:45:00 AM 5.08 41.144 0.224 7.94 2.49 0
12/19/2021 1:00:00 AM 5.09 41.162 0.224 7.94 2.44 0
12/19/2021 1:15:00 AM 5.09 41.162 0.224 7.94 2.45 0
12/19/2021 1:30:00 AM 5.1 41.18 0.224 7.95 2.47 0
12/19/2021 1:45:00 AM 5.11 41.198 0.225 7.94 2.44 0
12/19/2021 2:00:00 AM 5.11 41.198 0.225 7.94 2.43 0
12/19/2021 2:15:00 AM 5.12 41.216 0.224 7.93 2.41 0
12/19/2021 2:30:00 AM 5.13 41.234 0.225 7.93 2.45 0
12/19/2021 2:45:00 AM 5.14 41.252 0.224 7.93 2.43 0
12/19/2021 3:00:00 AM 5.14 41.252 0.225 7.94 2.41 0
12/19/2021 3:15:00 AM 5.15 41.27 0.225 7.93 2.44 0
12/19/2021 3:30:00 AM 5.15 41.27 0.225 7.94 2.47 0
12/19/2021 3:45:00 AM 5.16 41.288 0.225 7.94 2.42 0
12/19/2021 4:00:00 AM 5.17 41.306 0.225 7.94 2.44 0
12/19/2021 4:15:00 AM 5.17 41.306 0.225 7.94 2.47 0
12/19/2021 4:30:00 AM 5.18 41.324 0.225 7.94 2.43 0
12/19/2021 4:45:00 AM 5.19 41.342 0.225 7.9 2.59 0
12/19/2021 5:00:00 AM 5.28 41.504 0.224 7.83 2.54 0
12/19/2021 5:15:00 AM 5.25 41.45 0.224 7.82 2.61 0
12/19/2021 5:30:00 AM 5.18 41.324 0.224 7.82 2.57 0
12/19/2021 5:45:00 AM 5.12 41.216 0.224 7.83 2.51 0
12/19/2021 6:00:00 AM 5.07 41.126 0.224 7.83 2.55 0
12/19/2021 6:15:00 AM 5.04 41.072 0.224 7.84 2.77 0
12/19/2021 6:30:00 AM 5.01 41.018 0.224 7.84 2.48 0
12/19/2021 6:45:00 AM 4.99 40.982 0.224 7.85 2.5 0
12/19/2021 7:00:00 AM 4.98 40.964 0.224 7.85 2.5 0
12/19/2021 7:15:00 AM 4.96 40.928 0.225 7.86 2.53 0
12/19/2021 7:30:00 AM 4.94 40.892 0.225 7.86 2.5 0
12/19/2021 7:45:00 AM 4.93 40.874 0.225 7.86 2.51 0
12/19/2021 8:00:00 AM 4.92 40.856 0.225 7.86 2.51 0
12/19/2021 8:15:00 AM 4.9 40.82 0.225 7.85 2.57 0
12/19/2021 8:30:00 AM 4.92 40.856 0.225 7.86 2.52 0
12/19/2021 8:45:00 AM 4.95 40.91 0.225 7.86 2.48 0
12/19/2021 9:00:00 AM 4.94 40.892 0.225 7.87 2.55 0
12/19/2021 9:15:00 AM 4.92 40.856 0.225 7.87 2.47 0
12/19/2021 9:30:00 AM 4.9 40.82 0.225 7.87 2.52 0
12/19/2021 9:45:00 AM 4.89 40.802 0.225 7.87 2.45 0
12/19/2021 10:00:00 AM 4.87 40.766 0.225 7.87 2.44 0
12/19/2021 10:15:00 AM 4.87 40.766 0.225 7.86 2.46 0
12/19/2021 10:30:00 AM 4.86 40.748 0.225 7.88 2.48 0
12/19/2021 10:45:00 AM 4.85 40.73 0.225 7.88 2.47 0
12/19/2021 11:00:00 AM 4.84 40.712 0.225 7.87 2.39 0
12/19/2021 11:15:00 AM 4.83 40.694 0.225 7.88 2.46 0
12/19/2021 11:30:00 AM 4.83 40.694 0.225 7.88 2.44 0
12/19/2021 11:45:00 AM 4.83 40.694 0.225 7.88 2.4 0
12/19/2021 12:00:00 PM 4.82 40.676 0.225 7.88 2.42 0
12/19/2021 12:15:00 PM 4.82 40.676 0.225 7.89 2.42 0
12/19/2021 12:30:00 PM 4.82 40.676 0.225 7.89 2.41 0
12/19/2021 12:45:00 PM 4.81 40.658 0.225 7.89 2.43 0
12/19/2021 1:00:00 PM 4.82 40.676 0.225 7.88 2.4 0
12/19/2021 1:15:00 PM 4.82 40.676 0.225 7.88 2.43 0
12/19/2021 1:30:00 PM 4.82 40.676 0.225 7.88 2.4 0
12/19/2021 1:45:00 PM 4.82 40.676 0.225 7.89 2.45 0
12/19/2021 2:00:00 PM 4.82 40.676 0.225 7.87 2.45 0
12/19/2021 2:15:00 PM 4.83 40.694 0.225 7.89 2.47 0
12/19/2021 2:30:00 PM 4.83 40.694 0.225 7.89 2.41 0
12/19/2021 2:45:00 PM 4.83 40.694 0.225 7.89 2.41 0
12/19/2021 3:00:00 PM 4.83 40.694 0.225 7.88 2.43 0
12/19/2021 3:15:00 PM 4.83 40.694 0.225 7.89 2.44 0
12/19/2021 3:30:00 PM 4.83 40.694 0.225 7.89 2.42 0
12/19/2021 3:45:00 PM 4.84 40.712 0.225 7.89 2.42 0
12/19/2021 4:00:00 PM 4.84 40.712 0.225 7.89 2.41 0
12/19/2021 4:15:00 PM 4.84 40.712 0.225 7.89 2.4 0
12/19/2021 4:30:00 PM 4.84 40.712 0.225 7.9 2.43 0
12/19/2021 4:45:00 PM 4.85 40.73 0.225 7.9 2.38 0
12/19/2021 5:00:00 PM 4.85 40.73 0.225 7.9 2.41 0
12/19/2021 5:15:00 PM 4.85 40.73 0.226 7.88 2.38 0
12/19/2021 5:30:00 PM 4.85 40.73 0.226 7.89 2.35 0
12/19/2021 5:45:00 PM 4.86 40.748 0.226 7.9 2.34 0
12/19/2021 6:00:00 PM 4.86 40.748 0.226 7.9 2.34 0
12/19/2021 6:15:00 PM 4.86 40.748 0.226 7.89 2.34 0
12/19/2021 6:30:00 PM 4.86 40.748 0.226 7.9 2.3 0
12/19/2021 6:45:00 PM 4.87 40.766 0.226 7.9 2.33 0
12/19/2021 7:00:00 PM 4.87 40.766 0.226 7.89 2.35 0
12/19/2021 7:15:00 PM 4.87 40.766 0.226 7.89 2.36 0
12/19/2021 7:30:00 PM 4.88 40.784 0.226 7.91 2.32 0
12/19/2021 7:45:00 PM 4.88 40.784 0.226 7.9 2.31 0
12/19/2021 8:00:00 PM 4.88 40.784 0.226 7.9 2.31 0
12/19/2021 8:15:00 PM 4.88 40.784 0.226 7.9 2.33 0
12/19/2021 8:30:00 PM 4.89 40.802 0.226 7.9 2.32 0
12/19/2021 8:45:00 PM 4.89 40.802 0.226 7.91 2.28 0
12/19/2021 9:00:00 PM 4.89 40.802 0.226 7.9 2.32 0
12/19/2021 9:15:00 PM 4.89 40.802 0.226 7.91 2.32 0
12/19/2021 9:30:00 PM 4.9 40.82 0.226 7.91 2.33 0
12/19/2021 9:45:00 PM 4.9 40.82 0.226 7.89 2.32 0
12/19/2021 10:00:00 PM 4.9 40.82 0.226 7.89 2.31 0
12/19/2021 10:15:00 PM 4.9 40.82 0.226 7.9 2.29 0
12/19/2021 10:30:00 PM 4.91 40.838 0.226 7.91 2.29 0
12/19/2021 10:45:00 PM 4.91 40.838 0.226 7.9 2.3 0
12/19/2021 11:00:00 PM 4.92 40.856 0.226 7.9 2.24 0
12/19/2021 11:15:00 PM 4.93 40.874 0.226 7.89 2.33 0
12/19/2021 11:30:00 PM 4.93 40.874 0.226 7.9 2.31 0
12/19/2021 11:45:00 PM 4.94 40.892 0.226 7.9 2.28 0
12/20/2021 12:00:00 AM 4.95 40.91 0.226 7.9 2.28 0
12/20/2021 12:15:00 AM 4.96 40.928 0.226 7.89 2.27 0
12/20/2021 12:30:00 AM 4.98 40.964 0.226 7.89 2.26 0
12/20/2021 12:45:00 AM 4.99 40.982 0.226 7.9 2.25 0
12/20/2021 1:00:00 AM 5.01 41.018 0.226 7.9 2.25 0
12/20/2021 1:15:00 AM 5.02 41.036 0.226 7.9 2.24 0
12/20/2021 1:30:00 AM 5.03 41.054 0.226 7.9 2.26 0
12/20/2021 1:45:00 AM 5.04 41.072 0.226 7.9 2.24 0
12/20/2021 2:00:00 AM 5.05 41.09 0.226 7.89 2.24 0
12/20/2021 2:15:00 AM 5.06 41.108 0.226 7.9 2.26 0
12/20/2021 2:30:00 AM 5.07 41.126 0.226 7.9 2.23 0
12/20/2021 2:45:00 AM 5.08 41.144 0.226 7.91 2.24 0
12/20/2021 3:00:00 AM 5.09 41.162 0.226 7.91 2.21 0
12/20/2021 3:15:00 AM 5.1 41.18 0.226 7.89 2.25 0
12/20/2021 3:30:00 AM 5.11 41.198 0.226 7.91 2.25 0
12/20/2021 3:45:00 AM 5.12 41.216 0.226 7.91 2.21 0
12/20/2021 4:00:00 AM 5.13 41.234 0.226 7.91 2.21 0
12/20/2021 4:15:00 AM 5.14 41.252 0.226 7.91 2.22 0
12/20/2021 4:30:00 AM 5.15 41.27 0.226 7.91 2.27 0
12/20/2021 4:45:00 AM 5.16 41.288 0.226 7.91 2.22 0
12/20/2021 5:00:00 AM 5.2 41.36 0.225 7.79 2.41 0
12/20/2021 5:15:00 AM 5.27 41.486 0.225 7.78 2.55 0
12/20/2021 5:30:00 AM 5.16 41.288 0.225 7.78 2.42 0
12/20/2021 5:45:00 AM 4.94 40.892 0.225 7.8 2.39 0
12/20/2021 6:00:00 AM 4.74 40.532 0.225 7.78 2.53 0
12/20/2021 6:15:00 AM 4.57 40.226 0.225 7.82 2.39 0
12/20/2021 6:30:00 AM 4.45 40.01 0.226 7.82 2.34 0
12/20/2021 6:45:00 AM 4.35 39.83 0.226 7.83 2.44 0
12/20/2021 7:00:00 AM 4.27 39.686 0.226 7.82 2.3 0
12/20/2021 7:15:00 AM 4.18 39.524 0.226 7.83 2.32 0
12/20/2021 7:30:00 AM 4.11 39.398 0.226 7.83 2.33 0
12/20/2021 7:45:00 AM 4.07 39.326 0.226 7.83 2.33 0
12/20/2021 8:00:00 AM 4.01 39.218 0.226 7.84 2.31 0
12/20/2021 8:15:00 AM 3.97 39.146 0.226 7.84 2.28 0
12/20/2021 8:30:00 AM 3.94 39.092 0.226 7.84 2.32 0
12/20/2021 8:45:00 AM 3.9 39.02 0.226 7.84 2.28 0
12/20/2021 9:00:00 AM 3.87 38.966 0.226 7.85 2.31 0
12/20/2021 9:15:00 AM 3.85 38.93 0.227 7.84 2.28 0
12/20/2021 9:30:00 AM 3.83 38.894 0.227 7.85 2.31 0
12/20/2021 9:45:00 AM 3.82 38.876 0.227 7.85 2.29 0
12/20/2021 10:00:00 AM 3.85 38.93 0.226 7.84 2.3 0
12/20/2021 10:15:00 AM 3.86 38.948 0.227 7.85 2.3 0
12/20/2021 10:30:00 AM 3.86 38.948 0.226 7.83 2.3 0
12/20/2021 10:45:00 AM 3.85 38.93 0.226 7.85 2.28 0
12/20/2021 11:00:00 AM 3.84 38.912 0.227 7.85 2.32 0
12/20/2021 11:15:00 AM 3.84 38.912 0.227 7.85 2.27 0
12/20/2021 11:30:00 AM 3.84 38.912 0.227 7.85 2.32 0
12/20/2021 11:45:00 AM 3.84 38.912 0.227 7.85 2.28 0
12/20/2021 12:00:00 PM 3.85 38.93 0.227 7.84 2.31 0
12/20/2021 12:15:00 PM 3.86 38.948 0.227 7.85 2.27 0
12/20/2021 12:30:00 PM 3.87 38.966 0.227 7.85 2.28 0
12/20/2021 12:45:00 PM 3.88 38.984 0.227 7.86 2.31 0
12/20/2021 1:00:00 PM 3.9 39.02 0.227 7.85 2.3 0
12/20/2021 1:15:00 PM 3.93 39.074 0.227 7.85 2.32 0
12/20/2021 1:30:00 PM 3.94 39.092 0.227 7.84 2.26 0
12/20/2021 1:45:00 PM 3.96 39.128 0.227 7.84 2.28 0
12/20/2021 2:00:00 PM 3.98 39.164 0.227 7.83 2.31 0
12/20/2021 2:15:00 PM 4 39.2 0.227 7.83 2.29 0
12/20/2021 2:30:00 PM 4.01 39.218 0.226 7.84 2.33 0
12/20/2021 2:45:00 PM 4 39.2 0.227 7.85 2.28 0
12/20/2021 3:00:00 PM 4.02 39.236 0.227 7.85 2.31 0
12/20/2021 3:15:00 PM 4.03 39.254 0.227 7.84 2.26 0
12/20/2021 3:30:00 PM 4.04 39.272 0.227 7.87 2.25 0
12/20/2021 3:45:00 PM 4.05 39.29 0.227 7.87 2.24 0
12/20/2021 4:00:00 PM 4.06 39.308 0.227 7.87 2.34 0
12/20/2021 4:15:00 PM 4.06 39.308 0.227 7.87 2.27 0
12/20/2021 4:30:00 PM 4.07 39.326 0.227 7.87 2.3 0
12/20/2021 4:45:00 PM 4.08 39.344 0.227 7.89 2.26 0
12/20/2021 5:00:00 PM 4.08 39.344 0.227 7.89 2.26 0
12/20/2021 5:15:00 PM 4.09 39.362 0.227 7.91 2.27 0
12/20/2021 5:30:00 PM 4.09 39.362 0.227 7.91 2.22 0
12/20/2021 5:45:00 PM 4.1 39.38 0.227 7.92 2.25 0
12/20/2021 6:00:00 PM 4.1 39.38 0.227 7.92 2.26 0
12/20/2021 6:15:00 PM 4.11 39.398 0.227 7.92 2.2 0
12/20/2021 6:30:00 PM 4.11 39.398 0.227 7.92 2.29 0
12/20/2021 6:45:00 PM 4.11 39.398 0.227 7.92 2.23 0
12/20/2021 7:00:00 PM 4.12 39.416 0.227 7.92 2.21 0
12/20/2021 7:15:00 PM 4.12 39.416 0.228 7.92 2.26 0
12/20/2021 7:30:00 PM 4.12 39.416 0.228 7.93 2.28 0
12/20/2021 7:45:00 PM 4.12 39.416 0.228 7.93 2.25 0
12/20/2021 8:00:00 PM 4.12 39.416 0.228 7.93 2.2 0
12/20/2021 8:15:00 PM 4.13 39.434 0.228 7.94 2.2 0
12/20/2021 8:30:00 PM 4.13 39.434 0.228 7.93 2.23 0
12/20/2021 8:45:00 PM 4.14 39.452 0.228 7.95 2.13 0
12/20/2021 9:00:00 PM 4.14 39.452 0.228 7.93 2.27 0
12/20/2021 9:15:00 PM 4.15 39.47 0.228 7.94 2.27 0
12/20/2021 9:30:00 PM 4.15 39.47 0.228 7.95 2.16 0
12/20/2021 9:45:00 PM 4.16 39.488 0.228 7.95 2.23 0
12/20/2021 10:00:00 PM 4.16 39.488 0.228 7.94 2.17 0
12/20/2021 10:15:00 PM 4.17 39.506 0.228 7.95 2.23 0
12/20/2021 10:30:00 PM 4.17 39.506 0.228 7.94 2.21 0
12/20/2021 10:45:00 PM 4.18 39.524 0.228 7.95 2.23 0
12/20/2021 11:00:00 PM 4.18 39.524 0.228 7.95 2.22 0
12/20/2021 11:15:00 PM 4.18 39.524 0.228 7.95 2.2 0
12/20/2021 11:30:00 PM 4.19 39.542 0.228 7.96 2.2 0
12/20/2021 11:45:00 PM 4.19 39.542 0.228 7.95 2.14 0
12/21/2021 12:00:00 AM 4.2 39.56 0.228 7.96 2.16 0
12/21/2021 12:15:00 AM 4.2 39.56 0.228 7.96 2.15 0
12/21/2021 12:30:00 AM 4.21 39.578 0.228 7.93 2.17 0
12/21/2021 12:45:00 AM 4.21 39.578 0.228 7.96 2.19 0
12/21/2021 1:00:00 AM 4.21 39.578 0.228 7.96 2.17 0
12/21/2021 1:15:00 AM 4.21 39.578 0.228 7.96 2.13 0
12/21/2021 1:30:00 AM 4.21 39.578 0.228 7.96 2.15 0
12/21/2021 1:45:00 AM 4.22 39.596 0.228 7.96 2.21 0
12/21/2021 2:00:00 AM 4.22 39.596 0.228 7.96 2.18 0
12/21/2021 2:15:00 AM 4.23 39.614 0.228 7.96 2.2 0
12/21/2021 2:30:00 AM 4.23 39.614 0.228 7.97 2.17 0
12/21/2021 2:45:00 AM 4.23 39.614 0.228 7.96 2.24 0
12/21/2021 3:00:00 AM 4.24 39.632 0.228 7.96 2.19 0
12/21/2021 3:15:00 AM 4.25 39.65 0.228 7.96 2.22 0
12/21/2021 3:30:00 AM 4.25 39.65 0.228 7.95 2.14 0
12/21/2021 3:45:00 AM 4.25 39.65 0.228 7.96 2.16 0
12/21/2021 4:00:00 AM 4.25 39.65 0.228 7.96 2.15 0
12/21/2021 4:15:00 AM 4.25 39.65 0.228 7.95 2.16 0
12/21/2021 4:30:00 AM 4.26 39.668 0.228 7.94 2.16 0
12/21/2021 4:45:00 AM 4.26 39.668 0.228 7.96 2.17 0
12/21/2021 5:00:00 AM 4.32 39.776 0.227 7.83 2.22 0
12/21/2021 5:15:00 AM 4.35 39.83 0.227 7.8 2.26 0
12/21/2021 5:30:00 AM 4.22 39.596 0.227 7.81 2.21 0
12/21/2021 5:45:00 AM 4.07 39.326 0.227 7.81 2.26 0
12/21/2021 6:00:00 AM 3.93 39.074 0.227 7.81 2.22 0
12/21/2021 6:15:00 AM 3.81 38.858 0.227 7.83 2.22 0
12/21/2021 6:30:00 AM 3.67 38.606 0.227 7.84 2.26 0
12/21/2021 6:45:00 AM 3.55 38.39 0.226 7.85 2.32 0
12/21/2021 7:00:00 AM 3.46 38.228 0.226 7.86 2.24 0
12/21/2021 7:15:00 AM 3.4 38.12 0.226 7.85 2.3 0
12/21/2021 7:30:00 AM 3.31 37.958 0.223 7.95 2.37 0
12/21/2021 7:45:00 AM 3.3 37.94 0.223 7.92 2.44 0
12/21/2021 8:00:00 AM 3.28 37.904 0.224 7.9 2.39 0
12/21/2021 8:15:00 AM 3.27 37.886 0.224 7.9 2.33 0
12/21/2021 8:30:00 AM 3.26 37.868 0.225 7.9 2.35 0
12/21/2021 8:45:00 AM 3.25 37.85 0.224 7.9 2.98 0
12/21/2021 9:00:00 AM 3.23 37.814 0.223 7.91 2.42 0
12/21/2021 9:15:00 AM 3.22 37.796 0.223 7.93 2.49 0
12/21/2021 9:30:00 AM 3.22 37.796 0.223 7.92 2.33 0
12/21/2021 9:45:00 AM 3.22 37.796 0.223 7.92 2.4 0
12/21/2021 10:00:00 AM 3.22 37.796 0.223 7.91 2.33 0
12/21/2021 10:15:00 AM 3.23 37.814 0.224 7.88 2.33 0
12/21/2021 10:30:00 AM 3.24 37.832 0.224 7.89 2.36 0
12/21/2021 10:45:00 AM 3.26 37.868 0.224 7.87 2.34 0
12/21/2021 11:00:00 AM 3.31 37.958 0.224 7.88 2.35 0
12/21/2021 11:15:00 AM 3.33 37.994 0.224 7.89 2.31 0
12/21/2021 11:30:00 AM 3.32 37.976 0.224 7.88 2.36 0
12/21/2021 11:45:00 AM 3.32 37.976 0.224 7.87 2.41 0
12/21/2021 12:00:00 PM 3.31 37.958 0.223 7.9 2.52 0
12/21/2021 12:15:00 PM 3.31 37.958 0.223 7.9 2.41 0
12/21/2021 12:30:00 PM 3.31 37.958 0.223 7.92 2.43 0
12/21/2021 12:45:00 PM 3.31 37.958 0.22 7.97 2.41 0
12/21/2021 1:00:00 PM 3.32 37.976 0.22 7.98 2.52 0
12/21/2021 1:15:00 PM 3.34 38.012 0.221 7.95 2.41 0
12/21/2021 1:30:00 PM 3.36 38.048 0.221 7.96 2.34 0
12/21/2021 1:45:00 PM 3.37 38.066 0.221 7.94 2.32 0
12/21/2021 2:00:00 PM 3.38 38.084 0.221 7.91 2.33 0
12/21/2021 2:15:00 PM 3.4 38.12 0.222 7.93 2.38 0
12/21/2021 2:30:00 PM 3.42 38.156 0.222 7.91 2.3 0
12/21/2021 2:45:00 PM 3.44 38.192 0.223 7.9 2.39 0
12/21/2021 3:00:00 PM 3.45 38.21 0.222 7.91 2.34 0
12/21/2021 3:15:00 PM 3.46 38.228 0.22 7.95 2.5 0
12/21/2021 3:30:00 PM 3.47 38.246 0.22 7.98 2.49 0
12/21/2021 3:45:00 PM 3.49 38.282 0.221 7.9 2.35 0
12/21/2021 4:00:00 PM 3.51 38.318 0.221 7.92 2.45 0
12/21/2021 4:15:00 PM 3.51 38.318 0.221 7.91 2.34 0
12/21/2021 4:30:00 PM 3.52 38.336 0.221 7.94 2.41 0
12/21/2021 4:45:00 PM 3.53 38.354 0.221 7.94 2.37 0
12/21/2021 5:00:00 PM 3.53 38.354 0.22 7.96 2.41 0
12/21/2021 5:15:00 PM 3.53 38.354 0.221 7.95 2.35 0
12/21/2021 5:30:00 PM 3.54 38.372 0.221 7.94 2.31 0
12/21/2021 5:45:00 PM 3.54 38.372 0.22 7.95 2.34 0
12/21/2021 6:00:00 PM 3.54 38.372 0.22 7.96 2.31 0
12/21/2021 6:15:00 PM 3.53 38.354 0.22 7.95 2.41 0
12/21/2021 6:30:00 PM 3.53 38.354 0.22 7.96 2.33 0
12/21/2021 6:45:00 PM 3.53 38.354 0.219 7.97 2.38 0
12/21/2021 7:00:00 PM 3.53 38.354 0.219 7.98 2.31 0
12/21/2021 7:15:00 PM 3.52 38.336 0.219 7.97 2.28 0
12/21/2021 7:30:00 PM 3.51 38.318 0.219 7.97 2.47 0
12/21/2021 7:45:00 PM 3.51 38.318 0.219 7.98 2.35 0
12/21/2021 8:00:00 PM 3.5 38.3 0.219 7.98 2.34 11.62
12/21/2021 8:15:00 PM 3.5 38.3 0.218 7.99 2.32 0
12/21/2021 8:30:00 PM 3.49 38.282 0.219 7.99 2.32 0
12/21/2021 8:45:00 PM 3.48 38.264 0.219 7.98 2.32 0
12/21/2021 9:00:00 PM 3.46 38.228 0.217 8.06 2.5 0
12/21/2021 9:15:00 PM 3.46 38.228 0.217 8.05 2.39 0
12/21/2021 9:30:00 PM 3.46 38.228 0.217 8.04 2.34 0
12/21/2021 9:45:00 PM 3.45 38.21 0.217 8.04 2.32 0
12/21/2021 10:00:00 PM 3.45 38.21 0.217 8.05 2.33 0
12/21/2021 10:15:00 PM 3.46 38.228 0.217 8.03 2.29 0
12/21/2021 10:30:00 PM 3.46 38.228 0.217 8 2.34 0
12/21/2021 10:45:00 PM 3.46 38.228 0.218 7.99 2.29 0
12/21/2021 11:00:00 PM 3.47 38.246 0.218 8 2.32 0
12/21/2021 11:15:00 PM 3.47 38.246 0.218 7.99 2.35 0
12/21/2021 11:30:00 PM 3.48 38.264 0.218 7.99 2.37 0
12/21/2021 11:45:00 PM 3.48 38.264 0.218 8.01 2.27 0
12/22/2021 12:00:00 AM 3.48 38.264 0.218 8 2.28 0
12/22/2021 12:15:00 AM 3.48 38.264 0.218 7.98 2.29 0
12/22/2021 12:30:00 AM 3.48 38.264 0.219 7.99 2.26 0
12/22/2021 12:45:00 AM 3.49 38.282 0.219 7.96 2.31 0
12/22/2021 1:00:00 AM 3.49 38.282 0.219 7.98 2.29 0
12/22/2021 1:15:00 AM 3.49 38.282 0.219 7.99 2.23 0
12/22/2021 1:30:00 AM 3.49 38.282 0.219 7.97 2.27 0
12/22/2021 1:45:00 AM 3.49 38.282 0.219 7.98 2.3 0
12/22/2021 2:00:00 AM 3.5 38.3 0.219 7.97 2.31 0
12/22/2021 2:15:00 AM 3.5 38.3 0.219 7.97 2.32 0
12/22/2021 2:30:00 AM 3.5 38.3 0.218 7.97 2.25 0
12/22/2021 2:45:00 AM 3.51 38.318 0.218 7.97 2.28 0
12/22/2021 3:00:00 AM 3.51 38.318 0.219 7.98 2.33 0
12/22/2021 3:15:00 AM 3.52 38.336 0.219 7.98 2.22 0
12/22/2021 3:30:00 AM 3.52 38.336 0.218 7.98 2.25 0
12/22/2021 3:45:00 AM 3.52 38.336 0.218 7.98 2.29 0
12/22/2021 4:00:00 AM 3.53 38.354 0.218 7.98 2.22 0
12/22/2021 4:15:00 AM 3.53 38.354 0.218 7.95 2.26 0
12/22/2021 4:30:00 AM 3.53 38.354 0.218 7.97 2.28 0
12/22/2021 4:45:00 AM 3.54 38.372 0.218 7.97 2.29 0
12/22/2021 5:00:00 AM 3.57 38.426 0.218 7.97 2.28 0
12/22/2021 5:15:00 AM 3.58 38.444 0.218 7.97 2.32 0
12/22/2021 5:30:00 AM 3.47 38.246 0.217 7.95 2.18 0
12/22/2021 5:45:00 AM 3.33 37.994 0.218 7.97 2.27 0
12/22/2021 6:00:00 AM 3.17 37.706 0.218 7.97 2.25 0
12/22/2021 6:15:00 AM 3.07 37.526 0.218 7.99 2.25 0
12/22/2021 6:30:00 AM 3 37.4 0.218 7.97 2.24 0
12/22/2021 6:45:00 AM 2.95 37.31 0.218 7.98 2.23 0
12/22/2021 7:00:00 AM 2.91 37.238 0.218 7.98 2.23 0
12/22/2021 7:15:00 AM 2.88 37.184 0.218 7.99 2.22 0
12/22/2021 7:30:00 AM 2.86 37.148 0.218 7.99 2.22 0
12/22/2021 7:45:00 AM 2.84 37.112 0.218 7.99 2.19 0
12/22/2021 8:00:00 AM 2.82 37.076 0.218 7.99 2.23 0
12/22/2021 8:15:00 AM 2.81 37.058 0.218 7.99 2.26 0
12/22/2021 8:30:00 AM 2.8 37.04 0.218 7.98 2.23 0
12/22/2021 8:45:00 AM 2.79 37.022 0.218 8 2.22 0
12/22/2021 9:00:00 AM 2.78 37.004 0.218 7.99 2.23 0
12/22/2021 9:15:00 AM 2.78 37.004 0.218 8 2.24 0
12/22/2021 9:30:00 AM 2.77 36.986 0.218 7.99 2.27 0
12/22/2021 9:45:00 AM 2.82 37.076 0.218 8 2.3 0
12/22/2021 10:00:00 AM 2.84 37.112 0.218 7.97 2.22 0
12/22/2021 10:15:00 AM 2.84 37.112 0.218 7.99 2.24 0
12/22/2021 10:30:00 AM 2.82 37.076 0.218 8 2.2 0
12/22/2021 10:45:00 AM 2.82 37.076 0.218 7.99 2.21 0
12/22/2021 11:00:00 AM 2.82 37.076 0.218 7.98 2.2 0
12/22/2021 11:15:00 AM 2.82 37.076 0.218 7.98 2.27 0
12/22/2021 11:30:00 AM 2.83 37.094 0.218 7.99 2.23 0
12/22/2021 11:45:00 AM 2.84 37.112 0.218 7.99 2.22 0
12/22/2021 12:00:00 PM 2.84 37.112 0.218 7.99 2.25 0
12/22/2021 12:15:00 PM 2.84 37.112 0.218 7.99 2.24 0
12/22/2021 12:30:00 PM 2.84 37.112 0.218 7.99 2.23 0
12/22/2021 12:45:00 PM 2.85 37.13 0.218 7.99 2.21 0
12/22/2021 1:00:00 PM 2.85 37.13 0.218 7.98 2.21 0
12/22/2021 1:15:00 PM 2.86 37.148 0.218 7.99 2.27 0
12/22/2021 1:30:00 PM 2.86 37.148 0.218 7.98 2.21 0
12/22/2021 1:45:00 PM 2.87 37.166 0.218 7.98 2.23 0
12/22/2021 2:00:00 PM 2.88 37.184 0.218 7.99 2.19 0
12/22/2021 2:15:00 PM 2.89 37.202 0.218 7.99 2.25 0
12/22/2021 2:30:00 PM 2.91 37.238 0.218 7.99 2.31 0
12/22/2021 2:45:00 PM 2.92 37.256 0.218 7.99 2.22 0
12/22/2021 3:00:00 PM 2.93 37.274 0.218 7.98 2.23 0
12/22/2021 3:15:00 PM 2.93 37.274 0.218 8.01 2.28 0
12/22/2021 3:30:00 PM 2.94 37.292 0.218 8.01 2.29 0
12/22/2021 3:45:00 PM 2.94 37.292 0.218 8.01 2.3 0
12/22/2021 4:00:00 PM 2.95 37.31 0.218 8.01 2.28 0
12/22/2021 4:15:00 PM 2.95 37.31 0.218 8.01 2.33 0
12/22/2021 4:30:00 PM 2.96 37.328 0.218 8.01 2.25 0
12/22/2021 4:45:00 PM 2.97 37.346 0.218 8.01 2.27 0
12/22/2021 5:00:00 PM 2.97 37.346 0.218 8.01 2.27 0
12/22/2021 5:15:00 PM 2.97 37.346 0.218 8.01 2.21 0
12/22/2021 5:30:00 PM 2.98 37.364 0.218 8.02 2.25 0
12/22/2021 5:45:00 PM 2.98 37.364 0.218 8.02 2.29 0
12/22/2021 6:00:00 PM 2.98 37.364 0.218 8.02 2.25 0
12/22/2021 6:15:00 PM 2.99 37.382 0.218 8.02 2.2 0
12/22/2021 6:30:00 PM 2.99 37.382 0.218 8.02 2.2 0
12/22/2021 6:45:00 PM 2.99 37.382 0.218 8.02 2.26 0
12/22/2021 7:00:00 PM 3 37.4 0.218 8.02 2.22 0
12/22/2021 7:15:00 PM 3 37.4 0.218 8.02 2.18 0
12/22/2021 7:30:00 PM 3.01 37.418 0.218 8.02 2.25 0
12/22/2021 7:45:00 PM 3.01 37.418 0.218 8.02 2.22 0
12/22/2021 8:00:00 PM 3.01 37.418 0.218 8.02 2.21 0
12/22/2021 8:15:00 PM 3.01 37.418 0.218 8.02 2.21 0
12/22/2021 8:30:00 PM 3.02 37.436 0.218 8.02 2.21 0
12/22/2021 8:45:00 PM 3.02 37.436 0.219 8.02 2.22 0
12/22/2021 9:00:00 PM 3.03 37.454 0.218 8.02 2.21 0
12/22/2021 9:15:00 PM 3.03 37.454 0.218 8.02 2.17 0
12/22/2021 9:30:00 PM 3.03 37.454 0.219 8.02 2.21 0
12/22/2021 9:45:00 PM 3.04 37.472 0.219 8.02 2.2 0
12/22/2021 10:00:00 PM 3.04 37.472 0.219 8.02 2.2 0
12/22/2021 10:15:00 PM 3.04 37.472 0.219 8.02 2.18 0
12/22/2021 10:30:00 PM 3.05 37.49 0.219 8.02 2.22 0
12/22/2021 10:45:00 PM 3.05 37.49 0.219 8.02 2.19 0
12/22/2021 11:00:00 PM 3.05 37.49 0.219 8.01 2.22 0
12/22/2021 11:15:00 PM 3.06 37.508 0.219 8.02 2.17 0
12/22/2021 11:30:00 PM 3.06 37.508 0.219 8.01 2.17 0
12/22/2021 11:45:00 PM 3.06 37.508 0.219 8.01 2.17 0
12/23/2021 12:00:00 AM 3.07 37.526 0.219 8.01 2.19 0
12/23/2021 12:15:00 AM 3.07 37.526 0.219 8.01 2.22 0
12/23/2021 12:30:00 AM 3.07 37.526 0.219 8.01 2.19 0
12/23/2021 12:45:00 AM 3.07 37.526 0.219 8.01 2.15 0
12/23/2021 1:00:00 AM 3.08 37.544 0.219 8.01 2.18 0
12/23/2021 1:15:00 AM 3.08 37.544 0.219 8.01 2.15 0
12/23/2021 1:30:00 AM 3.09 37.562 0.219 8 2.15 0
12/23/2021 1:45:00 AM 3.09 37.562 0.219 8.01 2.12 0
12/23/2021 2:00:00 AM 3.09 37.562 0.219 8.01 2.18 0
12/23/2021 2:15:00 AM 3.1 37.58 0.219 8 2.18 0
12/23/2021 2:30:00 AM 3.1 37.58 0.219 8 2.16 0
12/23/2021 2:45:00 AM 3.11 37.598 0.219 8 2.11 0
12/23/2021 3:00:00 AM 3.11 37.598 0.219 8 2.14 0
12/23/2021 3:15:00 AM 3.11 37.598 0.219 8.01 2.18 0
12/23/2021 3:30:00 AM 3.12 37.616 0.219 8.01 2.14 0
12/23/2021 3:45:00 AM 3.12 37.616 0.219 8.01 2.15 0
12/23/2021 4:00:00 AM 3.12 37.616 0.219 8.01 2.15 0
12/23/2021 4:15:00 AM 3.13 37.634 0.219 8.01 2.18 0
12/23/2021 4:30:00 AM 3.13 37.634 0.219 8 2.13 0
12/23/2021 4:45:00 AM 3.14 37.652 0.219 8 2.19 0
12/23/2021 5:00:00 AM 3.14 37.652 0.219 8 2.16 0
12/23/2021 5:15:00 AM 3.17 37.706 0.219 7.97 2.17 0
12/23/2021 5:30:00 AM 3.21 37.778 0.218 7.93 2.24 0
12/23/2021 5:45:00 AM 3.08 37.544 0.218 7.92 2.16 0
12/23/2021 6:00:00 AM 2.8 37.04 0.218 7.92 2.2 0
12/23/2021 6:15:00 AM 2.62 36.716 0.219 7.93 2.24 0
12/23/2021 6:30:00 AM 2.5 36.5 0.219 7.93 2.25 0
12/23/2021 6:45:00 AM 2.37 36.266 0.219 7.91 2.21 0
12/23/2021 7:00:00 AM 2.24 36.032 0.219 7.95 2.37 0
12/23/2021 7:15:00 AM 2.15 35.87 0.22 7.93 2.28 0
12/23/2021 7:30:00 AM 2.1 35.78 0.22 7.94 2.32 0
12/23/2021 7:45:00 AM 2.05 35.69 0.22 7.95 2.3 0
12/23/2021 8:00:00 AM 2.01 35.618 0.22 7.95 2.36 0
12/23/2021 8:15:00 AM 1.98 35.564 0.221 7.94 2.36 0
12/23/2021 8:30:00 AM 1.96 35.528 0.221 7.95 2.33 0
12/23/2021 8:45:00 AM 1.94 35.492 0.221 7.97 2.36 0
12/23/2021 9:00:00 AM 1.92 35.456 0.221 7.96 2.37 0
12/23/2021 9:15:00 AM 1.91 35.438 0.221 7.96 2.27 0
12/23/2021 9:30:00 AM 1.91 35.438 0.221 7.96 2.28 0
12/23/2021 9:45:00 AM 1.91 35.438 0.221 7.96 2.3 0
12/23/2021 10:00:00 AM 1.91 35.438 0.221 7.97 2.28 0
12/23/2021 10:15:00 AM 1.92 35.456 0.221 7.97 2.27 0
12/23/2021 10:30:00 AM 1.93 35.474 0.221 7.97 2.31 0
12/23/2021 10:45:00 AM 1.94 35.492 0.221 7.97 2.29 0
12/23/2021 11:00:00 AM 1.95 35.51 0.221 7.98 2.41 0
12/23/2021 11:15:00 AM 1.97 35.546 0.221 7.99 2.45 0
12/23/2021 11:30:00 AM 1.98 35.564 0.221 8 2.33 0
12/23/2021 11:45:00 AM 1.99 35.582 0.221 7.97 2.35 0
12/23/2021 12:00:00 PM 2 35.6 0.221 7.99 2.57 0
12/23/2021 12:15:00 PM 2.02 35.636 0.221 8 2.44 0
12/23/2021 12:30:00 PM 2.03 35.654 0.222 8 2.43 0
12/23/2021 12:45:00 PM 2.06 35.708 0.222 8 2.52 0
12/23/2021 1:00:00 PM 2.07 35.726 0.222 8 2.59 0
12/23/2021 1:15:00 PM 2.1 35.78 0.222 8 2.51 0
12/23/2021 1:30:00 PM 2.12 35.816 0.222 8 2.53 0
12/23/2021 1:45:00 PM 2.13 35.834 0.222 8.01 2.53 0
12/23/2021 2:00:00 PM 2.14 35.852 0.222 8.03 2.52 0
12/23/2021 2:15:00 PM 2.15 35.87 0.222 8.02 2.5 0
12/23/2021 2:30:00 PM 2.16 35.888 0.222 8.03 2.52 0
12/23/2021 2:45:00 PM 2.17 35.906 0.222 8.03 2.52 0
12/23/2021 3:00:00 PM 2.18 35.924 0.222 8.03 2.47 0
12/23/2021 3:15:00 PM 2.18 35.924 0.222 8.04 2.5 0
12/23/2021 3:30:00 PM 2.19 35.942 0.222 8.04 2.49 0
12/23/2021 3:45:00 PM 2.2 35.96 0.222 8.04 2.55 0
12/23/2021 4:00:00 PM 2.2 35.96 0.222 8.04 2.43 0
12/23/2021 4:15:00 PM 2.21 35.978 0.222 8.04 2.47 0
12/23/2021 4:30:00 PM 2.21 35.978 0.222 8.05 2.49 0
12/23/2021 4:45:00 PM 2.22 35.996 0.222 8.04 2.46 0
12/23/2021 5:00:00 PM 2.22 35.996 0.222 8.05 2.54 0
12/23/2021 5:15:00 PM 2.23 36.014 0.222 8.04 2.46 0
12/23/2021 5:30:00 PM 2.23 36.014 0.222 8.05 2.58 0
12/23/2021 5:45:00 PM 2.23 36.014 0.222 8.05 2.47 0
12/23/2021 6:00:00 PM 2.24 36.032 0.222 8.05 2.49 0
12/23/2021 6:15:00 PM 2.24 36.032 0.222 8.05 2.5 0
12/23/2021 6:30:00 PM 2.25 36.05 0.222 8.05 2.5 0
12/23/2021 6:45:00 PM 2.25 36.05 0.222 8.05 2.51 0
12/23/2021 7:00:00 PM 2.25 36.05 0.222 8.05 2.53 0
12/23/2021 7:15:00 PM 2.26 36.068 0.222 8.05 2.51 0
12/23/2021 7:30:00 PM 2.26 36.068 0.222 8.05 2.43 0
12/23/2021 7:45:00 PM 2.27 36.086 0.222 8.05 2.59 0
12/23/2021 8:00:00 PM 2.27 36.086 0.222 8.04 2.48 0
12/23/2021 8:15:00 PM 2.27 36.086 0.222 8.05 2.58 0
12/23/2021 8:30:00 PM 2.28 36.104 0.222 8.05 2.48 0
12/23/2021 8:45:00 PM 2.28 36.104 0.222 8.05 2.53 0
12/23/2021 9:00:00 PM 2.29 36.122 0.222 8.05 2.5 0
12/23/2021 9:15:00 PM 2.3 36.14 0.222 8.06 2.5 0
12/23/2021 9:30:00 PM 2.3 36.14 0.222 8.05 2.54 0
12/23/2021 9:45:00 PM 2.31 36.158 0.222 8.05 2.49 0
12/23/2021 10:00:00 PM 2.31 36.158 0.222 8.04 2.49 0
12/23/2021 10:15:00 PM 2.32 36.176 0.222 8.05 2.43 0
12/23/2021 10:30:00 PM 2.32 36.176 0.222 8.05 2.55 0
12/23/2021 10:45:00 PM 2.33 36.194 0.222 8.05 2.45 0
12/23/2021 11:00:00 PM 2.33 36.194 0.222 8.05 2.52 11.68
12/23/2021 11:15:00 PM 2.34 36.212 0.222 8.05 2.48 0
12/23/2021 11:30:00 PM 2.35 36.23 0.222 8.05 2.46 0
12/23/2021 11:45:00 PM 2.35 36.23 0.222 8.05 2.5 0
12/24/2021 12:00:00 AM 2.36 36.248 0.222 8.04 2.44 0
12/24/2021 12:15:00 AM 2.36 36.248 0.222 8.05 2.46 0
12/24/2021 12:30:00 AM 2.37 36.266 0.222 8.05 2.46 0
12/24/2021 12:45:00 AM 2.37 36.266 0.222 8.04 2.46 0
12/24/2021 1:00:00 AM 2.38 36.284 0.222 8.05 2.5 0
12/24/2021 1:15:00 AM 2.38 36.284 0.222 8.04 2.5 0
12/24/2021 1:30:00 AM 2.39 36.302 0.222 8.05 2.44 0
12/24/2021 1:45:00 AM 2.39 36.302 0.222 8.04 2.5 0
12/24/2021 2:00:00 AM 2.4 36.32 0.222 8.04 2.49 0
12/24/2021 2:15:00 AM 2.4 36.32 0.222 8.05 2.44 0
12/24/2021 2:30:00 AM 2.41 36.338 0.222 8.05 2.46 0
12/24/2021 2:45:00 AM 2.41 36.338 0.222 8.04 2.4 0
12/24/2021 3:00:00 AM 2.42 36.356 0.222 8.05 2.39 0
12/24/2021 3:15:00 AM 2.42 36.356 0.222 8.05 2.45 0
12/24/2021 3:30:00 AM 2.43 36.374 0.222 8.04 2.5 0
12/24/2021 3:45:00 AM 2.43 36.374 0.222 8.05 2.44 0
12/24/2021 4:00:00 AM 2.44 36.392 0.222 8.04 2.43 0
12/24/2021 4:15:00 AM 2.44 36.392 0.222 8.04 2.48 0
12/24/2021 4:30:00 AM 2.45 36.41 0.222 8.03 2.42 0
12/24/2021 4:45:00 AM 2.45 36.41 0.222 8.03 2.43 0
12/24/2021 5:00:00 AM 2.49 36.482 0.222 8 2.34 0
12/24/2021 5:15:00 AM 2.6 36.68 0.221 7.96 2.48 0
12/24/2021 5:30:00 AM 2.55 36.59 0.221 7.96 2.34 0
12/24/2021 5:45:00 AM 2.45 36.41 0.221 7.94 2.37 0
12/24/2021 6:00:00 AM 2.35 36.23 0.221 7.94 2.31 0
12/24/2021 6:15:00 AM 2.28 36.104 0.221 7.93 2.38 0
12/24/2021 6:30:00 AM 2.22 35.996 0.221 7.95 2.38 0
12/24/2021 6:45:00 AM 2.18 35.924 0.221 7.95 2.36 0
12/24/2021 7:00:00 AM 2.2 35.96 0.221 7.97 2.47 0
12/24/2021 7:15:00 AM 2.19 35.942 0.22 7.98 2.4 0
12/24/2021 7:30:00 AM 2.16 35.888 0.22 7.96 2.38 0
12/24/2021 7:45:00 AM 2.13 35.834 0.22 7.97 2.39 0
12/24/2021 8:00:00 AM 2.1 35.78 0.22 7.96 2.34 0
12/24/2021 8:15:00 AM 2.07 35.726 0.22 7.96 2.35 0
12/24/2021 8:30:00 AM 2.05 35.69 0.22 7.96 2.37 0
12/24/2021 8:45:00 AM 2.03 35.654 0.22 7.95 2.39 0
12/24/2021 9:00:00 AM 2.02 35.636 0.22 7.96 2.36 0
12/24/2021 9:15:00 AM 2.01 35.618 0.22 7.96 2.39 0
12/24/2021 9:30:00 AM 2 35.6 0.22 7.96 2.49 0
12/24/2021 9:45:00 AM 2 35.6 0.22 7.97 2.47 0
12/24/2021 10:00:00 AM 1.99 35.582 0.219 7.97 2.36 0
12/24/2021 10:15:00 AM 1.99 35.582 0.219 7.97 2.36 0
12/24/2021 10:30:00 AM 2 35.6 0.219 7.97 2.39 0
12/24/2021 10:45:00 AM 2 35.6 0.219 7.97 2.57 0
12/24/2021 11:00:00 AM 2.01 35.618 0.219 7.98 2.41 0
12/24/2021 11:15:00 AM 2.02 35.636 0.218 7.97 2.47 0
12/24/2021 11:30:00 AM 2.03 35.654 0.218 7.98 2.36 0
12/24/2021 11:45:00 AM 2.05 35.69 0.218 7.98 2.36 0
12/24/2021 12:00:00 PM 2.08 35.744 0.218 7.98 2.56 0
12/24/2021 12:15:00 PM 2.1 35.78 0.218 7.98 2.41 0
12/24/2021 12:30:00 PM 2.12 35.816 0.218 7.99 2.42 0
12/24/2021 12:45:00 PM 2.15 35.87 0.218 7.99 2.45 0
12/24/2021 1:00:00 PM 2.17 35.906 0.217 8.01 2.49 0
12/24/2021 1:15:00 PM 2.2 35.96 0.217 8.01 2.43 0
12/24/2021 1:30:00 PM 2.23 36.014 0.217 8 2.48 0
12/24/2021 1:45:00 PM 2.25 36.05 0.217 8.01 2.45 0
12/24/2021 2:00:00 PM 2.27 36.086 0.217 8.01 2.42 0
12/24/2021 2:15:00 PM 2.28 36.104 0.217 8.01 2.41 0
12/24/2021 2:30:00 PM 2.29 36.122 0.217 8.01 2.37 0
12/24/2021 2:45:00 PM 2.3 36.14 0.217 8.02 2.41 0
12/24/2021 3:00:00 PM 2.31 36.158 0.217 8.02 2.4 0
12/24/2021 3:15:00 PM 2.32 36.176 0.217 8.01 2.4 0
12/24/2021 3:30:00 PM 2.33 36.194 0.217 8 2.4 0
12/24/2021 3:45:00 PM 2.33 36.194 0.217 8.02 2.41 0
12/24/2021 4:00:00 PM 2.34 36.212 0.217 8.02 2.38 0
12/24/2021 4:15:00 PM 2.34 36.212 0.217 8.03 2.45 0
12/24/2021 4:30:00 PM 2.35 36.23 0.217 8.03 2.45 0
12/24/2021 4:45:00 PM 2.35 36.23 0.217 8.03 2.33 0
12/24/2021 5:00:00 PM 2.36 36.248 0.217 8.03 2.44 0
12/24/2021 5:15:00 PM 2.36 36.248 0.217 8.03 2.33 0
12/24/2021 5:30:00 PM 2.36 36.248 0.217 8.03 2.36 0
12/24/2021 5:45:00 PM 2.37 36.266 0.217 8.03 2.41 0
12/24/2021 6:00:00 PM 2.37 36.266 0.217 8.03 2.36 0
12/24/2021 6:15:00 PM 2.37 36.266 0.217 8.03 2.41 0
12/24/2021 6:30:00 PM 2.38 36.284 0.217 8.03 2.36 0
12/24/2021 6:45:00 PM 2.38 36.284 0.217 8.03 2.34 0
12/24/2021 7:00:00 PM 2.38 36.284 0.216 8.03 2.41 0
12/24/2021 7:15:00 PM 2.39 36.302 0.217 8.03 2.34 0
12/24/2021 7:30:00 PM 2.39 36.302 0.217 8.03 2.37 0
12/24/2021 7:45:00 PM 2.39 36.302 0.217 8.03 2.4 0
12/24/2021 8:00:00 PM 2.4 36.32 0.217 8.03 2.38 12.03
12/24/2021 8:15:00 PM 2.4 36.32 0.217 8.04 2.36 0
12/24/2021 8:30:00 PM 2.4 36.32 0.217 8.03 2.4 0
12/24/2021 8:45:00 PM 2.41 36.338 0.217 8.04 2.38 0
12/24/2021 9:00:00 PM 2.41 36.338 0.217 8.04 2.34 0
12/24/2021 9:15:00 PM 2.41 36.338 0.217 8.04 2.37 0
12/24/2021 9:30:00 PM 2.42 36.356 0.217 8.04 2.4 0
12/24/2021 9:45:00 PM 2.42 36.356 0.217 8.04 2.36 0
12/24/2021 10:00:00 PM 2.43 36.374 0.217 8.04 2.34 0
12/24/2021 10:15:00 PM 2.43 36.374 0.217 8.04 2.34 0
12/24/2021 10:30:00 PM 2.44 36.392 0.217 8.04 2.35 0
12/24/2021 10:45:00 PM 2.44 36.392 0.217 8.04 2.35 0
12/24/2021 11:00:00 PM 2.44 36.392 0.217 8.04 2.4 0
12/24/2021 11:15:00 PM 2.45 36.41 0.217 8.04 2.33 0
12/24/2021 11:30:00 PM 2.45 36.41 0.217 8.04 2.38 0
12/24/2021 11:45:00 PM 2.46 36.428 0.217 8.04 2.34 0
12/25/2021 12:00:00 AM 2.46 36.428 0.217 8.03 2.35 0
12/25/2021 12:15:00 AM 2.47 36.446 0.217 8.04 2.34 0
12/25/2021 12:30:00 AM 2.47 36.446 0.217 8.04 2.35 0
12/25/2021 12:45:00 AM 2.47 36.446 0.217 8.03 2.35 0
12/25/2021 1:00:00 AM 2.48 36.464 0.216 8.04 2.28 0
12/25/2021 1:15:00 AM 2.48 36.464 0.217 8.04 2.34 0
12/25/2021 1:30:00 AM 2.49 36.482 0.217 8.04 2.31 0
12/25/2021 1:45:00 AM 2.49 36.482 0.216 8.03 2.28 0
12/25/2021 2:00:00 AM 2.5 36.5 0.217 8.03 2.33 0
12/25/2021 2:15:00 AM 2.5 36.5 0.217 8.03 2.38 0
12/25/2021 2:30:00 AM 2.5 36.5 0.217 8.04 2.34 0
12/25/2021 2:45:00 AM 2.51 36.518 0.217 8.03 2.32 0
12/25/2021 3:00:00 AM 2.51 36.518 0.217 8.04 2.34 0
12/25/2021 3:15:00 AM 2.51 36.518 0.217 8.03 2.39 0
12/25/2021 3:30:00 AM 2.52 36.536 0.217 8.03 2.32 0
12/25/2021 3:45:00 AM 2.52 36.536 0.217 8.03 2.3 0
12/25/2021 4:00:00 AM 2.53 36.554 0.217 8.03 2.36 0
12/25/2021 4:15:00 AM 2.53 36.554 0.217 8.03 2.39 0
12/25/2021 4:30:00 AM 2.54 36.572 0.217 8.03 2.3 0
12/25/2021 4:45:00 AM 2.54 36.572 0.217 8.04 2.4 0
12/25/2021 5:00:00 AM 2.55 36.59 0.217 8.04 2.29 0
12/25/2021 5:15:00 AM 2.59 36.662 0.217 8.01 2.33 0
12/25/2021 5:30:00 AM 2.66 36.788 0.217 7.99 2.32 0
12/25/2021 5:45:00 AM 2.63 36.734 0.217 7.97 2.35 0
12/25/2021 6:00:00 AM 2.56 36.608 0.217 7.97 2.64 0
12/25/2021 6:15:00 AM 2.51 36.518 0.217 7.97 2.26 0
12/25/2021 6:30:00 AM 2.46 36.428 0.217 7.97 2.28 0
12/25/2021 6:45:00 AM 2.42 36.356 0.217 7.97 2.25 0
12/25/2021 7:00:00 AM 2.39 36.302 0.217 7.97 2.3 0
12/25/2021 7:15:00 AM 2.37 36.266 0.217 7.97 2.27 0
12/25/2021 7:30:00 AM 2.35 36.23 0.217 7.97 2.27 0
12/25/2021 7:45:00 AM 2.35 36.23 0.217 7.97 2.28 0
12/25/2021 8:00:00 AM 2.38 36.284 0.217 7.97 2.36 0
12/25/2021 8:15:00 AM 2.38 36.284 0.217 7.98 2.29 0
12/25/2021 8:30:00 AM 2.36 36.248 0.217 7.98 2.25 0
12/25/2021 8:45:00 AM 2.35 36.23 0.217 7.99 2.27 0
12/25/2021 9:00:00 AM 2.34 36.212 0.217 7.99 2.24 0
12/25/2021 9:15:00 AM 2.33 36.194 0.217 7.98 2.24 0
12/25/2021 9:30:00 AM 2.32 36.176 0.218 7.98 2.28 0
12/25/2021 9:45:00 AM 2.32 36.176 0.218 7.99 2.29 0
12/25/2021 10:00:00 AM 2.32 36.176 0.218 7.98 2.25 0
12/25/2021 10:15:00 AM 2.32 36.176 0.218 7.99 2.25 0
12/25/2021 10:30:00 AM 2.32 36.176 0.218 7.99 2.26 0
12/25/2021 10:45:00 AM 2.32 36.176 0.218 7.99 2.19 0
12/25/2021 11:00:00 AM 2.32 36.176 0.218 7.99 2.23 0
12/25/2021 11:15:00 AM 2.32 36.176 0.218 7.99 2.26 0
12/25/2021 11:30:00 AM 2.32 36.176 0.218 7.99 2.25 0
12/25/2021 11:45:00 AM 2.33 36.194 0.218 8 2.24 0
12/25/2021 12:00:00 PM 2.33 36.194 0.218 8 2.25 0
12/25/2021 12:15:00 PM 2.34 36.212 0.218 7.99 2.26 0
12/25/2021 12:30:00 PM 2.35 36.23 0.218 7.99 2.3 0
12/25/2021 12:45:00 PM 2.36 36.248 0.218 8 2.26 0
12/25/2021 1:00:00 PM 2.35 36.23 0.218 7.99 2.26 0
12/25/2021 1:15:00 PM 2.36 36.248 0.218 7.99 2.23 0
12/25/2021 1:30:00 PM 2.38 36.284 0.218 8 2.3 0
12/25/2021 1:45:00 PM 2.38 36.284 0.218 8 2.29 0
12/25/2021 2:00:00 PM 2.39 36.302 0.218 8 2.26 0
12/25/2021 2:15:00 PM 2.4 36.32 0.218 7.99 2.27 0
12/25/2021 2:30:00 PM 2.4 36.32 0.218 8 2.26 0
12/25/2021 2:45:00 PM 2.41 36.338 0.218 8 2.25 0
12/25/2021 3:00:00 PM 2.41 36.338 0.218 8 2.27 0
12/25/2021 3:15:00 PM 2.42 36.356 0.218 8.01 2.24 0
12/25/2021 3:30:00 PM 2.42 36.356 0.218 8.01 2.21 0
12/25/2021 3:45:00 PM 2.43 36.374 0.218 8.01 2.21 0
12/25/2021 4:00:00 PM 2.43 36.374 0.218 8.01 2.25 0
12/25/2021 4:15:00 PM 2.43 36.374 0.218 8.01 2.23 0
12/25/2021 4:30:00 PM 2.44 36.392 0.218 8.01 2.27 0
12/25/2021 4:45:00 PM 2.44 36.392 0.218 8.01 2.21 0
12/25/2021 5:00:00 PM 2.45 36.41 0.218 8.01 2.2 0
12/25/2021 5:15:00 PM 2.45 36.41 0.218 8 2.23 0
12/25/2021 5:30:00 PM 2.45 36.41 0.218 8.01 2.2 0
12/25/2021 5:45:00 PM 2.46 36.428 0.219 8.01 2.2 0
12/25/2021 6:00:00 PM 2.46 36.428 0.219 8.01 2.23 0
12/25/2021 6:15:00 PM 2.46 36.428 0.219 8.01 2.25 0
12/25/2021 6:30:00 PM 2.47 36.446 0.218 8.01 2.22 0
12/25/2021 6:45:00 PM 2.47 36.446 0.219 8.01 2.21 0
12/25/2021 7:00:00 PM 2.47 36.446 0.219 8 2.23 0
12/25/2021 7:15:00 PM 2.48 36.464 0.219 8.01 2.2 0
12/25/2021 7:30:00 PM 2.48 36.464 0.219 8.01 2.2 0
12/25/2021 7:45:00 PM 2.49 36.482 0.219 8.01 2.23 0
12/25/2021 8:00:00 PM 2.49 36.482 0.219 8.01 2.21 0
12/25/2021 8:15:00 PM 2.49 36.482 0.219 8.01 2.2 0
12/25/2021 8:30:00 PM 2.5 36.5 0.219 8.01 2.17 0
12/25/2021 8:45:00 PM 2.5 36.5 0.219 8.01 2.22 0
12/25/2021 9:00:00 PM 2.5 36.5 0.219 8.02 2.21 0
12/25/2021 9:15:00 PM 2.5 36.5 0.219 8.02 2.21 0
12/25/2021 9:30:00 PM 2.51 36.518 0.219 8.01 2.2 0
12/25/2021 9:45:00 PM 2.51 36.518 0.219 8.01 2.22 0
12/25/2021 10:00:00 PM 2.52 36.536 0.219 8.01 2.21 0
12/25/2021 10:15:00 PM 2.52 36.536 0.219 8.02 2.22 0
12/25/2021 10:30:00 PM 2.52 36.536 0.219 8.01 2.15 0
12/25/2021 10:45:00 PM 2.53 36.554 0.219 8.01 2.19 0
12/25/2021 11:00:00 PM 2.53 36.554 0.219 8.01 2.17 0
12/25/2021 11:15:00 PM 2.54 36.572 0.219 8.02 2.21 0
12/25/2021 11:30:00 PM 2.54 36.572 0.219 8.02 2.19 0
12/25/2021 11:45:00 PM 2.55 36.59 0.219 8.02 2.19 0
12/26/2021 12:00:00 AM 2.55 36.59 0.219 8.01 2.23 0
12/26/2021 12:15:00 AM 2.55 36.59 0.219 8.01 2.21 0
12/26/2021 12:30:00 AM 2.56 36.608 0.219 8.01 2.18 0
12/26/2021 12:45:00 AM 2.56 36.608 0.219 8.01 2.24 0
12/26/2021 1:00:00 AM 2.57 36.626 0.219 8.01 2.22 0
12/26/2021 1:15:00 AM 2.58 36.644 0.219 8.01 2.2 0
12/26/2021 1:30:00 AM 2.58 36.644 0.219 8.01 2.13 0
12/26/2021 1:45:00 AM 2.58 36.644 0.219 8 2.16 0
12/26/2021 2:00:00 AM 2.59 36.662 0.219 8.01 2.21 0
12/26/2021 2:15:00 AM 2.59 36.662 0.219 8.01 2.22 0
12/26/2021 2:30:00 AM 2.59 36.662 0.219 8.02 2.14 0
12/26/2021 2:45:00 AM 2.59 36.662 0.219 8.01 2.17 0
12/26/2021 3:00:00 AM 2.6 36.68 0.219 8.01 2.17 0
12/26/2021 3:15:00 AM 2.6 36.68 0.219 8.01 2.2 0
12/26/2021 3:30:00 AM 2.61 36.698 0.219 8.01 2.18 0
12/26/2021 3:45:00 AM 2.61 36.698 0.219 8.01 2.16 0
12/26/2021 4:00:00 AM 2.61 36.698 0.219 8.01 2.15 0
12/26/2021 4:15:00 AM 2.62 36.716 0.219 8.01 2.19 0
12/26/2021 4:30:00 AM 2.62 36.716 0.219 8.01 2.18 0
12/26/2021 4:45:00 AM 2.62 36.716 0.219 8 2.22 0
12/26/2021 5:00:00 AM 2.63 36.734 0.219 8.01 2.15 0
12/26/2021 5:15:00 AM 2.63 36.734 0.219 8.01 2.15 0
12/26/2021 5:30:00 AM 2.66 36.788 0.218 7.96 2.15 0
12/26/2021 5:45:00 AM 2.71 36.878 0.218 7.94 2.13 0
12/26/2021 6:00:00 AM 2.74 36.932 0.218 7.93 2.18 0
12/26/2021 6:15:00 AM 2.73 36.914 0.218 7.93 2.16 0
12/26/2021 6:30:00 AM 2.71 36.878 0.218 7.93 2.15 0
12/26/2021 6:45:00 AM 2.69 36.842 0.218 7.93 2.15 0
12/26/2021 7:00:00 AM 2.67 36.806 0.219 7.9 2.19 0
12/26/2021 7:15:00 AM 2.66 36.788 0.219 7.94 2.11 0
12/26/2021 7:30:00 AM 2.65 36.77 0.219 7.94 2.11 0
12/26/2021 7:45:00 AM 2.64 36.752 0.219 7.94 2.14 0
12/26/2021 8:00:00 AM 2.64 36.752 0.219 7.94 2.17 0
12/26/2021 8:15:00 AM 2.64 36.752 0.219 7.94 2.17 0
12/26/2021 8:30:00 AM 2.67 36.806 0.219 7.95 2.13 0
12/26/2021 8:45:00 AM 2.68 36.824 0.219 7.95 2.13 0
12/26/2021 9:00:00 AM 2.67 36.806 0.219 7.95 2.15 0
12/26/2021 9:15:00 AM 2.65 36.77 0.219 7.95 2.12 0
12/26/2021 9:30:00 AM 2.64 36.752 0.219 7.95 2.13 0
12/26/2021 9:45:00 AM 2.64 36.752 0.219 7.95 2.12 0
12/26/2021 10:00:00 AM 2.63 36.734 0.219 7.95 2.15 0
12/26/2021 10:15:00 AM 2.63 36.734 0.219 7.95 2.11 0
12/26/2021 10:30:00 AM 2.64 36.752 0.219 7.95 2.11 0
12/26/2021 10:45:00 AM 2.65 36.77 0.219 7.96 2.11 0
12/26/2021 11:00:00 AM 2.66 36.788 0.219 7.96 2.12 0
12/26/2021 11:15:00 AM 2.68 36.824 0.219 7.96 2.14 0
12/26/2021 11:30:00 AM 2.7 36.86 0.219 7.96 2.13 0
12/26/2021 11:45:00 AM 2.72 36.896 0.219 7.96 2.14 0
12/26/2021 12:00:00 PM 2.75 36.95 0.219 7.96 2.16 0
12/26/2021 12:15:00 PM 2.78 37.004 0.219 7.97 2.13 0
12/26/2021 12:30:00 PM 2.79 37.022 0.219 7.98 2.12 0
12/26/2021 12:45:00 PM 2.82 37.076 0.219 7.97 2.11 11.01
12/26/2021 1:00:00 PM 2.85 37.13 0.219 7.98 2.13 0
12/26/2021 1:15:00 PM 2.87 37.166 0.219 7.98 2.13 0
12/26/2021 1:30:00 PM 2.89 37.202 0.219 7.98 2.1 0
12/26/2021 1:45:00 PM 2.9 37.22 0.219 7.98 2.14 0
12/26/2021 2:00:00 PM 2.91 37.238 0.219 7.98 2.2 0
12/26/2021 2:15:00 PM 2.93 37.274 0.219 7.98 2.14 0
12/26/2021 2:30:00 PM 2.94 37.292 0.219 7.98 2.13 0
12/26/2021 2:45:00 PM 2.94 37.292 0.219 7.98 2.09 0
12/26/2021 3:00:00 PM 2.95 37.31 0.219 7.98 2.13 0
12/26/2021 3:15:00 PM 2.96 37.328 0.219 7.98 2.12 0
12/26/2021 3:30:00 PM 2.96 37.328 0.219 7.98 2.11 0
12/26/2021 3:45:00 PM 2.97 37.346 0.219 7.98 2.14 0
12/26/2021 4:00:00 PM 2.97 37.346 0.219 7.98 2.12 0
12/26/2021 4:15:00 PM 2.97 37.346 0.219 7.98 2.16 0
12/26/2021 4:30:00 PM 2.98 37.364 0.219 7.98 2.12 0
12/26/2021 4:45:00 PM 2.98 37.364 0.219 7.98 2.12 0
12/26/2021 5:00:00 PM 2.99 37.382 0.219 7.99 2.13 0
12/26/2021 5:15:00 PM 2.99 37.382 0.219 7.99 2.12 0
12/26/2021 5:30:00 PM 2.99 37.382 0.219 7.99 2.11 0
12/26/2021 5:45:00 PM 3 37.4 0.22 7.99 2.12 0
12/26/2021 6:00:00 PM 3 37.4 0.219 7.99 2.11 0
12/26/2021 6:15:00 PM 3 37.4 0.219 7.99 2.12 0
12/26/2021 6:30:00 PM 3 37.4 0.219 7.99 2.11 0
12/26/2021 6:45:00 PM 3.01 37.418 0.22 7.99 2.1 10.69
12/26/2021 7:00:00 PM 3.01 37.418 0.219 7.99 2.19 0
12/26/2021 7:15:00 PM 3.02 37.436 0.22 7.97 2.13 0
12/26/2021 7:30:00 PM 3.02 37.436 0.22 7.98 2.14 0
12/26/2021 7:45:00 PM 3.02 37.436 0.219 7.98 2.1 0
12/26/2021 8:00:00 PM 3.03 37.454 0.22 7.99 2.12 0
12/26/2021 8:15:00 PM 3.03 37.454 0.22 7.99 2.1 0
12/26/2021 8:30:00 PM 3.04 37.472 0.22 7.99 2.11 0
12/26/2021 8:45:00 PM 3.04 37.472 0.22 7.99 2.14 0
12/26/2021 9:00:00 PM 3.04 37.472 0.22 7.99 2.12 0
12/26/2021 9:15:00 PM 3.04 37.472 0.22 7.99 2.11 10.64
12/26/2021 9:30:00 PM 3.05 37.49 0.22 7.99 2.09 0
12/26/2021 9:45:00 PM 3.05 37.49 0.22 7.99 2.11 0
12/26/2021 10:00:00 PM 3.05 37.49 0.22 7.99 2.1 0
12/26/2021 10:15:00 PM 3.06 37.508 0.22 7.99 2.11 0
12/26/2021 10:30:00 PM 3.06 37.508 0.22 7.99 2.1 0
12/26/2021 10:45:00 PM 3.06 37.508 0.22 7.99 2.11 0
12/26/2021 11:00:00 PM 3.07 37.526 0.22 7.99 2.12 0
12/26/2021 11:15:00 PM 3.07 37.526 0.22 7.99 2.13 0
12/26/2021 11:30:00 PM 3.07 37.526 0.22 7.99 2.1 0
12/26/2021 11:45:00 PM 3.08 37.544 0.22 7.99 2.13 0
12/27/2021 12:00:00 AM 3.08 37.544 0.22 7.98 2.12 0
12/27/2021 12:15:00 AM 3.08 37.544 0.22 7.99 2.11 0
12/27/2021 12:30:00 AM 3.09 37.562 0.22 7.99 2.1 0
12/27/2021 12:45:00 AM 3.09 37.562 0.22 7.99 2.12 0
12/27/2021 1:00:00 AM 3.09 37.562 0.22 7.99 2.08 0
12/27/2021 1:15:00 AM 3.09 37.562 0.22 7.99 2.1 0
12/27/2021 1:30:00 AM 3.1 37.58 0.22 7.99 2.11 0
12/27/2021 1:45:00 AM 3.1 37.58 0.22 7.99 2.12 0
12/27/2021 2:00:00 AM 3.11 37.598 0.22 7.99 2.09 0
12/27/2021 2:15:00 AM 3.11 37.598 0.22 7.99 2.08 0
12/27/2021 2:30:00 AM 3.11 37.598 0.22 8 2.09 0
12/27/2021 2:45:00 AM 3.12 37.616 0.22 8 2.1 0
12/27/2021 3:00:00 AM 3.12 37.616 0.22 8 2.1 0
12/27/2021 3:15:00 AM 3.12 37.616 0.22 8 2.09 0
12/27/2021 3:30:00 AM 3.13 37.634 0.22 8 2.09 0
12/27/2021 3:45:00 AM 3.13 37.634 0.22 8 2.13 0
12/27/2021 4:00:00 AM 3.13 37.634 0.22 8 2.14 0
12/27/2021 4:15:00 AM 3.14 37.652 0.22 8 2.08 0
12/27/2021 4:30:00 AM 3.14 37.652 0.22 8 2.11 0
12/27/2021 4:45:00 AM 3.14 37.652 0.22 8 2.1 0
12/27/2021 5:00:00 AM 3.16 37.688 0.219 7.96 2.1 0
12/27/2021 5:15:00 AM 3.21 37.778 0.219 7.93 2.1 0
12/27/2021 5:30:00 AM 3.23 37.814 0.219 7.92 2.04 0
12/27/2021 5:45:00 AM 3.18 37.724 0.219 7.92 2.31 0
12/27/2021 6:00:00 AM 3.17 37.706 0.219 7.9 2.11 0
12/27/2021 6:15:00 AM 3.13 37.634 0.219 7.91 2.06 0
12/27/2021 6:30:00 AM 3.09 37.562 0.219 7.91 2.06 0
12/27/2021 6:45:00 AM 3.05 37.49 0.219 7.92 2.05 0
12/27/2021 7:00:00 AM 3.01 37.418 0.22 7.91 2.05 0
12/27/2021 7:15:00 AM 2.98 37.364 0.22 7.92 2.07 0
12/27/2021 7:30:00 AM 2.96 37.328 0.22 7.91 2.07 0
12/27/2021 7:45:00 AM 2.94 37.292 0.22 7.92 2.03 0
12/27/2021 8:00:00 AM 2.92 37.256 0.22 7.92 2.04 0
12/27/2021 8:15:00 AM 2.9 37.22 0.22 7.93 2.03 0
12/27/2021 8:30:00 AM 2.89 37.202 0.22 7.92 2.07 0
12/27/2021 8:45:00 AM 2.88 37.184 0.22 7.93 2.11 0
12/27/2021 9:00:00 AM 2.86 37.148 0.22 7.94 2.04 0
12/27/2021 9:15:00 AM 2.85 37.13 0.22 7.93 2.04 0
12/27/2021 9:30:00 AM 2.84 37.112 0.22 7.94 2.03 0
12/27/2021 9:45:00 AM 2.83 37.094 0.22 7.94 2.05 0
12/27/2021 10:00:00 AM 2.82 37.076 0.22 7.95 2.01 0
12/27/2021 10:15:00 AM 2.81 37.058 0.22 7.95 2.07 0
12/27/2021 10:30:00 AM 2.81 37.058 0.22 7.95 2.03 0
12/27/2021 10:45:00 AM 2.8 37.04 0.22 7.95 2.07 0
12/27/2021 11:00:00 AM 2.8 37.04 0.22 7.95 2.05 0
12/27/2021 11:15:00 AM 2.8 37.04 0.22 7.95 2 0
12/27/2021 11:30:00 AM 2.8 37.04 0.22 7.94 2.09 0
12/27/2021 11:45:00 AM 2.81 37.058 0.22 7.95 2.09 0
12/27/2021 12:00:00 PM 2.82 37.076 0.22 7.94 2.07 0
12/27/2021 12:15:00 PM 2.84 37.112 0.22 7.95 2.1 0
12/27/2021 12:30:00 PM 2.85 37.13 0.22 7.95 2.07 0
12/27/2021 12:45:00 PM 2.87 37.166 0.22 7.94 2.06 0
12/27/2021 1:00:00 PM 2.88 37.184 0.22 7.95 2.05 0
12/27/2021 1:15:00 PM 2.9 37.22 0.22 7.95 2.08 0
12/27/2021 1:30:00 PM 2.92 37.256 0.22 7.96 2.07 0
12/27/2021 1:45:00 PM 2.93 37.274 0.22 7.96 2.04 0
12/27/2021 2:00:00 PM 2.94 37.292 0.22 7.96 2.08 0
12/27/2021 2:15:00 PM 2.95 37.31 0.22 7.95 2.08 0
12/27/2021 2:30:00 PM 2.96 37.328 0.22 7.95 2.09 0
12/27/2021 2:45:00 PM 2.96 37.328 0.22 7.96 2.08 0
12/27/2021 3:00:00 PM 2.96 37.328 0.22 7.95 2.07 0
12/27/2021 3:15:00 PM 2.97 37.346 0.22 7.95 2.08 0
12/27/2021 3:30:00 PM 2.98 37.364 0.22 7.95 2.06 0
12/27/2021 3:45:00 PM 2.98 37.364 0.22 7.96 2.08 0
12/27/2021 4:00:00 PM 2.99 37.382 0.22 7.94 2.1 0
12/27/2021 4:15:00 PM 3 37.4 0.22 7.96 2.08 0
12/27/2021 4:30:00 PM 3 37.4 0.221 7.95 2.08 0
12/27/2021 4:45:00 PM 3 37.4 0.221 7.96 2.07 0
12/27/2021 5:00:00 PM 3.01 37.418 0.221 7.96 2.04 0
12/27/2021 5:15:00 PM 3.01 37.418 0.221 7.96 2.04 0
12/27/2021 5:30:00 PM 3.02 37.436 0.221 7.96 2.03 0
12/27/2021 5:45:00 PM 3.02 37.436 0.221 7.96 2.05 0
12/27/2021 6:00:00 PM 3.02 37.436 0.221 7.96 2.05 0
12/27/2021 6:15:00 PM 3.03 37.454 0.221 7.97 2.05 0
12/27/2021 6:30:00 PM 3.03 37.454 0.221 7.97 2.03 0
12/27/2021 6:45:00 PM 3.03 37.454 0.221 7.97 2.05 0
12/27/2021 7:00:00 PM 3.03 37.454 0.221 7.97 2.08 0
12/27/2021 7:15:00 PM 3.04 37.472 0.221 7.97 2.06 0
12/27/2021 7:30:00 PM 3.04 37.472 0.221 7.97 2.06 0
12/27/2021 7:45:00 PM 3.04 37.472 0.221 7.97 2.01 0
12/27/2021 8:00:00 PM 3.05 37.49 0.221 7.97 2.04 0
12/27/2021 8:15:00 PM 3.05 37.49 0.221 7.98 2 0
12/27/2021 8:30:00 PM 3.05 37.49 0.221 7.98 2.06 0
12/27/2021 8:45:00 PM 3.05 37.49 0.221 7.98 2.01 0
12/27/2021 9:00:00 PM 3.06 37.508 0.221 7.97 2.03 0
12/27/2021 9:15:00 PM 3.06 37.508 0.221 7.97 2.05 0
12/27/2021 9:30:00 PM 3.06 37.508 0.221 7.98 2 9.75
12/27/2021 9:45:00 PM 3.07 37.526 0.221 7.98 2.02 0
12/27/2021 10:00:00 PM 3.07 37.526 0.221 7.97 2.03 0
12/27/2021 10:15:00 PM 3.07 37.526 0.221 7.98 2 0
12/27/2021 10:30:00 PM 3.07 37.526 0.221 7.98 2.03 0
12/27/2021 10:45:00 PM 3.08 37.544 0.221 7.98 2.01 0
12/27/2021 11:00:00 PM 3.08 37.544 0.221 7.98 2.02 0
12/27/2021 11:15:00 PM 3.08 37.544 0.221 7.98 1.99 0
12/27/2021 11:30:00 PM 3.09 37.562 0.221 7.99 1.98 0
12/27/2021 11:45:00 PM 3.09 37.562 0.221 7.98 2.01 0
12/28/2021 12:00:00 AM 3.09 37.562 0.221 7.99 2 0
12/28/2021 12:15:00 AM 3.1 37.58 0.221 7.99 2.01 0
12/28/2021 12:30:00 AM 3.1 37.58 0.222 7.99 1.95 0
12/28/2021 12:45:00 AM 3.1 37.58 0.222 7.97 2.02 0
12/28/2021 1:00:00 AM 3.11 37.598 0.222 7.99 2.02 0
12/28/2021 1:15:00 AM 3.11 37.598 0.222 7.99 2.01 0
12/28/2021 1:30:00 AM 3.11 37.598 0.222 7.98 1.99 0
12/28/2021 1:45:00 AM 3.11 37.598 0.222 7.99 1.99 0
12/28/2021 2:00:00 AM 3.12 37.616 0.222 7.99 1.98 0
12/28/2021 2:15:00 AM 3.12 37.616 0.222 7.98 1.99 0
12/28/2021 2:30:00 AM 3.12 37.616 0.222 7.99 2.02 0
12/28/2021 2:45:00 AM 3.13 37.634 0.222 7.99 2 0
12/28/2021 3:00:00 AM 3.13 37.634 0.222 8 2.02 0
12/28/2021 3:15:00 AM 3.13 37.634 0.222 7.98 1.99 0
12/28/2021 3:30:00 AM 3.14 37.652 0.222 7.99 1.98 0
12/28/2021 3:45:00 AM 3.14 37.652 0.222 8 2 0
12/28/2021 4:00:00 AM 3.15 37.67 0.222 8 2 0
12/28/2021 4:15:00 AM 3.15 37.67 0.222 8 1.99 0
12/28/2021 4:30:00 AM 3.15 37.67 0.222 7.99 2.01 0
12/28/2021 4:45:00 AM 3.16 37.688 0.222 8 1.97 0
12/28/2021 5:00:00 AM 3.18 37.724 0.221 7.94 2.02 0
12/28/2021 5:15:00 AM 3.23 37.814 0.221 7.9 2.03 0
12/28/2021 5:30:00 AM 3.23 37.814 0.22 7.9 2.02 0
12/28/2021 5:45:00 AM 3.2 37.76 0.22 7.9 2.03 0
12/28/2021 6:00:00 AM 3.17 37.706 0.22 7.9 2.06 0
12/28/2021 6:15:00 AM 3.14 37.652 0.22 7.9 2.06 0
12/28/2021 6:30:00 AM 3.15 37.67 0.221 7.9 1.99 0
12/28/2021 6:45:00 AM 3.14 37.652 0.221 7.91 2.02 0
12/28/2021 7:00:00 AM 3.12 37.616 0.221 7.91 2.03 0
12/28/2021 7:15:00 AM 3.09 37.562 0.221 7.91 2.01 0
12/28/2021 7:30:00 AM 3.06 37.508 0.221 7.9 2 0
12/28/2021 7:45:00 AM 3.05 37.49 0.221 7.91 2 0
12/28/2021 8:00:00 AM 3.03 37.454 0.221 7.91 2.09 0
12/28/2021 8:15:00 AM 3.02 37.436 0.221 7.91 2.02 0
12/28/2021 8:30:00 AM 3.01 37.418 0.221 7.91 2.01 0
12/28/2021 8:45:00 AM 3 37.4 0.221 7.9 2 0
12/28/2021 9:00:00 AM 3 37.4 0.221 7.9 2.04 0
12/28/2021 9:15:00 AM 3 37.4 0.221 7.92 2 0
12/28/2021 9:30:00 AM 3 37.4 0.221 7.91 1.99 0
12/28/2021 9:45:00 AM 3 37.4 0.221 7.91 2.01 0
12/28/2021 10:00:00 AM 3.01 37.418 0.221 7.9 2.03 0
12/28/2021 10:15:00 AM 3.01 37.418 0.221 7.92 1.99 0
12/28/2021 10:30:00 AM 3.02 37.436 0.221 7.92 2.01 0
12/28/2021 10:45:00 AM 3.03 37.454 0.221 7.92 2.01 0
12/28/2021 11:00:00 AM 3.04 37.472 0.222 7.93 2.31 0
12/28/2021 11:15:00 AM 3.05 37.49 0.222 7.95 2.11 0
12/28/2021 11:30:00 AM 3.07 37.526 0.222 7.95 2.11 10.5
12/28/2021 11:45:00 AM 3.08 37.544 0.222 7.96 2.09 0
12/28/2021 12:00:00 PM 3.1 37.58 0.222 7.96 2.13 0
12/28/2021 12:15:00 PM 3.11 37.598 0.222 7.97 2.1 0
12/28/2021 12:30:00 PM 3.12 37.616 0.222 7.96 2.08 0
12/28/2021 12:45:00 PM 3.13 37.634 0.222 7.97 2.09 0
12/28/2021 1:00:00 PM 3.14 37.652 0.222 7.97 2.1 0
12/28/2021 1:15:00 PM 3.15 37.67 0.222 7.98 2.13 0
12/28/2021 1:30:00 PM 3.16 37.688 0.222 7.99 2.08 0
12/28/2021 1:45:00 PM 3.17 37.706 0.222 7.99 2.11 0
12/28/2021 2:00:00 PM 3.18 37.724 0.222 7.98 2.12 0
12/28/2021 2:15:00 PM 3.19 37.742 0.222 7.99 2.12 0
12/28/2021 2:30:00 PM 3.19 37.742 0.222 8 2.13 0
12/28/2021 2:45:00 PM 3.2 37.76 0.222 8 2.12 0
12/28/2021 3:00:00 PM 3.21 37.778 0.223 8 2.13 0
12/28/2021 3:15:00 PM 3.2 37.76 0.223 8.01 2.2 0
12/28/2021 3:30:00 PM 3.21 37.778 0.223 8.01 2.21 0
12/28/2021 3:45:00 PM 3.22 37.796 0.223 8.03 2.21 0
12/28/2021 4:00:00 PM 3.23 37.814 0.223 8.03 2.19 0
12/28/2021 4:15:00 PM 3.23 37.814 0.223 8.02 2.2 0
12/28/2021 4:30:00 PM 3.24 37.832 0.223 8.02 2.16 0
12/28/2021 4:45:00 PM 3.24 37.832 0.223 8.02 2.16 0
12/28/2021 5:00:00 PM 3.25 37.85 0.223 8.02 2.14 0
12/28/2021 5:15:00 PM 3.25 37.85 0.223 8.02 2.16 0
12/28/2021 5:30:00 PM 3.25 37.85 0.223 8.02 2.14 0
12/28/2021 5:45:00 PM 3.26 37.868 0.223 8.02 2.13 0
12/28/2021 6:00:00 PM 3.26 37.868 0.223 8.02 2.11 0
12/28/2021 6:15:00 PM 3.26 37.868 0.223 8.01 2.14 0
12/28/2021 6:30:00 PM 3.26 37.868 0.223 8.02 2.12 0
12/28/2021 6:45:00 PM 3.26 37.868 0.223 8.03 2.16 0
12/28/2021 7:00:00 PM 3.27 37.886 0.223 8.03 2.15 0
12/28/2021 7:15:00 PM 3.27 37.886 0.223 8.03 2.13 0
12/28/2021 7:30:00 PM 3.28 37.904 0.223 8.02 2.12 0
12/28/2021 7:45:00 PM 3.28 37.904 0.223 8.03 2.16 0
12/28/2021 8:00:00 PM 3.28 37.904 0.223 8.03 2.11 0
12/28/2021 8:15:00 PM 3.28 37.904 0.223 8.03 2.07 0
12/28/2021 8:30:00 PM 3.29 37.922 0.223 8.03 2.12 0
12/28/2021 8:45:00 PM 3.29 37.922 0.224 8.03 2.14 0
12/28/2021 9:00:00 PM 3.29 37.922 0.224 8.03 2.14 0
12/28/2021 9:15:00 PM 3.29 37.922 0.224 8.03 2.09 0
12/28/2021 9:30:00 PM 3.29 37.922 0.224 8.03 2.25 0
12/28/2021 9:45:00 PM 3.3 37.94 0.224 8.03 2.19 0
12/28/2021 10:00:00 PM 3.3 37.94 0.224 8.03 2.13 0
12/28/2021 10:15:00 PM 3.3 37.94 0.224 8.03 2.15 0
12/28/2021 10:30:00 PM 3.3 37.94 0.224 8.03 2.11 0
12/28/2021 10:45:00 PM 3.3 37.94 0.224 8.03 2.15 0
12/28/2021 11:00:00 PM 3.31 37.958 0.224 8.03 2.13 0
12/28/2021 11:15:00 PM 3.31 37.958 0.224 8.03 2.15 0
12/28/2021 11:30:00 PM 3.31 37.958 0.224 8.03 2.17 0
12/28/2021 11:45:00 PM 3.32 37.976 0.224 8.03 2.16 0
12/29/2021 12:00:00 AM 3.32 37.976 0.224 8.03 2.23 0
12/29/2021 12:15:00 AM 3.32 37.976 0.224 8 2.14 0
12/29/2021 12:30:00 AM 3.32 37.976 0.224 8.02 2.14 0
12/29/2021 12:45:00 AM 3.33 37.994 0.224 8.02 2.13 10.6
12/29/2021 1:00:00 AM 3.33 37.994 0.224 8.02 2.14 0
12/29/2021 1:15:00 AM 3.33 37.994 0.224 8.02 2.15 0
12/29/2021 1:30:00 AM 3.33 37.994 0.224 8.02 2.18 0
12/29/2021 1:45:00 AM 3.34 38.012 0.224 8.02 2.18 0
12/29/2021 2:00:00 AM 3.34 38.012 0.224 8.03 2.18 0
12/29/2021 2:15:00 AM 3.34 38.012 0.224 8.03 2.12 0
12/29/2021 2:30:00 AM 3.34 38.012 0.224 8.03 2.17 0
12/29/2021 2:45:00 AM 3.35 38.03 0.224 8.03 2.19 0
12/29/2021 3:00:00 AM 3.35 38.03 0.224 8.03 2.18 0
12/29/2021 3:15:00 AM 3.35 38.03 0.224 8.02 2.15 0
12/29/2021 3:30:00 AM 3.36 38.048 0.224 8.03 2.19 0
12/29/2021 3:45:00 AM 3.36 38.048 0.224 8.03 2.18 0
12/29/2021 4:00:00 AM 3.36 38.048 0.224 8.03 2.15 0
12/29/2021 4:15:00 AM 3.36 38.048 0.224 8.03 2.18 0
12/29/2021 4:30:00 AM 3.37 38.066 0.224 8.03 2.14 0
12/29/2021 4:45:00 AM 3.37 38.066 0.224 8.03 2.12 0
12/29/2021 5:00:00 AM 3.41 38.138 0.222 7.93 2.08 0
12/29/2021 5:15:00 AM 3.45 38.21 0.222 7.88 2.04 0
12/29/2021 5:30:00 AM 3.43 38.174 0.222 7.87 2.04 0
12/29/2021 5:45:00 AM 3.4 38.12 0.222 7.88 2.01 0
12/29/2021 6:00:00 AM 3.41 38.138 0.222 7.87 2.01 0
12/29/2021 6:15:00 AM 3.4 38.12 0.222 7.88 2.02 0
12/29/2021 6:30:00 AM 3.37 38.066 0.222 7.88 2.02 0
12/29/2021 6:45:00 AM 3.35 38.03 0.222 7.88 1.97 0
12/29/2021 7:00:00 AM 3.33 37.994 0.222 7.89 2.02 0
12/29/2021 7:15:00 AM 3.32 37.976 0.222 7.89 1.99 0
12/29/2021 7:30:00 AM 3.31 37.958 0.222 7.89 2 0
12/29/2021 7:45:00 AM 3.31 37.958 0.222 7.89 2.06 0
12/29/2021 8:00:00 AM 3.3 37.94 0.222 7.89 1.96 0
12/29/2021 8:15:00 AM 3.3 37.94 0.222 7.9 1.97 0
12/29/2021 8:30:00 AM 3.3 37.94 0.222 7.9 2.02 0
12/29/2021 8:45:00 AM 3.3 37.94 0.222 7.9 2.02 0
12/29/2021 9:00:00 AM 3.3 37.94 0.222 7.9 2.08 0
12/29/2021 9:15:00 AM 3.3 37.94 0.222 7.91 2.06 0
12/29/2021 9:30:00 AM 3.3 37.94 0.222 7.92 2.02 0
12/29/2021 9:45:00 AM 3.31 37.958 0.222 7.91 2.07 0
12/29/2021 10:00:00 AM 3.31 37.958 0.222 7.91 2.05 0
12/29/2021 10:15:00 AM 3.32 37.976 0.222 7.91 2.08 0
12/29/2021 10:30:00 AM 3.32 37.976 0.223 7.91 2.06 0
12/29/2021 10:45:00 AM 3.33 37.994 0.223 7.91 2.08 0
12/29/2021 11:00:00 AM 3.34 38.012 0.223 7.92 2.1 0
12/29/2021 11:15:00 AM 3.34 38.012 0.223 7.93 2.11 0
12/29/2021 11:30:00 AM 3.35 38.03 0.223 7.93 2.12 0
12/29/2021 11:45:00 AM 3.36 38.048 0.223 7.93 2.19 0
12/29/2021 12:00:00 PM 3.36 38.048 0.223 7.93 2.13 0
12/29/2021 12:15:00 PM 3.37 38.066 0.223 7.94 2.22 0
12/29/2021 12:30:00 PM 3.38 38.084 0.223 7.94 2.2 0
12/29/2021 12:45:00 PM 3.39 38.102 0.223 7.94 2.23 0
12/29/2021 1:00:00 PM 3.41 38.138 0.223 7.94 2.2 0
12/29/2021 1:15:00 PM 3.42 38.156 0.223 7.94 2.3 0
12/29/2021 1:30:00 PM 3.44 38.192 0.223 7.94 2.25 0
12/29/2021 1:45:00 PM 3.45 38.21 0.224 7.94 2.2 0
12/29/2021 2:00:00 PM 3.47 38.246 0.224 7.95 2.24 0
12/29/2021 2:15:00 PM 3.48 38.264 0.224 7.95 2.22 0
12/29/2021 2:30:00 PM 3.49 38.282 0.224 7.95 2.27 0
12/29/2021 2:45:00 PM 3.49 38.282 0.225 7.98 2.39 0
12/29/2021 3:00:00 PM 3.5 38.3 0.225 7.98 2.51 0
12/29/2021 3:15:00 PM 3.51 38.318 0.225 7.98 2.55 0
12/29/2021 3:30:00 PM 3.52 38.336 0.226 7.98 2.5 0
12/29/2021 3:45:00 PM 3.53 38.354 0.225 7.98 2.57 0
12/29/2021 4:00:00 PM 3.54 38.372 0.226 7.98 2.69 0
12/29/2021 4:15:00 PM 3.54 38.372 0.226 7.99 2.7 0
12/29/2021 4:30:00 PM 3.55 38.39 0.226 7.99 2.58 0
12/29/2021 4:45:00 PM 3.56 38.408 0.226 7.99 2.74 0
12/29/2021 5:00:00 PM 3.56 38.408 0.226 7.99 2.72 0
12/29/2021 5:15:00 PM 3.57 38.426 0.226 7.99 2.64 0
12/29/2021 5:30:00 PM 3.57 38.426 0.226 8 2.63 0
12/29/2021 5:45:00 PM 3.58 38.444 0.226 8 2.7 0
12/29/2021 6:00:00 PM 3.58 38.444 0.226 8 2.68 0
12/29/2021 6:15:00 PM 3.58 38.444 0.226 8 2.7 0
12/29/2021 6:30:00 PM 3.59 38.462 0.226 8 2.62 0
12/29/2021 6:45:00 PM 3.59 38.462 0.226 8 2.75 0
12/29/2021 7:00:00 PM 3.59 38.462 0.226 8 2.72 0
12/29/2021 7:15:00 PM 3.59 38.462 0.226 8 2.75 0
12/29/2021 7:30:00 PM 3.6 38.48 0.226 8 2.63 0
12/29/2021 7:45:00 PM 3.6 38.48 0.226 8 2.67 0
12/29/2021 8:00:00 PM 3.6 38.48 0.226 8 2.74 0
12/29/2021 8:15:00 PM 3.6 38.48 0.226 8 2.61 0
12/29/2021 8:30:00 PM 3.6 38.48 0.226 8 2.69 0
12/29/2021 8:45:00 PM 3.6 38.48 0.226 8 2.62 0
12/29/2021 9:00:00 PM 3.6 38.48 0.226 8 2.73 10.18
12/29/2021 9:15:00 PM 3.6 38.48 0.226 8 2.61 0
12/29/2021 9:30:00 PM 3.61 38.498 0.226 7.99 2.68 0
12/29/2021 9:45:00 PM 3.61 38.498 0.226 7.99 2.64 0
12/29/2021 10:00:00 PM 3.61 38.498 0.226 7.99 2.63 0
12/29/2021 10:15:00 PM 3.61 38.498 0.226 7.99 2.61 0
12/29/2021 10:30:00 PM 3.61 38.498 0.226 7.99 2.72 0
12/29/2021 10:45:00 PM 3.61 38.498 0.226 7.97 2.69 0
12/29/2021 11:00:00 PM 3.62 38.516 0.226 7.98 2.57 0
12/29/2021 11:15:00 PM 3.62 38.516 0.226 7.97 2.6 0
12/29/2021 11:30:00 PM 3.62 38.516 0.227 7.98 2.63 0
12/29/2021 11:45:00 PM 3.62 38.516 0.226 7.98 2.63 0
12/30/2021 12:00:00 AM 3.62 38.516 0.226 7.97 2.58 0
12/30/2021 12:15:00 AM 3.63 38.534 0.226 7.98 2.59 0
12/30/2021 12:30:00 AM 3.63 38.534 0.226 7.98 2.59 0
12/30/2021 12:45:00 AM 3.63 38.534 0.226 7.97 2.57 0
12/30/2021 1:00:00 AM 3.63 38.534 0.226 7.97 2.58 0
12/30/2021 1:15:00 AM 3.63 38.534 0.226 7.95 2.55 0
12/30/2021 1:30:00 AM 3.63 38.534 0.226 7.97 2.67 0
12/30/2021 1:45:00 AM 3.64 38.552 0.226 7.97 2.62 0
12/30/2021 2:00:00 AM 3.64 38.552 0.226 7.98 2.59 0
12/30/2021 2:15:00 AM 3.64 38.552 0.226 7.96 2.57 0
12/30/2021 2:30:00 AM 3.65 38.57 0.226 7.95 2.65 0
12/30/2021 2:45:00 AM 3.65 38.57 0.226 7.96 2.64 0
12/30/2021 3:00:00 AM 3.65 38.57 0.226 7.95 2.64 0
12/30/2021 3:15:00 AM 3.65 38.57 0.226 7.97 2.69 0
12/30/2021 3:30:00 AM 3.66 38.588 0.226 7.95 2.6 0
12/30/2021 3:45:00 AM 3.66 38.588 0.226 7.95 2.56 0
12/30/2021 4:00:00 AM 3.66 38.588 0.226 7.95 2.57 0
12/30/2021 4:15:00 AM 3.66 38.588 0.226 7.95 2.52 0
12/30/2021 4:30:00 AM 3.67 38.606 0.226 7.94 2.58 0
12/30/2021 4:45:00 AM 3.67 38.606 0.226 7.95 2.59 0
12/30/2021 5:00:00 AM 3.67 38.606 0.226 7.94 2.58 0
12/30/2021 5:15:00 AM 3.68 38.624 0.226 7.95 2.59 0
12/30/2021 5:30:00 AM 3.68 38.624 0.226 7.95 2.58 0
12/30/2021 5:45:00 AM 3.68 38.624 0.226 7.95 2.58 0
12/30/2021 6:00:00 AM 3.68 38.624 0.226 7.94 2.56 0
12/30/2021 6:15:00 AM 3.69 38.642 0.226 7.95 2.51 0
12/30/2021 6:30:00 AM 3.69 38.642 0.226 7.95 2.53 0
12/30/2021 6:45:00 AM 3.7 38.66 0.227 7.94 2.75 0
12/30/2021 7:00:00 AM 3.73 38.714 0.226 7.92 2.38 0
12/30/2021 7:15:00 AM 3.77 38.786 0.226 7.88 2.43 0
12/30/2021 7:30:00 AM 3.79 38.822 0.224 7.85 2.24 0
12/30/2021 7:45:00 AM 3.77 38.786 0.224 7.84 2.24 0
12/30/2021 8:00:00 AM 3.73 38.714 0.224 7.85 2.47 0
12/30/2021 8:15:00 AM 3.69 38.642 0.224 7.85 2.23 9.79
12/30/2021 8:30:00 AM 3.67 38.606 0.223 7.85 2.33 0
12/30/2021 8:45:00 AM 3.65 38.57 0.223 7.85 2.36 0
12/30/2021 9:00:00 AM 3.64 38.552 0.223 7.85 2.25 0
12/30/2021 9:15:00 AM 3.63 38.534 0.223 7.85 2.24 0
12/30/2021 9:30:00 AM 3.63 38.534 0.223 7.85 2.2 0
12/30/2021 9:45:00 AM 3.62 38.516 0.222 7.85 2.23 0
12/30/2021 10:00:00 AM 3.62 38.516 0.222 7.84 2.31 0
12/30/2021 10:15:00 AM 3.62 38.516 0.222 7.84 2.26 0
12/30/2021 10:30:00 AM 3.62 38.516 0.222 7.84 2.37 0
12/30/2021 10:45:00 AM 3.62 38.516 0.222 7.84 2.47 0
12/30/2021 11:00:00 AM 3.63 38.534 0.221 7.85 2.3 0
12/30/2021 11:15:00 AM 3.63 38.534 0.221 7.86 2.46 0
12/30/2021 11:30:00 AM 3.63 38.534 0.221 7.85 2.37 0
12/30/2021 11:45:00 AM 3.64 38.552 0.221 7.86 2.43 0
12/30/2021 12:00:00 PM 3.64 38.552 0.221 7.87 2.42 0
12/30/2021 12:15:00 PM 3.65 38.57 0.221 7.88 2.61 0
12/30/2021 12:30:00 PM 3.66 38.588 0.22 7.88 2.56 0
12/30/2021 12:45:00 PM 3.66 38.588 0.221 7.88 2.65 0
12/30/2021 1:00:00 PM 3.67 38.606 0.219 7.87 2.51 0
12/30/2021 1:15:00 PM 3.67 38.606 0.219 7.9 2.6 0
12/30/2021 1:30:00 PM 3.68 38.624 0.219 7.89 2.54 0
12/30/2021 1:45:00 PM 3.69 38.642 0.219 7.9 2.54 0
12/30/2021 2:00:00 PM 3.7 38.66 0.219 7.91 2.56 0
12/30/2021 2:15:00 PM 3.72 38.696 0.219 7.88 2.58 0
12/30/2021 2:30:00 PM 3.73 38.714 0.219 7.9 2.6 0
12/30/2021 2:45:00 PM 3.73 38.714 0.216 7.94 2.72 0
12/30/2021 3:00:00 PM 3.74 38.732 0.217 7.94 2.66 0
12/30/2021 3:15:00 PM 3.74 38.732 0.217 7.95 2.61 0
12/30/2021 3:30:00 PM 3.75 38.75 0.217 7.93 2.59 0
12/30/2021 3:45:00 PM 3.75 38.75 0.217 7.93 2.57 0
12/30/2021 4:00:00 PM 3.76 38.768 0.217 7.94 2.59 0
12/30/2021 4:15:00 PM 3.76 38.768 0.217 7.92 2.6 0
12/30/2021 4:30:00 PM 3.76 38.768 0.218 7.94 2.56 0
12/30/2021 4:45:00 PM 3.77 38.786 0.218 7.94 2.6 0
12/30/2021 5:00:00 PM 3.77 38.786 0.218 7.94 2.57 0
12/30/2021 5:15:00 PM 3.77 38.786 0.218 7.94 2.57 0
12/30/2021 5:30:00 PM 3.77 38.786 0.218 7.94 2.58 0
12/30/2021 5:45:00 PM 3.77 38.786 0.218 7.93 2.57 0
12/30/2021 6:00:00 PM 3.77 38.786 0.217 7.93 2.58 0
12/30/2021 6:15:00 PM 3.77 38.786 0.218 7.93 2.68 0
12/30/2021 6:30:00 PM 3.77 38.786 0.217 7.93 2.7 0
12/30/2021 6:45:00 PM 3.78 38.804 0.217 7.93 2.56 0
12/30/2021 7:00:00 PM 3.78 38.804 0.218 7.93 2.64 0
12/30/2021 7:15:00 PM 3.78 38.804 0.217 7.93 2.54 0
12/30/2021 7:30:00 PM 3.78 38.804 0.217 7.93 2.61 0
12/30/2021 7:45:00 PM 3.79 38.822 0.218 7.93 2.59 0
12/30/2021 8:00:00 PM 3.79 38.822 0.218 7.93 2.59 0
12/30/2021 8:15:00 PM 3.79 38.822 0.218 7.93 2.54 0
12/30/2021 8:30:00 PM 3.79 38.822 0.218 7.93 2.63 0
12/30/2021 8:45:00 PM 3.8 38.84 0.218 7.93 2.56 0
12/30/2021 9:00:00 PM 3.8 38.84 0.217 7.93 2.52 0
12/30/2021 9:15:00 PM 3.8 38.84 0.218 7.93 2.52 0
12/30/2021 9:30:00 PM 3.81 38.858 0.218 7.93 2.59 0
12/30/2021 9:45:00 PM 3.81 38.858 0.217 7.93 2.54 0
12/30/2021 10:00:00 PM 3.81 38.858 0.217 7.91 2.57 11.2
12/30/2021 10:15:00 PM 3.82 38.876 0.218 7.93 2.5 0
12/30/2021 10:30:00 PM 3.82 38.876 0.217 7.93 2.51 0
12/30/2021 10:45:00 PM 3.82 38.876 0.217 7.93 2.55 0
12/30/2021 11:00:00 PM 3.82 38.876 0.217 7.93 2.51 0
12/30/2021 11:15:00 PM 3.82 38.876 0.217 7.93 2.49 0
12/30/2021 11:30:00 PM 3.83 38.894 0.217 7.93 2.51 0
12/30/2021 11:45:00 PM 3.83 38.894 0.217 7.9 2.49 0
12/31/2021 12:00:00 AM 3.83 38.894 0.217 7.92 2.52 0
12/31/2021 12:15:00 AM 3.84 38.912 0.217 7.92 2.55 0
12/31/2021 12:30:00 AM 3.84 38.912 0.217 7.92 2.54 0
12/31/2021 12:45:00 AM 3.84 38.912 0.217 7.92 2.52 0
12/31/2021 1:00:00 AM 3.85 38.93 0.217 7.93 2.55 0
12/31/2021 1:15:00 AM 3.85 38.93 0.217 7.92 2.54 0
12/31/2021 1:30:00 AM 3.85 38.93 0.217 7.92 2.54 0
12/31/2021 1:45:00 AM 3.85 38.93 0.217 7.92 2.55 0
12/31/2021 2:00:00 AM 3.86 38.948 0.217 7.91 2.54 0
12/31/2021 2:15:00 AM 3.86 38.948 0.217 7.92 2.5 0
12/31/2021 2:30:00 AM 3.87 38.966 0.217 7.92 2.52 0
12/31/2021 2:45:00 AM 3.87 38.966 0.217 7.92 2.51 0
12/31/2021 3:00:00 AM 3.87 38.966 0.217 7.92 2.49 0
12/31/2021 3:15:00 AM 3.87 38.966 0.217 7.92 2.46 0
12/31/2021 3:30:00 AM 3.88 38.984 0.217 7.92 2.51 0
12/31/2021 3:45:00 AM 3.88 38.984 0.217 7.91 2.58 0
12/31/2021 4:00:00 AM 3.88 38.984 0.217 7.92 2.51 0
12/31/2021 4:15:00 AM 3.88 38.984 0.217 7.91 2.46 0
12/31/2021 4:30:00 AM 3.89 39.002 0.217 7.92 2.52 11.13
12/31/2021 4:45:00 AM 3.89 39.002 0.217 7.93 2.49 0
12/31/2021 5:00:00 AM 3.95 39.11 0.217 7.9 2.53 0
12/31/2021 5:15:00 AM 4.01 39.218 0.217 7.89 2.58 0
12/31/2021 5:30:00 AM 4.02 39.236 0.217 7.89 2.54 0
12/31/2021 5:45:00 AM 4.02 39.236 0.217 7.9 2.52 11.26
12/31/2021 6:00:00 AM 4.01 39.218 0.217 7.9 2.5 0
12/31/2021 6:15:00 AM 4.01 39.218 0.217 7.88 2.48 0
12/31/2021 6:30:00 AM 4.01 39.218 0.217 7.9 2.41 0
12/31/2021 6:45:00 AM 4 39.2 0.217 7.91 2.45 0
12/31/2021 7:00:00 AM 4 39.2 0.217 7.91 2.48 0
12/31/2021 7:15:00 AM 4 39.2 0.217 7.9 2.43 0
12/31/2021 7:30:00 AM 4 39.2 0.216 7.9 2.44 0
12/31/2021 7:45:00 AM 4 39.2 0.216 7.9 2.41 0
12/31/2021 8:00:00 AM 4.02 39.236 0.216 7.9 2.39 0
12/31/2021 8:15:00 AM 4.04 39.272 0.216 7.9 2.4 0
12/31/2021 8:30:00 AM 4.05 39.29 0.216 7.91 2.36 0
12/31/2021 8:45:00 AM 4.04 39.272 0.216 7.91 2.38 0
12/31/2021 9:00:00 AM 4.04 39.272 0.216 7.88 2.46 0
12/31/2021 9:15:00 AM 4.03 39.254 0.216 7.9 2.37 0
12/31/2021 9:30:00 AM 4.03 39.254 0.216 7.88 2.45 0
12/31/2021 9:45:00 AM 4.04 39.272 0.216 7.9 2.31 0
12/31/2021 10:00:00 AM 4.04 39.272 0.216 7.91 2.33 0
12/31/2021 10:15:00 AM 4.03 39.254 0.213 7.91 2.38 0
12/31/2021 10:30:00 AM 4.04 39.272 0.213 7.93 2.35 0
12/31/2021 10:45:00 AM 4.04 39.272 0.214 7.93 2.29 0
12/31/2021 11:00:00 AM 4.05 39.29 0.214 7.93 2.23 0
12/31/2021 11:15:00 AM 4.06 39.308 0.214 7.93 2.36 0
12/31/2021 11:30:00 AM 4.08 39.344 0.214 7.94 2.3 0
12/31/2021 11:45:00 AM 4.09 39.362 0.214 7.91 2.23 0
12/31/2021 12:00:00 PM 4.11 39.398 0.214 7.91 2.29 0
12/31/2021 12:15:00 PM 4.12 39.416 0.214 7.91 2.27 0
12/31/2021 12:30:00 PM 4.14 39.452 0.214 7.91 2.25 0
12/31/2021 12:45:00 PM 4.16 39.488 0.214 7.91 2.3 0
12/31/2021 1:00:00 PM 4.16 39.488 0.213 7.94 2.24 0
12/31/2021 1:15:00 PM 4.18 39.524 0.213 7.95 2.31 0
12/31/2021 1:30:00 PM 4.19 39.542 0.213 7.95 2.22 0
12/31/2021 1:45:00 PM 4.19 39.542 0.213 7.94 2.19 0
12/31/2021 2:00:00 PM 4.2 39.56 0.213 7.96 2.29 0
12/31/2021 2:15:00 PM 4.2 39.56 0.213 7.96 2.23 0
12/31/2021 2:30:00 PM 4.21 39.578 0.213 7.96 2.21 0
12/31/2021 2:45:00 PM 4.21 39.578 0.213 7.96 2.21 0
12/31/2021 3:00:00 PM 4.21 39.578 0.213 7.96 2.24 0
12/31/2021 3:15:00 PM 4.22 39.596 0.213 7.97 2.25 0
12/31/2021 3:30:00 PM 4.22 39.596 0.213 7.97 2.19 0
12/31/2021 3:45:00 PM 4.22 39.596 0.213 7.97 2.19 0
12/31/2021 4:00:00 PM 4.22 39.596 0.213 7.97 2.22 0
12/31/2021 4:15:00 PM 4.23 39.614 0.213 7.97 2.22 0
12/31/2021 4:30:00 PM 4.23 39.614 0.213 7.97 2.2 0
12/31/2021 4:45:00 PM 4.23 39.614 0.213 7.97 2.16 0
12/31/2021 5:00:00 PM 4.23 39.614 0.213 7.97 2.15 0
12/31/2021 5:15:00 PM 4.23 39.614 0.213 7.97 2.19 0
12/31/2021 5:30:00 PM 4.24 39.632 0.214 7.97 2.18 0
12/31/2021 5:45:00 PM 4.23 39.614 0.213 7.94 2.17 0
12/31/2021 6:00:00 PM 4.24 39.632 0.213 7.96 2.18 0
12/31/2021 6:15:00 PM 4.24 39.632 0.213 7.96 2.13 0
12/31/2021 6:30:00 PM 4.24 39.632 0.214 7.97 2.16 0
12/31/2021 6:45:00 PM 4.24 39.632 0.213 7.97 2.2 0
12/31/2021 7:00:00 PM 4.24 39.632 0.213 7.97 2.16 0
12/31/2021 7:15:00 PM 4.24 39.632 0.213 7.96 2.18 0
12/31/2021 7:30:00 PM 4.24 39.632 0.213 7.96 2.12 0
12/31/2021 7:45:00 PM 4.24 39.632 0.214 7.97 2.12 0
12/31/2021 8:00:00 PM 4.24 39.632 0.213 7.96 2.16 0
12/31/2021 8:15:00 PM 4.24 39.632 0.213 7.94 2.18 0
12/31/2021 8:30:00 PM 4.24 39.632 0.213 7.96 2.16 0
12/31/2021 8:45:00 PM 4.24 39.632 0.213 7.95 2.15 0
12/31/2021 9:00:00 PM 4.24 39.632 0.213 7.96 2.16 0
12/31/2021 9:15:00 PM 4.24 39.632 0.213 7.94 2.15 0
12/31/2021 9:30:00 PM 4.24 39.632 0.213 7.95 2.16 0
12/31/2021 9:45:00 PM 4.24 39.632 0.213 7.95 2.15 0
12/31/2021 10:00:00 PM 4.24 39.632 0.213 7.95 2.13 0
12/31/2021 10:15:00 PM 4.25 39.65 0.213 7.93 2.12 11.26
12/31/2021 10:30:00 PM 4.25 39.65 0.213 7.95 2.15 0
12/31/2021 10:45:00 PM 4.25 39.65 0.213 7.94 2.19 0
12/31/2021 11:00:00 PM 4.25 39.65 0.213 7.95 2.2 0
12/31/2021 11:15:00 PM 4.24 39.632 0.213 7.95 2.12 0
12/31/2021 11:30:00 PM 4.24 39.632 0.213 7.95 2.1 0
12/31/2021 11:45:00 PM 4.24 39.632 0.214 7.94 2.14 0
1/1/2022 12:00:00 AM 4.24 39.632 0.213 7.95 2.14 0
1/1/2022 12:15:00 AM 4.25 39.65 0.213 7.94 2.12 0
1/1/2022 12:30:00 AM 4.25 39.65 0.214 7.94 2.15 0
1/1/2022 12:45:00 AM 4.25 39.65 0.213 7.94 2.13 0
1/1/2022 1:00:00 AM 4.25 39.65 0.214 7.94 2.14 0
1/1/2022 1:15:00 AM 4.26 39.668 0.214 7.94 2.1 0
1/1/2022 1:30:00 AM 4.26 39.668 0.214 7.95 2.16 0
1/1/2022 1:45:00 AM 4.26 39.668 0.213 7.95 2.14 0
1/1/2022 2:00:00 AM 4.26 39.668 0.214 7.95 2.12 0
1/1/2022 2:15:00 AM 4.26 39.668 0.213 7.95 2.11 0
1/1/2022 2:30:00 AM 4.27 39.686 0.214 7.95 2.13 0
1/1/2022 2:45:00 AM 4.27 39.686 0.214 7.94 2.17 0
1/1/2022 3:00:00 AM 4.27 39.686 0.214 7.95 2.16 0
1/1/2022 3:15:00 AM 4.27 39.686 0.214 7.93 2.12 0
1/1/2022 3:30:00 AM 4.27 39.686 0.214 7.95 2.16 0
1/1/2022 3:45:00 AM 4.27 39.686 0.214 7.95 2.12 0
1/1/2022 4:00:00 AM 4.27 39.686 0.214 7.93 2.11 0
1/1/2022 4:15:00 AM 4.27 39.686 0.214 7.94 2.09 0
1/1/2022 4:30:00 AM 4.28 39.704 0.213 7.94 2.09 0
1/1/2022 4:45:00 AM 4.28 39.704 0.214 7.95 2.11 0
1/1/2022 5:00:00 AM 4.33 39.794 0.214 7.88 2.19 0
1/1/2022 5:15:00 AM 4.41 39.938 0.214 7.87 2.14 0
1/1/2022 5:30:00 AM 4.46 40.028 0.214 7.87 2.16 0
1/1/2022 5:45:00 AM 4.48 40.064 0.214 7.87 2.19 0
1/1/2022 6:00:00 AM 4.49 40.082 0.214 7.88 2.15 0
1/1/2022 6:15:00 AM 4.5 40.1 0.214 7.88 2.14 0
1/1/2022 6:30:00 AM 4.5 40.1 0.214 7.89 2.19 0
1/1/2022 6:45:00 AM 4.51 40.118 0.214 7.9 2.35 0
1/1/2022 7:00:00 AM 4.54 40.172 0.214 7.9 2.16 0
1/1/2022 7:15:00 AM 4.55 40.19 0.214 7.9 2.15 0
1/1/2022 7:30:00 AM 4.55 40.19 0.214 7.9 2.08 0
1/1/2022 7:45:00 AM 4.54 40.172 0.214 7.9 2.12 0
1/1/2022 8:00:00 AM 4.54 40.172 0.214 7.9 2.11 0
1/1/2022 8:15:00 AM 4.54 40.172 0.214 7.9 2.07 0
1/1/2022 8:30:00 AM 4.54 40.172 0.214 7.9 2.11 0
1/1/2022 8:45:00 AM 4.54 40.172 0.213 7.91 2.08 0
1/1/2022 9:00:00 AM 4.54 40.172 0.214 7.91 2.12 0
1/1/2022 9:15:00 AM 4.54 40.172 0.214 7.91 2.1 0
1/1/2022 9:30:00 AM 4.55 40.19 0.214 7.91 2.15 0
1/1/2022 9:45:00 AM 4.55 40.19 0.214 7.91 2.12 0
1/1/2022 10:00:00 AM 4.56 40.208 0.214 7.92 2.11 0
1/1/2022 10:15:00 AM 4.56 40.208 0.214 7.9 2.09 0
1/1/2022 10:30:00 AM 4.57 40.226 0.214 7.9 2.1 0
1/1/2022 10:45:00 AM 4.57 40.226 0.214 7.92 2.07 0
1/1/2022 11:00:00 AM 4.58 40.244 0.214 7.92 2.11 0
1/1/2022 11:15:00 AM 4.59 40.262 0.214 7.92 2.09 0
1/1/2022 11:30:00 AM 4.6 40.28 0.214 7.91 2.09 0
1/1/2022 11:45:00 AM 4.61 40.298 0.214 7.92 2.09 0
1/1/2022 12:00:00 PM 4.61 40.298 0.214 7.93 2.13 0
1/1/2022 12:15:00 PM 4.62 40.316 0.214 7.92 2.07 0
1/1/2022 12:30:00 PM 4.63 40.334 0.214 7.9 2.12 0
1/1/2022 12:45:00 PM 4.64 40.352 0.214 7.92 2.05 0
1/1/2022 1:00:00 PM 4.64 40.352 0.214 7.92 2.13 0
1/1/2022 1:15:00 PM 4.66 40.388 0.214 7.92 2.11 0
1/1/2022 1:30:00 PM 4.67 40.406 0.214 7.92 2.06 10.49
1/1/2022 1:45:00 PM 4.68 40.424 0.214 7.93 2.09 10.82
1/1/2022 2:00:00 PM 4.68 40.424 0.214 7.92 2.11 10.88
1/1/2022 2:15:00 PM 4.69 40.442 0.214 7.92 2.09 11.01
1/1/2022 2:30:00 PM 4.69 40.442 0.214 7.92 2.09 11.1
1/1/2022 2:45:00 PM 4.7 40.46 0.214 7.91 2.08 10.88
1/1/2022 3:00:00 PM 4.71 40.478 0.214 7.93 2.09 10.91
1/1/2022 3:15:00 PM 4.71 40.478 0.214 7.93 2.11 11.41
1/1/2022 3:30:00 PM 4.71 40.478 0.214 7.92 2.05 11.36
1/1/2022 3:45:00 PM 4.71 40.478 0.214 7.93 2.08 11.3
1/1/2022 4:00:00 PM 4.72 40.496 0.214 7.94 2.07 11.04
1/1/2022 4:15:00 PM 4.72 40.496 0.214 7.91 2.09 11.03
1/1/2022 4:30:00 PM 4.73 40.514 0.214 7.93 2.08 11.37
1/1/2022 4:45:00 PM 4.73 40.514 0.214 7.93 2.07 11.47
1/1/2022 5:00:00 PM 4.74 40.532 0.214 7.94 2.08 11.22
1/1/2022 5:15:00 PM 4.74 40.532 0.214 7.93 2.04 0
1/1/2022 5:30:00 PM 4.74 40.532 0.214 7.94 2.06 0
1/1/2022 5:45:00 PM 4.73 40.514 0.214 7.94 2.04 0
1/1/2022 6:00:00 PM 4.73 40.514 0.214 7.94 2.03 0
1/1/2022 6:15:00 PM 4.73 40.514 0.214 7.94 2.07 0
1/1/2022 6:30:00 PM 4.73 40.514 0.214 7.93 2.06 -2.75
1/1/2022 6:45:00 PM 4.73 40.514 0.214 7.93 2.08 0
1/1/2022 7:00:00 PM 4.73 40.514 0.214 7.94 2.02 0
1/1/2022 7:15:00 PM 4.73 40.514 0.215 7.93 2.03 0
1/1/2022 7:30:00 PM 4.73 40.514 0.215 7.94 2.04 0
1/1/2022 7:45:00 PM 4.73 40.514 0.215 7.94 2.04 0
1/1/2022 8:00:00 PM 4.73 40.514 0.215 7.94 2.06 0
1/1/2022 8:15:00 PM 4.73 40.514 0.215 7.93 2.05 0
1/1/2022 8:30:00 PM 4.73 40.514 0.215 7.93 2.05 0
1/1/2022 8:45:00 PM 4.73 40.514 0.215 7.94 2.02 0
1/1/2022 9:00:00 PM 4.73 40.514 0.215 7.94 2.03 0
1/1/2022 9:15:00 PM 4.73 40.514 0.215 7.94 2.05 0
1/1/2022 9:30:00 PM 4.73 40.514 0.215 7.94 2.06 0
1/1/2022 9:45:00 PM 4.73 40.514 0.215 7.92 2.05 0
1/1/2022 10:00:00 PM 4.73 40.514 0.215 7.94 2.12 0
1/1/2022 10:15:00 PM 4.73 40.514 0.215 7.93 1.98 0
1/1/2022 10:30:00 PM 4.73 40.514 0.215 7.93 2.05 0
1/1/2022 10:45:00 PM 4.73 40.514 0.215 7.93 2.01 0
1/1/2022 11:00:00 PM 4.74 40.532 0.215 7.93 1.99 0
1/1/2022 11:15:00 PM 4.74 40.532 0.215 7.93 2.04 0
1/1/2022 11:30:00 PM 4.74 40.532 0.215 7.93 2.02 0
1/1/2022 11:45:00 PM 4.74 40.532 0.215 7.93 2.05 0
1/2/2022 12:00:00 AM 4.74 40.532 0.215 7.93 2.06 0
1/2/2022 12:15:00 AM 4.74 40.532 0.215 7.93 2.03 0
1/2/2022 12:30:00 AM 4.74 40.532 0.215 7.91 2.02 0
1/2/2022 12:45:00 AM 4.74 40.532 0.215 7.93 2.03 0
1/2/2022 1:00:00 AM 4.74 40.532 0.215 7.93 2.02 0
1/2/2022 1:15:00 AM 4.74 40.532 0.215 7.91 2.02 0
1/2/2022 1:30:00 AM 4.74 40.532 0.215 7.92 2.01 0
1/2/2022 1:45:00 AM 4.75 40.55 0.215 7.92 1.97 0
1/2/2022 2:00:00 AM 4.75 40.55 0.215 7.92 2 0
1/2/2022 2:15:00 AM 4.75 40.55 0.215 7.92 1.99 -4.43
1/2/2022 2:30:00 AM 4.75 40.55 0.215 7.91 1.99 0
1/2/2022 2:45:00 AM 4.75 40.55 0.215 7.92 2.06 0
1/2/2022 3:00:00 AM 4.75 40.55 0.215 7.92 1.99 0
1/2/2022 3:15:00 AM 4.75 40.55 0.215 7.92 1.99 0
1/2/2022 3:30:00 AM 4.76 40.568 0.215 7.92 1.99 0
1/2/2022 3:45:00 AM 4.76 40.568 0.216 7.92 2 0
1/2/2022 4:00:00 AM 4.76 40.568 0.216 7.92 1.97 0
1/2/2022 4:15:00 AM 4.76 40.568 0.216 7.92 1.95 0
1/2/2022 4:30:00 AM 4.76 40.568 0.216 7.92 2.02 0
1/2/2022 4:45:00 AM 4.76 40.568 0.216 7.92 1.99 0
1/2/2022 5:00:00 AM 4.81 40.658 0.214 7.82 2.06 0
1/2/2022 5:15:00 AM 4.89 40.802 0.214 7.81 2.06 0
1/2/2022 5:30:00 AM 5 41 0.214 7.81 2.05 0
1/2/2022 5:45:00 AM 5.08 41.144 0.214 7.82 2.01 0
1/2/2022 6:00:00 AM 5.13 41.234 0.215 7.83 1.99 0
1/2/2022 6:15:00 AM 5.15 41.27 0.215 7.83 2.04 0
1/2/2022 6:30:00 AM 5.17 41.306 0.215 7.84 1.96 0
1/2/2022 6:45:00 AM 5.19 41.342 0.215 7.85 2 0
1/2/2022 7:00:00 AM 5.21 41.378 0.215 7.84 1.99 0
1/2/2022 7:15:00 AM 5.22 41.396 0.215 7.86 1.95 0
1/2/2022 7:30:00 AM 5.23 41.414 0.215 7.86 1.95 0
1/2/2022 7:45:00 AM 5.23 41.414 0.215 7.86 1.97 0
1/2/2022 8:00:00 AM 5.24 41.432 0.215 7.85 1.94 0
1/2/2022 8:15:00 AM 5.25 41.45 0.215 7.86 1.96 0
1/2/2022 8:30:00 AM 5.25 41.45 0.215 7.84 1.94 0
1/2/2022 8:45:00 AM 5.26 41.468 0.215 7.86 1.97 0
1/2/2022 9:00:00 AM 5.26 41.468 0.215 7.86 1.98 0
1/2/2022 9:15:00 AM 5.27 41.486 0.215 7.87 1.99 0
1/2/2022 9:30:00 AM 5.28 41.504 0.215 7.86 1.99 0
1/2/2022 9:45:00 AM 5.29 41.522 0.215 7.87 1.99 0
1/2/2022 10:00:00 AM 5.29 41.522 0.215 7.87 1.93 0
1/2/2022 10:15:00 AM 5.3 41.54 0.215 7.86 1.99 0
1/2/2022 10:30:00 AM 5.31 41.558 0.215 7.87 1.96 0
1/2/2022 10:45:00 AM 5.31 41.558 0.215 7.87 2 0
1/2/2022 11:00:00 AM 5.32 41.576 0.215 7.87 1.95 0
1/2/2022 11:15:00 AM 5.33 41.594 0.215 7.87 1.94 0
1/2/2022 11:30:00 AM 5.33 41.594 0.215 7.87 2.03 0
1/2/2022 11:45:00 AM 5.34 41.612 0.215 7.87 2.01 0
1/2/2022 12:00:00 PM 5.35 41.63 0.215 7.87 1.99 0
1/2/2022 12:15:00 PM 5.36 41.648 0.216 7.87 1.97 0
1/2/2022 12:30:00 PM 5.37 41.666 0.216 7.88 1.96 0
1/2/2022 12:45:00 PM 5.37 41.666 0.216 7.88 1.98 0
1/2/2022 1:00:00 PM 5.38 41.684 0.216 7.88 2.01 0
1/2/2022 1:15:00 PM 5.39 41.702 0.216 7.88 1.99 0
1/2/2022 1:30:00 PM 5.39 41.702 0.216 7.87 1.95 0
1/2/2022 1:45:00 PM 5.4 41.72 0.216 7.88 2 0
1/2/2022 2:00:00 PM 5.4 41.72 0.216 7.89 1.97 0
1/2/2022 2:15:00 PM 5.41 41.738 0.216 7.88 1.98 0
1/2/2022 2:30:00 PM 5.41 41.738 0.216 7.89 1.95 0
1/2/2022 2:45:00 PM 5.41 41.738 0.216 7.88 1.98 0
1/2/2022 3:00:00 PM 5.41 41.738 0.216 7.89 1.96 0
1/2/2022 3:15:00 PM 5.41 41.738 0.216 7.89 1.98 0
1/2/2022 3:30:00 PM 5.42 41.756 0.216 7.89 1.96 0
1/2/2022 3:45:00 PM 5.42 41.756 0.216 7.89 1.96 0
1/2/2022 4:00:00 PM 5.42 41.756 0.216 7.88 1.96 0
1/2/2022 4:15:00 PM 5.42 41.756 0.216 7.89 1.93 0
1/2/2022 4:30:00 PM 5.42 41.756 0.216 7.89 1.96 0
1/2/2022 4:45:00 PM 5.43 41.774 0.216 7.89 1.93 0
1/2/2022 5:00:00 PM 5.43 41.774 0.216 7.9 1.91 0
1/2/2022 5:15:00 PM 5.43 41.774 0.217 7.88 1.89 0
1/2/2022 5:30:00 PM 5.43 41.774 0.217 7.9 1.94 0
1/2/2022 5:45:00 PM 5.43 41.774 0.217 7.9 1.96 0
1/2/2022 6:00:00 PM 5.43 41.774 0.217 7.9 1.95 0
1/2/2022 6:15:00 PM 5.43 41.774 0.217 7.9 1.93 0
1/2/2022 6:30:00 PM 5.43 41.774 0.217 7.9 2.05 0
1/2/2022 6:45:00 PM 5.43 41.774 0.217 7.87 2.26 0
1/2/2022 7:00:00 PM 5.43 41.774 0.217 7.89 1.97 0
1/2/2022 7:15:00 PM 5.43 41.774 0.217 7.9 1.94 0
1/2/2022 7:30:00 PM 5.43 41.774 0.217 7.89 1.94 0
1/2/2022 7:45:00 PM 5.43 41.774 0.217 7.9 1.94 0
1/2/2022 8:00:00 PM 5.43 41.774 0.217 7.9 1.95 0
1/2/2022 8:15:00 PM 5.43 41.774 0.217 7.9 1.94 0
1/2/2022 8:30:00 PM 5.43 41.774 0.217 7.9 1.93 0
1/2/2022 8:45:00 PM 5.43 41.774 0.217 7.89 1.91 0
1/2/2022 9:00:00 PM 5.44 41.792 0.217 7.9 1.88 0
1/2/2022 9:15:00 PM 5.44 41.792 0.217 7.9 1.95 0
1/2/2022 9:30:00 PM 5.44 41.792 0.217 7.9 1.9 0
1/2/2022 9:45:00 PM 5.44 41.792 0.217 7.9 1.9 0
1/2/2022 10:00:00 PM 5.44 41.792 0.217 7.9 1.93 0
1/2/2022 10:15:00 PM 5.44 41.792 0.217 7.9 1.96 0
1/2/2022 10:30:00 PM 5.44 41.792 0.217 7.9 1.93 0
1/2/2022 10:45:00 PM 5.44 41.792 0.217 7.89 1.93 0
1/2/2022 11:00:00 PM 5.44 41.792 0.217 7.89 1.94 0
1/2/2022 11:15:00 PM 5.44 41.792 0.217 7.9 1.97 0
1/2/2022 11:30:00 PM 5.44 41.792 0.217 7.9 1.92 0
1/2/2022 11:45:00 PM 5.44 41.792 0.218 7.9 1.94 0
1/3/2022 12:00:00 AM 5.44 41.792 0.218 7.9 1.93 0
1/3/2022 12:15:00 AM 5.44 41.792 0.218 7.9 1.93 0
1/3/2022 12:30:00 AM 5.44 41.792 0.218 7.9 1.9 0
1/3/2022 12:45:00 AM 5.44 41.792 0.218 7.9 1.99 0
1/3/2022 1:00:00 AM 5.45 41.81 0.218 7.89 1.93 0
1/3/2022 1:15:00 AM 5.45 41.81 0.218 7.9 1.91 0
1/3/2022 1:30:00 AM 5.45 41.81 0.218 7.9 1.9 0
1/3/2022 1:45:00 AM 5.45 41.81 0.218 7.89 1.91 0
1/3/2022 2:00:00 AM 5.45 41.81 0.218 7.89 1.92 0
1/3/2022 2:15:00 AM 5.46 41.828 0.218 7.9 1.88 0
1/3/2022 2:30:00 AM 5.46 41.828 0.218 7.89 1.93 0
1/3/2022 2:45:00 AM 5.46 41.828 0.218 7.9 1.9 0
1/3/2022 3:00:00 AM 5.47 41.846 0.218 7.89 1.87 0
1/3/2022 3:15:00 AM 5.47 41.846 0.218 7.89 1.87 0
1/3/2022 3:30:00 AM 5.47 41.846 0.218 7.9 1.9 0
1/3/2022 3:45:00 AM 5.48 41.864 0.218 7.88 1.89 0
1/3/2022 4:00:00 AM 5.48 41.864 0.218 7.89 1.94 0
1/3/2022 4:15:00 AM 5.48 41.864 0.218 7.89 1.92 0
1/3/2022 4:30:00 AM 5.49 41.882 0.218 7.9 1.91 0
1/3/2022 4:45:00 AM 5.51 41.918 0.219 7.9 1.9 0
1/3/2022 5:00:00 AM 5.56 42.008 0.216 7.78 1.93 0
1/3/2022 5:15:00 AM 5.56 42.008 0.216 7.76 1.91 0
1/3/2022 5:30:00 AM 5.51 41.918 0.216 7.78 1.94 0
1/3/2022 5:45:00 AM 5.46 41.828 0.216 7.79 1.91 0
1/3/2022 6:00:00 AM 5.42 41.756 0.216 7.79 1.92 0
1/3/2022 6:15:00 AM 5.39 41.702 0.217 7.79 1.9 0
1/3/2022 6:30:00 AM 5.33 41.594 0.217 7.79 1.93 0
1/3/2022 6:45:00 AM 5.29 41.522 0.217 7.81 2 0
1/3/2022 7:00:00 AM 5.26 41.468 0.217 7.82 1.91 0
1/3/2022 7:15:00 AM 5.22 41.396 0.217 7.82 1.91 0
1/3/2022 7:30:00 AM 5.2 41.36 0.217 7.82 1.99 0
1/3/2022 7:45:00 AM 5.18 41.324 0.217 7.8 2.01 0
1/3/2022 8:00:00 AM 5.15 41.27 0.218 7.82 1.97 0
1/3/2022 8:15:00 AM 5.13 41.234 0.218 7.83 1.97 0
1/3/2022 8:30:00 AM 5.12 41.216 0.218 7.83 1.98 0
1/3/2022 8:45:00 AM 5.1 41.18 0.218 7.82 1.94 0
1/3/2022 9:00:00 AM 5.07 41.126 0.218 7.81 1.93 0
1/3/2022 9:15:00 AM 5.05 41.09 0.218 7.82 1.95 0
1/3/2022 9:30:00 AM 5.03 41.054 0.218 7.84 1.98 0
1/3/2022 9:45:00 AM 5.01 41.018 0.218 7.84 2.02 0
1/3/2022 10:00:00 AM 4.99 40.982 0.218 7.83 1.98 0
1/3/2022 10:15:00 AM 4.97 40.946 0.218 7.83 1.99 0
1/3/2022 10:30:00 AM 4.94 40.892 0.218 7.82 1.97 0
1/3/2022 10:45:00 AM 4.93 40.874 0.218 7.83 1.96 0
1/3/2022 11:00:00 AM 4.91 40.838 0.218 7.84 1.96 0
1/3/2022 11:15:00 AM 4.89 40.802 0.218 7.84 1.97 0
1/3/2022 11:30:00 AM 4.88 40.784 0.218 7.84 1.99 0
1/3/2022 11:45:00 AM 4.87 40.766 0.218 7.84 2.01 0
1/3/2022 12:00:00 PM 4.85 40.73 0.218 7.82 1.98 0
1/3/2022 12:15:00 PM 4.84 40.712 0.218 7.84 2.02 0
1/3/2022 12:30:00 PM 4.83 40.694 0.218 7.85 2.04 0
1/3/2022 12:45:00 PM 4.82 40.676 0.219 7.85 2.08 0
1/3/2022 1:00:00 PM 4.81 40.658 0.219 7.86 2.1 0
1/3/2022 1:15:00 PM 4.8 40.64 0.219 7.87 2.06 0
1/3/2022 1:30:00 PM 4.79 40.622 0.219 7.88 2.2 0
1/3/2022 1:45:00 PM 4.79 40.622 0.219 7.87 2.13 0
1/3/2022 2:00:00 PM 4.77 40.586 0.219 7.87 2.26 0
1/3/2022 2:15:00 PM 4.76 40.568 0.219 7.87 2.13 0
1/3/2022 2:30:00 PM 4.76 40.568 0.219 7.88 2.08 0
1/3/2022 2:45:00 PM 4.75 40.55 0.219 7.89 2.22 0
1/3/2022 3:00:00 PM 4.74 40.532 0.219 7.88 2.09 0
1/3/2022 3:15:00 PM 4.74 40.532 0.219 7.89 2.1 0
1/3/2022 3:30:00 PM 4.73 40.514 0.219 7.89 2.11 0
1/3/2022 3:45:00 PM 4.73 40.514 0.219 7.89 2.16 0
1/3/2022 4:00:00 PM 4.72 40.496 0.219 7.9 2.12 0
1/3/2022 4:15:00 PM 4.72 40.496 0.219 7.89 2.16 0
1/3/2022 4:30:00 PM 4.72 40.496 0.219 7.9 2.17 0
1/3/2022 4:45:00 PM 4.72 40.496 0.219 7.9 2.11 0
1/3/2022 5:00:00 PM 4.72 40.496 0.219 7.91 2.19 0
1/3/2022 5:15:00 PM 4.72 40.496 0.219 7.92 2.12 0
1/3/2022 5:30:00 PM 4.72 40.496 0.219 7.92 2.17 0
1/3/2022 5:45:00 PM 4.72 40.496 0.219 7.92 2.13 0
1/3/2022 6:00:00 PM 4.73 40.514 0.219 7.93 2.13 -5.1
1/3/2022 6:15:00 PM 4.73 40.514 0.219 7.93 2.16 0
1/3/2022 6:30:00 PM 4.73 40.514 0.22 7.92 2.12 0
1/3/2022 6:45:00 PM 4.73 40.514 0.22 7.93 2.12 0
1/3/2022 7:00:00 PM 4.73 40.514 0.22 7.93 2.09 0
1/3/2022 7:15:00 PM 4.73 40.514 0.22 7.93 2.1 0
1/3/2022 7:30:00 PM 4.73 40.514 0.22 7.93 2.1 0
1/3/2022 7:45:00 PM 4.73 40.514 0.22 7.93 2.08 0
1/3/2022 8:00:00 PM 4.73 40.514 0.22 7.93 2.13 0
1/3/2022 8:15:00 PM 4.73 40.514 0.22 7.93 2.17 0
1/3/2022 8:30:00 PM 4.74 40.532 0.22 7.93 2.12 0
1/3/2022 8:45:00 PM 4.74 40.532 0.22 7.94 2.1 0
1/3/2022 9:00:00 PM 4.75 40.55 0.22 7.93 2.09 -5.72
1/3/2022 9:15:00 PM 4.75 40.55 0.22 7.93 2.19 -3.44
1/3/2022 9:30:00 PM 4.75 40.55 0.22 7.94 2.09 0
1/3/2022 9:45:00 PM 4.75 40.55 0.22 7.94 2.08 0
1/3/2022 10:00:00 PM 4.75 40.55 0.22 7.94 2.12 0
1/3/2022 10:15:00 PM 4.76 40.568 0.22 7.94 2.08 0
1/3/2022 10:30:00 PM 4.76 40.568 0.22 7.94 2.08 0
1/3/2022 10:45:00 PM 4.76 40.568 0.22 7.91 2.12 0
1/3/2022 11:00:00 PM 4.76 40.568 0.22 7.94 2.06 0
1/3/2022 11:15:00 PM 4.76 40.568 0.22 7.93 2.15 0
1/3/2022 11:30:00 PM 4.76 40.568 0.22 7.93 2.07 0
1/3/2022 11:45:00 PM 4.77 40.586 0.22 7.94 2.16 0
1/4/2022 12:00:00 AM 4.77 40.586 0.22 7.93 2.09 0
1/4/2022 12:15:00 AM 4.77 40.586 0.22 7.93 2.09 0
1/4/2022 12:30:00 AM 4.78 40.604 0.22 7.91 2.06 0
1/4/2022 12:45:00 AM 4.78 40.604 0.22 7.92 2.13 0
1/4/2022 1:00:00 AM 4.78 40.604 0.22 7.92 2.13 0
1/4/2022 1:15:00 AM 4.78 40.604 0.22 7.92 2.06 0
1/4/2022 1:30:00 AM 4.78 40.604 0.22 7.92 2.14 0
1/4/2022 1:45:00 AM 4.79 40.622 0.22 7.91 2.04 0
1/4/2022 2:00:00 AM 4.79 40.622 0.22 7.91 2.04 0
1/4/2022 2:15:00 AM 4.79 40.622 0.22 7.91 2.04 0
1/4/2022 2:30:00 AM 4.79 40.622 0.22 7.91 1.99 0
1/4/2022 2:45:00 AM 4.79 40.622 0.22 7.91 2.07 0
1/4/2022 3:00:00 AM 4.8 40.64 0.22 7.91 2.03 0
1/4/2022 3:15:00 AM 4.8 40.64 0.22 7.91 2.05 0
1/4/2022 3:30:00 AM 4.8 40.64 0.22 7.91 2.05 0
1/4/2022 3:45:00 AM 4.8 40.64 0.22 7.91 2.04 0
1/4/2022 4:00:00 AM 4.81 40.658 0.22 7.9 2.06 0
1/4/2022 4:15:00 AM 4.81 40.658 0.22 7.9 2.04 0
1/4/2022 4:30:00 AM 4.81 40.658 0.22 7.89 2.06 0
1/4/2022 4:45:00 AM 4.81 40.658 0.22 7.9 2.08 0
1/4/2022 5:00:00 AM 4.81 40.658 0.22 7.9 2.02 0
1/4/2022 5:15:00 AM 4.81 40.658 0.22 7.89 2.02 0
1/4/2022 5:30:00 AM 4.81 40.658 0.22 7.88 2.04 0
1/4/2022 5:45:00 AM 4.81 40.658 0.22 7.89 2.02 0
1/4/2022 6:00:00 AM 4.83 40.694 0.22 7.82 2.01 0
1/4/2022 6:15:00 AM 4.87 40.766 0.22 7.83 2.01 0
1/4/2022 6:30:00 AM 4.89 40.802 0.22 7.83 1.99 0
1/4/2022 6:45:00 AM 4.85 40.73 0.219 7.78 1.96 0
1/4/2022 7:00:00 AM 4.68 40.424 0.218 7.78 2.02 0
1/4/2022 7:15:00 AM 4.43 39.974 0.219 7.8 2.03 -4.32
1/4/2022 7:30:00 AM 4.24 39.632 0.219 7.8 2.1 0
1/4/2022 7:45:00 AM 4.04 39.272 0.219 7.81 2.1 0
1/4/2022 8:00:00 AM 3.86 38.948 0.219 7.83 2.02 0
1/4/2022 8:15:00 AM 3.7 38.66 0.219 7.83 2.05 0
1/4/2022 8:30:00 AM 3.57 38.426 0.219 7.82 2.03 0
1/4/2022 8:45:00 AM 3.47 38.246 0.219 7.82 2.04 0
1/4/2022 9:00:00 AM 3.38 38.084 0.219 7.83 2.15 0
1/4/2022 9:15:00 AM 3.33 37.994 0.219 7.82 2.09 0
1/4/2022 9:30:00 AM 3.29 37.922 0.219 7.81 2.19 0
1/4/2022 9:45:00 AM 3.27 37.886 0.219 7.82 2.15 0
1/4/2022 10:00:00 AM 3.25 37.85 0.218 7.83 2.05 0
1/4/2022 10:15:00 AM 3.24 37.832 0.218 7.84 2.02 0
1/4/2022 10:30:00 AM 3.24 37.832 0.219 7.85 2.03 0
1/4/2022 10:45:00 AM 3.23 37.814 0.218 7.83 2.06 0
1/4/2022 11:00:00 AM 3.24 37.832 0.219 7.83 2.08 0
1/4/2022 11:15:00 AM 3.24 37.832 0.218 7.84 2.04 0
1/4/2022 11:30:00 AM 3.25 37.85 0.218 7.83 2.03 0
1/4/2022 11:45:00 AM 3.26 37.868 0.218 7.83 2.01 0
1/4/2022 12:00:00 PM 3.27 37.886 0.218 7.83 2.03 0
1/4/2022 12:15:00 PM 3.28 37.904 0.216 7.9 2.36 0
1/4/2022 12:30:00 PM 3.29 37.922 0.216 7.94 2.11 0
1/4/2022 12:45:00 PM 3.31 37.958 0.217 7.91 2.09 0
1/4/2022 1:00:00 PM 3.33 37.994 0.217 7.92 2.05 -4.28
1/4/2022 1:15:00 PM 3.35 38.03 0.217 7.93 2.21 0
1/4/2022 1:30:00 PM 3.36 38.048 0.217 7.92 2.1 0
1/4/2022 1:45:00 PM 3.38 38.084 0.217 7.92 2.02 0
1/4/2022 2:00:00 PM 3.42 38.156 0.217 7.89 2.07 0
1/4/2022 2:15:00 PM 3.45 38.21 0.217 7.91 2.06 0
1/4/2022 2:30:00 PM 3.47 38.246 0.217 7.89 2.06 0
1/4/2022 2:45:00 PM 3.45 38.21 0.216 7.97